Darstellungsparameter: Aktuell verwendete Einstellungen:
Skalierung der Graphiken ... ?
xyx+y,   Skalierungsfaktor:      Skalierung: Modus: x, Faktor: 1
Darstellungszeitraum ... ?
Vom - - bis: - -   Zeitraum: 15.11.2010 - 06.03.2011
Min/Max/Avg-Anzeige ... ?
Zeige MMA aktuell
Zeige MMA Monat
Zeige MMA alles
Zeige --A aktuell
Zeige --A Monat
Zeige --A alles
Keine MMA-Anzeige
MMA:
Minimum Maximum Average (ber die Originaldaten)
MMA-Basis: 14.04.2020 - 16.05.2020
Quicknavigation für Darstellung... ?
Tage:      1T, 2T, 3T, 5T -1T -2T -3T -5T +1T +2T +3T +5T
Wochen: 1W, 2W, 3W -1W -2W -3W +1W +2W +3W
Monate: 1M, 3M, 6M -1M -3M -6M +1M +3M +6M
Jahre:    1J, 3J, 5J, 10J -1J -3J -5J -10J +1J +3J +5J +10J
Nutze für die Darstellung ... ?
Originaldaten oder Mittelwerte auf ...
Stundenbasis Tagesbasis Wochenbasis
Monatsbasis Jahresbasis      Datenbasis: Original-Daten
Darstellen als:
Statistik (Auto) Statistik J:M      Darstellung:
Zur Graphik,    zurück zur Übersicht aller Sensoren.
 
Tabellarische Datenbersicht: ?
 
Sensor: Nr:Datum:Temp:Abs-Feuchte:Windchill:Wind:
Aussen-T/F 1 15-11-2010 00:03:05 13.1 C 6.96 g/m*3 13.1 C 0 km/h
2 15-11-2010 00:15:05 13 C 6.92 g/m*3 13 C 0 km/h
3 15-11-2010 00:27:06 12.6 C 6.97 g/m*3 12.6 C 0 km/h
4 15-11-2010 00:39:06 13 C 7.03 g/m*3 13 C 0 km/h
5 15-11-2010 00:51:06 12.7 C 7.01 g/m*3 12.7 C 0 km/h
6 15-11-2010 01:03:06 12.7 C 6.9 g/m*3 12.7 C 0 km/h
7 15-11-2010 01:15:06 12.5 C 6.82 g/m*3 12.5 C 0 km/h
8 15-11-2010 01:27:06 12.1 C 6.76 g/m*3 12.1 C 0 km/h
9 15-11-2010 01:39:06 11.9 C 6.99 g/m*3 11.9 C 0 km/h
10 15-11-2010 01:51:06 11.9 C 7.1 g/m*3 11.9 C 0 km/h
11 15-11-2010 02:03:06 11.8 C 7.05 g/m*3 11.8 C 0 km/h
12 15-11-2010 02:15:06 12 C 6.82 g/m*3 12 C 0 km/h
13 15-11-2010 02:27:06 11.9 C 6.78 g/m*3 11.9 C 0 km/h
14 15-11-2010 02:39:06 11.7 C 6.9 g/m*3 11.7 C 0 km/h
15 15-11-2010 02:51:06 11.5 C 7.02 g/m*3 11.5 C 0 km/h
16 15-11-2010 03:03:06 11.3 C 6.94 g/m*3 11.3 C 0 km/h
17 15-11-2010 03:15:06 11.1 C 6.95 g/m*3 11.1 C 0 km/h
18 15-11-2010 03:27:06 10.8 C 7.02 g/m*3 10.8 C 0 km/h
19 15-11-2010 03:39:06 10.7 C 7.07 g/m*3 10.7 C 0 km/h
20 15-11-2010 03:51:06 10.6 C 7.12 g/m*3 10.6 C 0 km/h
21 15-11-2010 04:03:06 10.5 C 6.98 g/m*3 10.5 C 0 km/h
22 15-11-2010 04:15:06 10.3 C 6.99 g/m*3 10.3 C 0 km/h
23 15-11-2010 04:27:06 10.2 C 6.95 g/m*3 10.2 C 0 km/h
24 15-11-2010 04:39:07 10.2 C 6.95 g/m*3 10.2 C 0 km/h
25 15-11-2010 04:51:07 10 C 6.86 g/m*3 10 C 0 km/h
Sensor: Nr:Datum:Temp:Abs-Feuchte:Windchill:Wind:
Aussen-T/F 26 15-11-2010 05:03:07 10.2 C 6.47 g/m*3 10.2 C 0 km/h
27 15-11-2010 05:15:07 10.2 C 6.57 g/m*3 10.2 C 0 km/h
28 15-11-2010 05:27:07 9.8 C 6.59 g/m*3 9.8 C 0 km/h
29 15-11-2010 05:39:07 9.6 C 6.6 g/m*3 9.6 C 0 km/h
30 15-11-2010 05:51:07 9.8 C 6.4 g/m*3 9.8 C 0 km/h
31 15-11-2010 06:03:07 9.6 C 6.41 g/m*3 9.6 C 0 km/h
32 15-11-2010 06:15:07 9.5 C 6.19 g/m*3 9.5 C 0 km/h
33 15-11-2010 06:27:07 9.4 C 6.15 g/m*3 9.4 C 0 km/h
34 15-11-2010 06:39:07 9.1 C 6.21 g/m*3 9.1 C 0 km/h
35 15-11-2010 06:51:07 9.1 C 6.39 g/m*3 9.1 C 0 km/h
36 15-11-2010 07:03:07 9.1 C 6.39 g/m*3 9.1 C 0 km/h
37 15-11-2010 07:15:03 8.9 C 6.48 g/m*3 8.9 C 0 km/h
38 15-11-2010 07:27:03 8.6 C 6.36 g/m*3 8.6 C 0 km/h
39 15-11-2010 07:39:03 8.9 C 6.66 g/m*3 8.9 C 0 km/h
40 15-11-2010 07:51:01 9.3 C 6.2 g/m*3 9.3 C 0 km/h
41 15-11-2010 08:03:02 9.5 C 6.19 g/m*3 9.5 C 0 km/h
42 15-11-2010 08:15:02 9.2 C 6.16 g/m*3 9.2 C 0 km/h
43 15-11-2010 08:27:02 9 C 6.26 g/m*3 9 C 0 km/h
44 15-11-2010 08:39:01 8.8 C 6.44 g/m*3 8.8 C 0 km/h
45 15-11-2010 08:51:03 9 C 6.35 g/m*3 9 C 0 km/h
46 15-11-2010 09:03:02 9.1 C 6.3 g/m*3 9.1 C 0 km/h
47 15-11-2010 09:15:02 9.1 C 6.12 g/m*3 9.1 C 0 km/h
48 15-11-2010 09:27:03 9.1 C 6.03 g/m*3 9.1 C 0 km/h
49 15-11-2010 09:39:02 9.2 C 5.98 g/m*3 9.2 C 0 km/h
50 15-11-2010 09:51:02 9.3 C 5.93 g/m*3 9.3 C 0 km/h
Sensor: Nr:Datum:Temp:Abs-Feuchte:Windchill:Wind:
Aussen-T/F 51 15-11-2010 10:03:02 9.3 C 5.84 g/m*3 9.3 C 0 km/h
52 15-11-2010 10:15:02 9.4 C 5.79 g/m*3 9.4 C 0 km/h
53 15-11-2010 10:27:03 9.8 C 6.03 g/m*3 9.8 C 0 km/h
54 15-11-2010 10:39:01 10.2 C 5.8 g/m*3 10.2 C 0 km/h
55 15-11-2010 10:51:02 10.4 C 5.88 g/m*3 10.4 C 0 km/h
56 15-11-2010 11:03:01 10.4 C 5.88 g/m*3 10.4 C 0 km/h
57 15-11-2010 11:15:01 10.4 C 5.78 g/m*3 10.4 C 0 km/h
58 15-11-2010 11:27:01 10.3 C 5.75 g/m*3 10.3 C 0 km/h
59 15-11-2010 11:39:02 10 C 5.54 g/m*3 10 C 0 km/h
60 15-11-2010 11:51:02 10.4 C 5.78 g/m*3 10.4 C 0 km/h
61 15-11-2010 12:03:01 10.4 C 5.69 g/m*3 10.4 C 0 km/h
62 15-11-2010 12:15:02 10.8 C 5.63 g/m*3 10.8 C 0 km/h
63 15-11-2010 12:27:02 10.9 C 5.47 g/m*3 10.9 C 0 km/h
64 15-11-2010 12:39:02 11.2 C 5.57 g/m*3 11.2 C 0 km/h
65 15-11-2010 12:51:01 10.9 C 5.47 g/m*3 10.9 C 0 km/h
66 15-11-2010 13:03:02 10.8 C 5.54 g/m*3 10.8 C 0 km/h
67 15-11-2010 13:15:01 10.5 C 5.63 g/m*3 10.5 C 0 km/h
68 15-11-2010 13:27:01 10.4 C 5.69 g/m*3 10.4 C 0 km/h
69 15-11-2010 13:39:01 10.3 C 5.65 g/m*3 10.3 C 0 km/h
70 15-11-2010 13:51:02 10.4 C 5.59 g/m*3 10.4 C 0 km/h
71 15-11-2010 14:03:02 10.3 C 5.46 g/m*3 10.3 C 0 km/h
72 15-11-2010 14:15:01 10.4 C 5.49 g/m*3 10.4 C 0 km/h
73 15-11-2010 14:27:01 10.2 C 5.52 g/m*3 10.2 C 0 km/h
74 15-11-2010 14:39:02 10.2 C 5.52 g/m*3 10.2 C 0 km/h
75 15-11-2010 14:51:02 10.1 C 5.48 g/m*3 10.1 C 0 km/h
Sensor: Nr:Datum:Temp:Abs-Feuchte:Windchill:Wind:
Aussen-T/F 76 15-11-2010 15:03:02 10 C 5.45 g/m*3 10 C 0 km/h
77 15-11-2010 15:15:01 9.9 C 5.6 g/m*3 9.9 C 0 km/h
78 15-11-2010 15:27:01 9.7 C 5.53 g/m*3 9.7 C 0 km/h
79 15-11-2010 15:39:02 9.5 C 5.55 g/m*3 9.5 C 0 km/h
80 15-11-2010 15:51:01 9.3 C 5.57 g/m*3 9.3 C 0 km/h
81 15-11-2010 16:03:02 9.3 C 5.57 g/m*3 9.3 C 0 km/h
82 15-11-2010 16:15:02 9.2 C 5.71 g/m*3 9.2 C 0 km/h
83 15-11-2010 16:27:02 8.9 C 5.69 g/m*3 8.9 C 0 km/h
84 15-11-2010 16:39:02 8.8 C 5.74 g/m*3 8.8 C 0 km/h
85 15-11-2010 16:51:02 8.6 C 5.76 g/m*3 8.6 C 0 km/h
86 15-11-2010 17:03:02 8.4 C 5.77 g/m*3 8.4 C 0 km/h
87 15-11-2010 17:15:43 8.2 C 5.78 g/m*3 8.2 C 0 km/h
88 15-11-2010 17:27:43 8.2 C 5.78 g/m*3 8.2 C 0 km/h
89 15-11-2010 17:39:01 8.1 C 5.82 g/m*3 8.1 C 0 km/h
90 15-11-2010 17:51:02 7.9 C 5.91 g/m*3 7.9 C 0 km/h
91 15-11-2010 18:03:02 7.8 C 5.96 g/m*3 7.8 C 0 km/h
92 15-11-2010 18:15:01 8.2 C 5.86 g/m*3 8.2 C 0 km/h
93 15-11-2010 18:27:01 8.3 C 5.9 g/m*3 8.3 C 0 km/h
94 15-11-2010 18:39:02 8.2 C 5.86 g/m*3 8.2 C 0 km/h
95 15-11-2010 18:51:02 8.2 C 5.86 g/m*3 8.2 C 0 km/h
96 15-11-2010 19:03:02 8.2 C 5.78 g/m*3 8.2 C 0 km/h
97 15-11-2010 19:15:01 8.1 C 5.91 g/m*3 8.1 C 0 km/h
98 15-11-2010 19:27:01 8 C 5.87 g/m*3 8 C 0 km/h
99 15-11-2010 19:39:02 7.9 C 5.91 g/m*3 7.9 C 0 km/h
100 15-11-2010 19:51:02 7.7 C 5.92 g/m*3 7.7 C 0 km/h
Sensor: Nr:Datum:Temp:Abs-Feuchte:Windchill:Wind:
Aussen-T/F 101 15-11-2010 20:03:02 7.7 C 5.92 g/m*3 7.7 C 0 km/h
102 15-11-2010 20:15:02 7.8 C 6.04 g/m*3 7.8 C 0 km/h
103 15-11-2010 20:27:02 7.6 C 5.96 g/m*3 7.6 C 0 km/h
104 15-11-2010 20:39:02 7.4 C 5.88 g/m*3 7.4 C 0 km/h
105 15-11-2010 20:51:01 7.5 C 5.92 g/m*3 7.5 C 0 km/h
106 15-11-2010 21:03:02 7.3 C 5.93 g/m*3 7.3 C 0 km/h
107 15-11-2010 21:15:02 7.1 C 5.93 g/m*3 7.1 C 0 km/h
108 15-11-2010 21:27:02 7.1 C 6.01 g/m*3 7.1 C 0 km/h
109 15-11-2010 21:39:02 7.1 C 5.93 g/m*3 7.1 C 0 km/h
110 15-11-2010 21:51:02 7.2 C 5.89 g/m*3 7.2 C 0 km/h
111 15-11-2010 22:03:02 7.1 C 5.93 g/m*3 7.1 C 0 km/h
112 15-11-2010 22:15:02 7 C 5.89 g/m*3 7 C 0 km/h
113 15-11-2010 22:27:02 6.8 C 5.97 g/m*3 6.8 C 0 km/h
114 15-11-2010 22:39:02 6.8 C 6.04 g/m*3 6.8 C 0 km/h
115 15-11-2010 22:51:02 7 C 6.04 g/m*3 7 C 0 km/h
116 15-11-2010 23:03:02 6.8 C 5.97 g/m*3 6.8 C 0 km/h
117 15-11-2010 23:15:02 6.8 C 6.04 g/m*3 6.8 C 0 km/h
118 15-11-2010 23:27:02 6.7 C 6 g/m*3 6.7 C 0 km/h
119 15-11-2010 23:39:01 6.8 C 6.04 g/m*3 6.8 C 0 km/h
120 15-11-2010 23:51:02 6.3 C 5.92 g/m*3 6.3 C 0 km/h
121 16-11-2010 00:03:01 6.1 C 5.92 g/m*3 6.1 C 0 km/h
122 16-11-2010 00:15:02 6 C 5.95 g/m*3 6 C 0 km/h
123 16-11-2010 00:27:02 6 C 6.02 g/m*3 6 C 0 km/h
124 16-11-2010 00:39:01 5.7 C 5.91 g/m*3 5.7 C 0 km/h
125 16-11-2010 00:51:01 5.6 C 5.94 g/m*3 5.6 C 0 km/h
Sensor: Nr:Datum:Temp:Abs-Feuchte:Windchill:Wind:
Aussen-T/F 126 16-11-2010 01:03:01 5.5 C 5.9 g/m*3 5.5 C 0 km/h
127 16-11-2010 01:15:02 5.4 C 5.93 g/m*3 5.4 C 0 km/h
128 16-11-2010 01:27:02 5.2 C 5.85 g/m*3 5.2 C 0 km/h
129 16-11-2010 01:39:01 5 C 5.78 g/m*3 5 C 0 km/h
130 16-11-2010 01:51:02 4.9 C 5.87 g/m*3 4.9 C 0 km/h
131 16-11-2010 02:03:01 5.2 C 5.99 g/m*3 5.2 C 0 km/h
132 16-11-2010 02:15:01 5.3 C 6.03 g/m*3 5.3 C 0 km/h
133 16-11-2010 02:27:01 5.4 C 6.07 g/m*3 5.4 C 0 km/h
134 16-11-2010 02:39:01 5.7 C 6.19 g/m*3 5.7 C 0 km/h
135 16-11-2010 02:52:04 5.8 C 6.23 g/m*3 5.8 C 0 km/h
136 16-11-2010 03:04:04 5.9 C 6.27 g/m*3 5.9 C 0 km/h
137 16-11-2010 03:16:04 6.1 C 6.28 g/m*3 6.1 C 0 km/h
138 16-11-2010 03:28:04 5.9 C 6.27 g/m*3 5.9 C 0 km/h
139 16-11-2010 03:40:02 5.8 C 6.16 g/m*3 5.8 C 0 km/h
140 16-11-2010 03:52:02 5.6 C 6.08 g/m*3 5.6 C 0 km/h
141 16-11-2010 04:04:02 5.3 C 5.89 g/m*3 5.3 C 0 km/h
142 16-11-2010 04:16:02 5 C 5.84 g/m*3 5 C 0 km/h
143 16-11-2010 04:28:02 5.1 C 5.95 g/m*3 5.1 C 0 km/h
144 16-11-2010 04:40:02 5.2 C 5.99 g/m*3 5.2 C 0 km/h
145 16-11-2010 04:52:02 5.5 C 6.18 g/m*3 5.5 C 0 km/h
146 16-11-2010 05:04:01 5.3 C 6.03 g/m*3 5.3 C 0 km/h
147 16-11-2010 05:16:02 5.2 C 5.99 g/m*3 5.2 C 0 km/h
148 16-11-2010 05:28:02 5.7 C 6.19 g/m*3 5.7 C 0 km/h
149 16-11-2010 05:40:02 5.7 C 6.12 g/m*3 5.7 C 0 km/h
150 16-11-2010 05:52:02 5.6 C 6.01 g/m*3 5.6 C 0 km/h
Sensor: Nr:Datum:Temp:Abs-Feuchte:Windchill:Wind:
Aussen-T/F 151 16-11-2010 06:04:02 5.2 C 5.78 g/m*3 5.2 C 0 km/h
152 16-11-2010 06:16:02 5.1 C 5.81 g/m*3 5.1 C 0 km/h
153 16-11-2010 06:28:02 5.2 C 5.85 g/m*3 5.2 C 0 km/h
154 16-11-2010 06:40:03 5.3 C 5.89 g/m*3 5.3 C 0 km/h
155 16-11-2010 06:52:02 5.3 C 5.82 g/m*3 5.3 C 0 km/h
156 16-11-2010 07:04:01 5.2 C 5.78 g/m*3 5.2 C 0 km/h
157 16-11-2010 07:16:02 5.2 C 5.78 g/m*3 5.2 C 0 km/h
158 16-11-2010 07:28:03 5.2 C 5.78 g/m*3 5.2 C 0 km/h
159 16-11-2010 07:40:01 5.1 C 5.75 g/m*3 5.1 C 0 km/h
160 16-11-2010 07:52:01 5.2 C 5.85 g/m*3 5.2 C 0 km/h
161 16-11-2010 08:04:01 5.3 C 5.82 g/m*3 5.3 C 0 km/h
162 16-11-2010 08:16:02 5.4 C 5.86 g/m*3 5.4 C 0 km/h
163 16-11-2010 08:28:02 5.4 C 5.79 g/m*3 5.4 C 0 km/h
164 16-11-2010 08:40:01 5.4 C 5.79 g/m*3 5.4 C 0 km/h
165 16-11-2010 08:52:03 5.6 C 5.87 g/m*3 5.6 C 0 km/h
166 16-11-2010 09:04:02 5.7 C 5.84 g/m*3 5.7 C 0 km/h
167 16-11-2010 09:16:02 5.8 C 5.87 g/m*3 5.8 C 0 km/h
168 16-11-2010 09:28:02 5.9 C 5.84 g/m*3 5.9 C 0 km/h
169 16-11-2010 09:40:02 6 C 5.81 g/m*3 6 C 0 km/h
170 16-11-2010 09:52:02 6 C 5.73 g/m*3 6 C 0 km/h
171 16-11-2010 10:04:01 5.9 C 5.7 g/m*3 5.9 C 0 km/h
172 16-11-2010 10:16:02 6.2 C 5.81 g/m*3 6.2 C 0 km/h
173 16-11-2010 10:28:02 6.2 C 5.74 g/m*3 6.2 C 0 km/h
174 16-11-2010 10:40:01 6.7 C 5.85 g/m*3 6.7 C 0 km/h
175 16-11-2010 10:52:02 6.3 C 5.63 g/m*3 6.3 C 0 km/h
Sensor: Nr:Datum:Temp:Abs-Feuchte:Windchill:Wind:
Aussen-T/F 176 16-11-2010 11:04:02 6.4 C 5.66 g/m*3 6.4 C 0 km/h
177 16-11-2010 11:16:02 6.3 C 5.63 g/m*3 6.3 C 0 km/h
178 16-11-2010 11:28:02 6.8 C 5.74 g/m*3 6.8 C 0 km/h
179 16-11-2010 11:40:02 6.4 C 5.51 g/m*3 6.4 C 0 km/h
180 16-11-2010 11:52:02 6.9 C 5.7 g/m*3 6.9 C 0 km/h
181 16-11-2010 12:04:02 7.4 C 5.65 g/m*3 7.4 C 0 km/h
182 16-11-2010 12:16:01 7.5 C 5.52 g/m*3 7.5 C 0 km/h
183 16-11-2010 12:28:01 7.4 C 5.49 g/m*3 7.4 C 0 km/h
184 16-11-2010 12:40:02 7.1 C 5.46 g/m*3 7.1 C 0 km/h
185 16-11-2010 12:52:02 7.3 C 5.53 g/m*3 7.3 C 0 km/h
186 16-11-2010 13:04:02 7.4 C 5.57 g/m*3 7.4 C 0 km/h
187 16-11-2010 13:16:01 7.5 C 5.6 g/m*3 7.5 C 0 km/h
188 16-11-2010 13:28:01 7.7 C 5.59 g/m*3 7.7 C 0 km/h
189 16-11-2010 13:40:01 7.3 C 5.45 g/m*3 7.3 C 0 km/h
190 16-11-2010 13:52:02 7.8 C 5.71 g/m*3 7.8 C 0 km/h
191 16-11-2010 14:04:01 7.8 C 5.63 g/m*3 7.8 C 0 km/h
192 16-11-2010 14:16:02 7.6 C 5.56 g/m*3 7.6 C 0 km/h
193 16-11-2010 14:28:02 7.8 C 5.55 g/m*3 7.8 C 0 km/h
194 16-11-2010 14:40:02 7.6 C 5.4 g/m*3 7.6 C 0 km/h
195 16-11-2010 14:52:01 7.6 C 5.48 g/m*3 7.6 C 0 km/h
196 16-11-2010 15:04:02 7.5 C 5.52 g/m*3 7.5 C 0 km/h
197 16-11-2010 15:16:03 7.3 C 5.45 g/m*3 7.3 C 0 km/h
198 16-11-2010 15:28:03 7.2 C 5.49 g/m*3 7.2 C 0 km/h
199 16-11-2010 15:40:01 7.1 C 5.54 g/m*3 7.1 C 0 km/h
200 16-11-2010 15:52:01 7.1 C 5.54 g/m*3 7.1 C 0 km/h
Sensor: Nr:Datum:Temp:Abs-Feuchte:Windchill:Wind:
Aussen-T/F 201 16-11-2010 16:04:02 7.1 C 5.54 g/m*3 7.1 C 0 km/h
202 16-11-2010 16:16:01 7.1 C 5.54 g/m*3 7.1 C 0 km/h
203 16-11-2010 16:28:01 7.1 C 5.54 g/m*3 7.1 C 0 km/h
204 16-11-2010 16:40:01 7.1 C 5.54 g/m*3 7.1 C 0 km/h
205 16-11-2010 16:52:02 7 C 5.5 g/m*3 7 C 0 km/h
206 16-11-2010 17:04:02 6.9 C 5.62 g/m*3 6.9 C 0 km/h
207 16-11-2010 17:16:02 6.9 C 5.7 g/m*3 6.9 C 0 km/h
208 16-11-2010 17:28:02 6.8 C 5.66 g/m*3 6.8 C 0 km/h
209 16-11-2010 17:40:02 6.8 C 5.66 g/m*3 6.8 C 0 km/h
210 16-11-2010 17:52:02 6.6 C 5.59 g/m*3 6.6 C 0 km/h
211 16-11-2010 18:04:02 6.5 C 5.62 g/m*3 6.5 C 0 km/h
212 16-11-2010 18:16:02 6 C 5.52 g/m*3 6 C 0 km/h
213 16-11-2010 18:28:02 6.2 C 5.74 g/m*3 6.2 C 0 km/h
214 16-11-2010 18:40:02 6.2 C 5.74 g/m*3 6.2 C 0 km/h
215 16-11-2010 18:52:02 6.2 C 5.74 g/m*3 6.2 C 0 km/h
216 16-11-2010 19:04:02 6.2 C 5.74 g/m*3 6.2 C 0 km/h
217 16-11-2010 19:16:02 5.9 C 5.7 g/m*3 5.9 C 0 km/h
218 16-11-2010 19:28:03 5.9 C 5.77 g/m*3 5.9 C 0 km/h
219 16-11-2010 19:40:01 5.8 C 5.73 g/m*3 5.8 C 0 km/h
220 16-11-2010 19:52:02 5.8 C 5.8 g/m*3 5.8 C 0 km/h
221 16-11-2010 20:04:01 5.7 C 5.76 g/m*3 5.7 C 0 km/h
222 16-11-2010 20:16:02 5.6 C 5.73 g/m*3 5.6 C 0 km/h
223 16-11-2010 20:28:03 5.5 C 5.69 g/m*3 5.5 C 0 km/h
224 16-11-2010 20:40:01 5.5 C 5.69 g/m*3 5.5 C 0 km/h
225 16-11-2010 20:52:02 5.5 C 5.69 g/m*3 5.5 C 0 km/h
Sensor: Nr:Datum:Temp:Abs-Feuchte:Windchill:Wind:
Aussen-T/F 226 16-11-2010 21:04:01 5.4 C 5.65 g/m*3 5.4 C 0 km/h
227 16-11-2010 21:16:01 5.5 C 5.69 g/m*3 5.5 C 0 km/h
228 16-11-2010 21:28:01 5.5 C 5.69 g/m*3 5.5 C 0 km/h
229 16-11-2010 21:40:02 5.4 C 5.65 g/m*3 5.4 C 0 km/h
230 16-11-2010 21:52:02 5.3 C 5.61 g/m*3 5.3 C 0 km/h
231 16-11-2010 22:04:02 5.2 C 5.58 g/m*3 5.2 C 0 km/h
232 16-11-2010 22:16:01 5.2 C 5.58 g/m*3 5.2 C 0 km/h
233 16-11-2010 22:28:01 5.3 C 5.68 g/m*3 5.3 C 0 km/h
234 16-11-2010 22:41:04 5.3 C 5.61 g/m*3 5.3 C 0 km/h
235 16-11-2010 22:53:04 5.2 C 5.58 g/m*3 5.2 C 0 km/h
236 16-11-2010 23:05:04 5.1 C 5.61 g/m*3 5.1 C 0 km/h
237 16-11-2010 23:17:04 4.4 C 5.42 g/m*3 4.4 C 0 km/h
238 16-11-2010 23:29:04 4.4 C 5.55 g/m*3 4.4 C 0 km/h
239 16-11-2010 23:41:04 4.5 C 5.65 g/m*3 4.5 C 0 km/h
240 16-11-2010 23:53:04 4.6 C 5.69 g/m*3 4.6 C 0 km/h
241 17-11-2010 00:05:04 4.7 C 5.73 g/m*3 4.7 C 0 km/h
242 17-11-2010 00:17:04 4.7 C 5.73 g/m*3 4.7 C 0 km/h
243 17-11-2010 00:29:04 4.7 C 5.73 g/m*3 4.7 C 0 km/h
244 17-11-2010 00:41:04 4.8 C 5.7 g/m*3 4.8 C 0 km/h
245 17-11-2010 00:53:04 5 C 5.71 g/m*3 5 C 0 km/h
246 17-11-2010 01:05:05 5.1 C 5.68 g/m*3 5.1 C 0 km/h
247 17-11-2010 01:17:05 5 C 5.57 g/m*3 5 C 0 km/h
248 17-11-2010 01:29:05 5 C 5.57 g/m*3 5 C 0 km/h
249 17-11-2010 01:41:05 5.1 C 5.61 g/m*3 5.1 C 0 km/h
250 17-11-2010 01:53:05 5.2 C 5.65 g/m*3 5.2 C 0 km/h
Sensor: Nr:Datum:Temp:Abs-Feuchte:Windchill:Wind:
Aussen-T/F 251 17-11-2010 02:05:05 5.1 C 5.61 g/m*3 5.1 C 0 km/h
252 17-11-2010 02:17:05 5 C 5.57 g/m*3 5 C 0 km/h
253 17-11-2010 02:29:05 5 C 5.57 g/m*3 5 C 0 km/h
254 17-11-2010 02:41:05 5 C 5.57 g/m*3 5 C 0 km/h
255 17-11-2010 02:53:05 4.9 C 5.6 g/m*3 4.9 C 0 km/h
256 17-11-2010 03:05:05 5 C 5.64 g/m*3 5 C 0 km/h
257 17-11-2010 03:17:05 4.9 C 5.67 g/m*3 4.9 C 0 km/h
258 17-11-2010 03:29:05 4.9 C 5.67 g/m*3 4.9 C 0 km/h
259 17-11-2010 03:41:05 4.9 C 5.67 g/m*3 4.9 C 0 km/h
260 17-11-2010 03:53:05 4.9 C 5.67 g/m*3 4.9 C 0 km/h
261 17-11-2010 04:05:05 4.9 C 5.67 g/m*3 4.9 C 0 km/h
262 17-11-2010 04:17:05 4.8 C 5.63 g/m*3 4.8 C 0 km/h
263 17-11-2010 04:29:05 4.8 C 5.63 g/m*3 4.8 C 0 km/h
264 17-11-2010 04:41:05 4.7 C 5.6 g/m*3 4.7 C 0 km/h
265 17-11-2010 04:53:05 4.8 C 5.7 g/m*3 4.8 C 0 km/h
266 17-11-2010 05:05:06 4.7 C 5.66 g/m*3 4.7 C 0 km/h
267 17-11-2010 05:17:06 4.7 C 5.66 g/m*3 4.7 C 0 km/h
268 17-11-2010 05:29:06 4.8 C 5.77 g/m*3 4.8 C 0 km/h
269 17-11-2010 05:41:06 4.8 C 5.77 g/m*3 4.8 C 0 km/h
270 17-11-2010 05:53:06 4.7 C 5.73 g/m*3 4.7 C 0 km/h
271 17-11-2010 06:05:06 4.7 C 5.73 g/m*3 4.7 C 0 km/h
272 17-11-2010 06:17:06 4.7 C 5.73 g/m*3 4.7 C 0 km/h
273 17-11-2010 06:29:06 4.7 C 5.73 g/m*3 4.7 C 0 km/h
274 17-11-2010 06:41:06 4.7 C 5.73 g/m*3 4.7 C 0 km/h
275 17-11-2010 06:53:02 4.7 C 5.73 g/m*3 4.7 C 0 km/h
Sensor: Nr:Datum:Temp:Abs-Feuchte:Windchill:Wind:
Aussen-T/F 276 17-11-2010 07:05:02 4.7 C 5.73 g/m*3 4.7 C 0 km/h
277 17-11-2010 07:17:02 4.7 C 5.73 g/m*3 4.7 C 0 km/h
278 17-11-2010 07:29:02 4.7 C 5.73 g/m*3 4.7 C 0 km/h
279 17-11-2010 07:41:01 4.7 C 5.66 g/m*3 4.7 C 0 km/h
280 17-11-2010 07:53:02 4.8 C 5.5 g/m*3 4.8 C 0 km/h
281 17-11-2010 08:05:01 4.9 C 5.27 g/m*3 4.9 C 0 km/h
282 17-11-2010 08:17:01 4.9 C 5.13 g/m*3 4.9 C 0 km/h
283 17-11-2010 08:29:01 5.1 C 4.92 g/m*3 5.1 C 0 km/h
284 17-11-2010 08:41:02 5.2 C 4.89 g/m*3 5.2 C 0 km/h
285 17-11-2010 08:53:02 5.4 C 4.67 g/m*3 5.4 C 0 km/h
286 17-11-2010 09:05:02 5.5 C 4.64 g/m*3 5.5 C 0 km/h
287 17-11-2010 09:17:02 5.4 C 4.67 g/m*3 5.4 C 0 km/h
288 17-11-2010 09:29:02 5.6 C 4.67 g/m*3 5.6 C 0 km/h
289 17-11-2010 09:41:02 5.6 C 4.6 g/m*3 5.6 C 0 km/h
290 17-11-2010 09:53:02 5.7 C 4.63 g/m*3 5.7 C 0 km/h
291 17-11-2010 10:05:02 5.7 C 4.7 g/m*3 5.7 C 0 km/h
292 17-11-2010 10:17:02 5.7 C 4.63 g/m*3 5.7 C 0 km/h
293 17-11-2010 10:29:02 5.8 C 4.66 g/m*3 5.8 C 0 km/h
294 17-11-2010 10:41:02 5.8 C 4.66 g/m*3 5.8 C 0 km/h
295 17-11-2010 10:53:02 5.9 C 4.69 g/m*3 5.9 C 0 km/h
296 17-11-2010 11:05:02 6 C 4.57 g/m*3 6 C 0 km/h
297 17-11-2010 11:17:03 6 C 4.57 g/m*3 6 C 0 km/h
298 17-11-2010 11:29:03 5.9 C 4.61 g/m*3 5.9 C 0 km/h
299 17-11-2010 11:41:02 6.1 C 4.6 g/m*3 6.1 C 0 km/h
300 17-11-2010 11:53:02 6.2 C 4.63 g/m*3 6.2 C 0 km/h
Sensor: Nr:Datum:Temp:Abs-Feuchte:Windchill:Wind:
Aussen-T/F 301 17-11-2010 12:05:02 6.4 C 4.62 g/m*3 6.4 C 0 km/h
302 17-11-2010 12:17:02 6.3 C 4.52 g/m*3 6.3 C 0 km/h
303 17-11-2010 12:29:02 6.1 C 4.6 g/m*3 6.1 C 0 km/h
304 17-11-2010 12:41:02 6.3 C 4.66 g/m*3 6.3 C 0 km/h
305 17-11-2010 12:53:02 6.3 C 4.59 g/m*3 6.3 C 0 km/h
306 17-11-2010 13:05:02 6.3 C 4.66 g/m*3 6.3 C 0 km/h
307 17-11-2010 13:17:02 6.7 C 4.71 g/m*3 6.7 C 0 km/h
308 17-11-2010 13:29:02 6.7 C 4.64 g/m*3 6.7 C 0 km/h
309 17-11-2010 13:41:01 6.5 C 4.57 g/m*3 6.5 C 0 km/h
310 17-11-2010 13:53:02 6.5 C 4.57 g/m*3 6.5 C 0 km/h
311 17-11-2010 14:05:01 6.4 C 4.62 g/m*3 6.4 C 0 km/h
312 17-11-2010 14:17:01 6.3 C 4.59 g/m*3 6.3 C 0 km/h
313 17-11-2010 14:29:01 6.1 C 4.46 g/m*3 6.1 C 0 km/h
314 17-11-2010 14:41:02 6.1 C 4.53 g/m*3 6.1 C 0 km/h
315 17-11-2010 14:53:02 6 C 4.57 g/m*3 6 C 0 km/h
316 17-11-2010 15:05:02 5.9 C 4.54 g/m*3 5.9 C 0 km/h
317 17-11-2010 15:17:02 5.9 C 4.61 g/m*3 5.9 C 0 km/h
318 17-11-2010 15:29:02 5.9 C 4.69 g/m*3 5.9 C 0 km/h
319 17-11-2010 15:41:02 5.8 C 4.73 g/m*3 5.8 C 0 km/h
320 17-11-2010 15:53:02 5.8 C 4.8 g/m*3 5.8 C 0 km/h
321 17-11-2010 16:05:02 5.7 C 4.77 g/m*3 5.7 C 0 km/h
322 17-11-2010 16:17:02 5.6 C 4.81 g/m*3 5.6 C 0 km/h
323 17-11-2010 16:29:02 5.5 C 4.78 g/m*3 5.5 C 0 km/h
324 17-11-2010 16:41:02 5.5 C 4.85 g/m*3 5.5 C 0 km/h
325 17-11-2010 16:53:01 5.4 C 4.81 g/m*3 5.4 C 0 km/h
Sensor: Nr:Datum:Temp:Abs-Feuchte:Windchill:Wind:
Aussen-T/F 326 17-11-2010 17:05:01 5.4 C 4.88 g/m*3 5.4 C 0 km/h
327 17-11-2010 17:17:02 5.3 C 4.85 g/m*3 5.3 C 0 km/h
328 17-11-2010 17:29:02 5.2 C 4.89 g/m*3 5.2 C 0 km/h
329 17-11-2010 17:41:01 5.2 C 4.96 g/m*3 5.2 C 0 km/h
330 17-11-2010 17:53:02 5.2 C 4.96 g/m*3 5.2 C 0 km/h
331 17-11-2010 18:05:02 5.2 C 4.96 g/m*3 5.2 C 0 km/h
332 17-11-2010 18:17:03 5.2 C 4.96 g/m*3 5.2 C 0 km/h
333 17-11-2010 18:29:03 5.2 C 5.03 g/m*3 5.2 C 0 km/h
334 17-11-2010 18:41:02 5.2 C 4.96 g/m*3 5.2 C 0 km/h
335 17-11-2010 18:53:01 5.2 C 4.96 g/m*3 5.2 C 0 km/h
336 17-11-2010 19:05:01 5.3 C 4.99 g/m*3 5.3 C 0 km/h
337 17-11-2010 19:17:02 5.3 C 4.99 g/m*3 5.3 C 0 km/h
338 17-11-2010 19:29:02 5.3 C 4.99 g/m*3 5.3 C 0 km/h
339 17-11-2010 19:41:01 5.3 C 4.99 g/m*3 5.3 C 0 km/h
340 17-11-2010 19:53:01 5.3 C 4.99 g/m*3 5.3 C 0 km/h
341 17-11-2010 20:05:01 5.3 C 5.06 g/m*3 5.3 C 0 km/h
342 17-11-2010 20:17:02 5.3 C 5.13 g/m*3 5.3 C 0 km/h
343 17-11-2010 20:29:02 5.3 C 5.13 g/m*3 5.3 C 0 km/h
344 17-11-2010 20:41:56 5.3 C 5.13 g/m*3 5.3 C 0 km/h
345 17-11-2010 20:53:56 5.3 C 5.13 g/m*3 5.3 C 0 km/h
346 17-11-2010 21:05:56 5.3 C 5.2 g/m*3 5.3 C 0 km/h
347 17-11-2010 21:17:02 5.3 C 5.13 g/m*3 5.3 C 0 km/h
348 17-11-2010 21:29:02 5.3 C 5.2 g/m*3 5.3 C 0 km/h
349 17-11-2010 21:41:02 5.2 C 5.23 g/m*3 5.2 C 0 km/h
350 17-11-2010 21:53:01 5.2 C 5.3 g/m*3 5.2 C 0 km/h
Sensor: Nr:Datum:Temp:Abs-Feuchte:Windchill:Wind:
Aussen-T/F 351 17-11-2010 22:05:01 5.2 C 5.3 g/m*3 5.2 C 0 km/h
352 17-11-2010 22:17:02 5.1 C 5.27 g/m*3 5.1 C 0 km/h
353 17-11-2010 22:29:02 5.1 C 5.34 g/m*3 5.1 C 0 km/h
354 17-11-2010 22:42:03 5 C 5.37 g/m*3 5 C 0 km/h
355 17-11-2010 22:54:03 4.8 C 5.43 g/m*3 4.8 C 0 km/h
356 17-11-2010 23:06:03 4.6 C 5.49 g/m*3 4.6 C 0 km/h
357 17-11-2010 23:18:03 4.5 C 5.52 g/m*3 4.5 C 0 km/h
358 17-11-2010 23:30:03 4.5 C 5.59 g/m*3 4.5 C 0 km/h
359 17-11-2010 23:42:03 4.5 C 5.65 g/m*3 4.5 C 0 km/h
360 17-11-2010 23:54:03 4.5 C 5.65 g/m*3 4.5 C 0 km/h
361 18-11-2010 00:06:03 4.6 C 5.76 g/m*3 4.6 C 0 km/h
362 18-11-2010 00:18:03 4.7 C 5.8 g/m*3 4.7 C 0 km/h
363 18-11-2010 00:30:03 4.6 C 5.76 g/m*3 4.6 C 0 km/h
364 18-11-2010 00:42:03 4.5 C 5.72 g/m*3 4.5 C 0 km/h
365 18-11-2010 00:54:03 4.4 C 5.68 g/m*3 4.4 C 0 km/h
366 18-11-2010 01:06:03 4.3 C 5.71 g/m*3 4.3 C 0 km/h
367 18-11-2010 01:18:04 4.3 C 5.71 g/m*3 4.3 C 0 km/h
368 18-11-2010 01:30:04 4.3 C 5.71 g/m*3 4.3 C 0 km/h
369 18-11-2010 01:42:04 4.3 C 5.71 g/m*3 4.3 C 0 km/h
370 18-11-2010 01:54:04 4.2 C 5.73 g/m*3 4.2 C 0 km/h
371 18-11-2010 02:06:04 4.2 C 5.73 g/m*3 4.2 C 0 km/h
372 18-11-2010 02:18:04 4.3 C 5.77 g/m*3 4.3 C 0 km/h
373 18-11-2010 02:30:04 4.5 C 5.85 g/m*3 4.5 C 0 km/h
374 18-11-2010 02:42:04 4.4 C 5.81 g/m*3 4.4 C 0 km/h
375 18-11-2010 02:54:04 4 C 5.66 g/m*3 4 C 0 km/h
Sensor: Nr:Datum:Temp:Abs-Feuchte:Windchill:Wind:
Aussen-T/F 376 18-11-2010 03:06:04 3.9 C 5.68 g/m*3 3.9 C 0 km/h
377 18-11-2010 03:18:04 4 C 5.72 g/m*3 4 C 0 km/h
378 18-11-2010 03:30:04 4 C 5.72 g/m*3 4 C 0 km/h
379 18-11-2010 03:42:04 4.2 C 5.8 g/m*3 4.2 C 0 km/h
380 18-11-2010 03:54:04 4.2 C 5.8 g/m*3 4.2 C 0 km/h
381 18-11-2010 04:06:04 4.2 C 5.8 g/m*3 4.2 C 0 km/h
382 18-11-2010 04:18:04 4.3 C 5.9 g/m*3 4.3 C 0 km/h
383 18-11-2010 04:30:04 4.3 C 5.9 g/m*3 4.3 C 0 km/h
384 18-11-2010 04:42:04 4.3 C 5.9 g/m*3 4.3 C 0 km/h
385 18-11-2010 04:54:04 4.3 C 5.9 g/m*3 4.3 C 0 km/h
386 18-11-2010 05:06:04 4.3 C 5.9 g/m*3 4.3 C 0 km/h
387 18-11-2010 05:18:05 4.4 C 5.94 g/m*3 4.4 C 0 km/h
388 18-11-2010 05:30:05 4.3 C 5.9 g/m*3 4.3 C 0 km/h
389 18-11-2010 05:42:05 4.2 C 5.86 g/m*3 4.2 C 0 km/h
390 18-11-2010 05:54:05 4.2 C 5.86 g/m*3 4.2 C 0 km/h
391 18-11-2010 06:06:05 4.2 C 5.86 g/m*3 4.2 C 0 km/h
392 18-11-2010 06:18:05 3.9 C 5.81 g/m*3 3.9 C 0 km/h
393 18-11-2010 06:30:05 3.9 C 5.81 g/m*3 3.9 C 0 km/h
394 18-11-2010 06:42:05 3.8 C 5.77 g/m*3 3.8 C 0 km/h
395 18-11-2010 06:54:05 3.8 C 5.77 g/m*3 3.8 C 0 km/h
396 18-11-2010 07:06:05 3.8 C 5.77 g/m*3 3.8 C 0 km/h
397 18-11-2010 07:18:03 3.9 C 5.81 g/m*3 3.9 C 0 km/h
398 18-11-2010 07:30:03 4 C 5.85 g/m*3 4 C 0 km/h
399 18-11-2010 07:42:03 4 C 5.85 g/m*3 4 C 0 km/h
400 18-11-2010 07:54:02 4.2 C 5.93 g/m*3 4.2 C 0 km/h
Sensor: Nr:Datum:Temp:Abs-Feuchte:Windchill:Wind:
Aussen-T/F 401 18-11-2010 08:06:02 4.1 C 5.89 g/m*3 4.1 C 0 km/h
402 18-11-2010 08:18:01 4.2 C 5.93 g/m*3 4.2 C 0 km/h
403 18-11-2010 08:30:01 4.2 C 5.93 g/m*3 4.2 C 0 km/h
404 18-11-2010 08:42:02 4.2 C 5.93 g/m*3 4.2 C 0 km/h
405 18-11-2010 08:54:01 4.4 C 6.01 g/m*3 4.4 C 0 km/h
406 18-11-2010 09:06:02 4.5 C 6.05 g/m*3 4.5 C 0 km/h
407 18-11-2010 09:18:01 4.8 C 6.17 g/m*3 4.8 C 0 km/h
408 18-11-2010 09:30:01 4.8 C 6.17 g/m*3 4.8 C 0 km/h
409 18-11-2010 09:42:02 5.2 C 6.27 g/m*3 5.2 C 0 km/h
410 18-11-2010 09:54:01 5.4 C 6.35 g/m*3 5.4 C 0 km/h
411 18-11-2010 10:06:02 5.4 C 6.28 g/m*3 5.4 C 0 km/h
412 18-11-2010 10:18:02 5.8 C 6.38 g/m*3 5.8 C 0 km/h
413 18-11-2010 10:30:02 6 C 6.24 g/m*3 6 C 0 km/h
414 18-11-2010 10:42:01 6.1 C 6.14 g/m*3 6.1 C 0 km/h
415 18-11-2010 10:54:02 6.5 C 6.15 g/m*3 6.5 C 0 km/h
416 18-11-2010 11:06:01 6.5 C 6.07 g/m*3 6.5 C 0 km/h
417 18-11-2010 11:18:01 6.6 C 5.96 g/m*3 6.6 C 0 km/h
418 18-11-2010 11:30:02 6.8 C 5.97 g/m*3 6.8 C 0 km/h
419 18-11-2010 11:42:01 7.2 C 6.04 g/m*3 7.2 C 0 km/h
420 18-11-2010 11:54:02 7.4 C 6.04 g/m*3 7.4 C 0 km/h
421 18-11-2010 12:06:01 7.4 C 6.04 g/m*3 7.4 C 0 km/h
422 18-11-2010 12:18:02 7.6 C 6.04 g/m*3 7.6 C 0 km/h
423 18-11-2010 12:30:02 7.6 C 5.96 g/m*3 7.6 C 0 km/h
424 18-11-2010 12:42:02 7.4 C 5.73 g/m*3 7.4 C 0 km/h
425 18-11-2010 12:54:01 7.7 C 5.84 g/m*3 7.7 C 0 km/h
Sensor: Nr:Datum:Temp:Abs-Feuchte:Windchill:Wind:
Aussen-T/F 426 18-11-2010 13:06:01 8 C 5.7 g/m*3 8 C 0 km/h
427 18-11-2010 13:18:01 8.5 C 5.81 g/m*3 8.5 C 0 km/h
428 18-11-2010 13:30:01 8.4 C 5.6 g/m*3 8.4 C 0 km/h
429 18-11-2010 13:42:02 8.3 C 5.65 g/m*3 8.3 C 0 km/h
430 18-11-2010 13:54:02 8.6 C 5.76 g/m*3 8.6 C 0 km/h
431 18-11-2010 14:06:02 8.5 C 5.46 g/m*3 8.5 C 0 km/h
432 18-11-2010 14:18:01 8.2 C 5.28 g/m*3 8.2 C 0 km/h
433 18-11-2010 14:30:01 8 C 5.37 g/m*3 8 C 0 km/h
434 18-11-2010 14:42:02 8 C 5.29 g/m*3 8 C 0 km/h
435 18-11-2010 14:54:02 8 C 5.21 g/m*3 8 C 0 km/h
436 18-11-2010 15:06:02 7.8 C 5.3 g/m*3 7.8 C 0 km/h
437 18-11-2010 15:18:01 7.9 C 5.34 g/m*3 7.9 C 0 km/h
438 18-11-2010 15:30:01 7.8 C 5.39 g/m*3 7.8 C 0 km/h
439 18-11-2010 15:42:02 7.7 C 5.43 g/m*3 7.7 C 0 km/h
440 18-11-2010 15:54:01 7.6 C 5.48 g/m*3 7.6 C 0 km/h
441 18-11-2010 16:06:02 7.3 C 5.61 g/m*3 7.3 C 0 km/h
442 18-11-2010 16:18:02 7.1 C 5.77 g/m*3 7.1 C 0 km/h
443 18-11-2010 16:30:02 6.9 C 5.93 g/m*3 6.9 C 0 km/h
444 18-11-2010 16:42:01 6.8 C 5.89 g/m*3 6.8 C 0 km/h
445 18-11-2010 16:54:02 6.4 C 5.66 g/m*3 6.4 C 0 km/h
446 18-11-2010 17:06:01 6 C 5.66 g/m*3 6 C 0 km/h
447 18-11-2010 17:18:02 6.1 C 5.84 g/m*3 6.1 C 0 km/h
448 18-11-2010 17:30:02 6.1 C 5.92 g/m*3 6.1 C 0 km/h
449 18-11-2010 17:42:01 6.2 C 5.96 g/m*3 6.2 C 0 km/h
450 18-11-2010 17:54:02 6.2 C 5.96 g/m*3 6.2 C 0 km/h
Sensor: Nr:Datum:Temp:Abs-Feuchte:Windchill:Wind:
Aussen-T/F 451 18-11-2010 18:06:02 6.2 C 5.96 g/m*3 6.2 C 0 km/h
452 18-11-2010 18:18:02 6.2 C 6.03 g/m*3 6.2 C 0 km/h
453 18-11-2010 18:30:02 6.2 C 6.03 g/m*3 6.2 C 0 km/h
454 18-11-2010 18:42:02 6.2 C 6.03 g/m*3 6.2 C 0 km/h
455 18-11-2010 18:54:02 6.2 C 6.03 g/m*3 6.2 C 0 km/h
456 18-11-2010 19:06:01 6.3 C 6.07 g/m*3 6.3 C 0 km/h
457 18-11-2010 19:18:02 6.2 C 5.88 g/m*3 6.2 C 0 km/h
458 18-11-2010 19:30:02 5.8 C 5.95 g/m*3 5.8 C 0 km/h
459 18-11-2010 19:42:02 5.7 C 6.05 g/m*3 5.7 C 0 km/h
460 18-11-2010 19:54:02 5.7 C 6.12 g/m*3 5.7 C 0 km/h
461 18-11-2010 20:06:02 5.6 C 6.15 g/m*3 5.6 C 0 km/h
462 18-11-2010 20:18:02 5.6 C 6.22 g/m*3 5.6 C 0 km/h
463 18-11-2010 20:30:02 5.6 C 6.22 g/m*3 5.6 C 0 km/h
464 18-11-2010 20:42:02 5.6 C 6.29 g/m*3 5.6 C 0 km/h
465 18-11-2010 20:54:01 5.5 C 6.25 g/m*3 5.5 C 0 km/h
466 18-11-2010 21:06:02 5.5 C 6.25 g/m*3 5.5 C 0 km/h
467 18-11-2010 21:18:01 5.5 C 6.25 g/m*3 5.5 C 0 km/h
468 18-11-2010 21:30:01 5.5 C 6.25 g/m*3 5.5 C 0 km/h
469 18-11-2010 21:42:01 5.5 C 6.25 g/m*3 5.5 C 0 km/h
470 18-11-2010 21:54:01 5.6 C 6.36 g/m*3 5.6 C 0 km/h
471 18-11-2010 22:06:01 5.5 C 6.32 g/m*3 5.5 C 0 km/h
472 18-11-2010 22:18:02 5.5 C 6.32 g/m*3 5.5 C 0 km/h
473 18-11-2010 22:30:02 5.5 C 6.32 g/m*3 5.5 C 0 km/h
474 18-11-2010 22:42:01 5.5 C 6.32 g/m*3 5.5 C 0 km/h
475 18-11-2010 22:55:03 5.5 C 6.32 g/m*3 5.5 C 0 km/h
Sensor: Nr:Datum:Temp:Abs-Feuchte:Windchill:Wind:
Aussen-T/F 476 18-11-2010 23:07:03 5.6 C 6.43 g/m*3 5.6 C 0 km/h
477 18-11-2010 23:19:03 5.6 C 6.43 g/m*3 5.6 C 0 km/h
478 18-11-2010 23:31:03 5.7 C 6.48 g/m*3 5.7 C 0 km/h
479 18-11-2010 23:43:03 5.7 C 6.4 g/m*3 5.7 C 0 km/h
480 18-11-2010 23:55:04 5.6 C 6.36 g/m*3 5.6 C 0 km/h
481 19-11-2010 00:07:04 5.5 C 6.32 g/m*3 5.5 C 0 km/h
482 19-11-2010 00:19:04 5.6 C 6.29 g/m*3 5.6 C 0 km/h
483 19-11-2010 00:31:04 5.7 C 6.26 g/m*3 5.7 C 0 km/h
484 19-11-2010 00:43:04 5.7 C 6.26 g/m*3 5.7 C 0 km/h
485 19-11-2010 00:55:04 5.8 C 6.16 g/m*3 5.8 C 0 km/h
486 19-11-2010 01:07:04 5.8 C 6.09 g/m*3 5.8 C 0 km/h
487 19-11-2010 01:19:04 5.6 C 6.01 g/m*3 5.6 C 0 km/h
488 19-11-2010 01:31:04 5.5 C 6.11 g/m*3 5.5 C 0 km/h
489 19-11-2010 01:43:04 5.5 C 6.18 g/m*3 5.5 C 0 km/h
490 19-11-2010 01:55:04 5.5 C 6.18 g/m*3 5.5 C 0 km/h
491 19-11-2010 02:07:04 5.4 C 6.14 g/m*3 5.4 C 0 km/h
492 19-11-2010 02:19:04 5.4 C 6.21 g/m*3 5.4 C 0 km/h
493 19-11-2010 02:31:04 5.3 C 6.17 g/m*3 5.3 C 0 km/h
494 19-11-2010 02:43:04 5.3 C 6.17 g/m*3 5.3 C 0 km/h
495 19-11-2010 02:55:04 5.3 C 6.17 g/m*3 5.3 C 0 km/h
496 19-11-2010 03:07:04 5.2 C 6.06 g/m*3 5.2 C 0 km/h
497 19-11-2010 03:19:04 5.2 C 6.13 g/m*3 5.2 C 0 km/h
498 19-11-2010 03:31:04 5.1 C 6.09 g/m*3 5.1 C 0 km/h
499 19-11-2010 03:43:04 5.1 C 6.09 g/m*3 5.1 C 0 km/h
500 19-11-2010 03:55:04 5 C 6.05 g/m*3 5 C 0 km/h
Sensor: Nr:Datum:Temp:Abs-Feuchte:Windchill:Wind:
Aussen-T/F 501 19-11-2010 04:07:05 5 C 6.05 g/m*3 5 C 0 km/h
502 19-11-2010 04:19:05 5 C 6.05 g/m*3 5 C 0 km/h
503 19-11-2010 04:31:05 5.1 C 6.09 g/m*3 5.1 C 0 km/h
504 19-11-2010 04:43:05 5.1 C 6.09 g/m*3 5.1 C 0 km/h
505 19-11-2010 04:55:05 5 C 5.98 g/m*3 5 C 0 km/h
506 19-11-2010 05:07:05 4.9 C 6.01 g/m*3 4.9 C 0 km/h
507 19-11-2010 05:19:05 4.9 C 6.01 g/m*3 4.9 C 0 km/h
508 19-11-2010 05:31:05 4.9 C 6.08 g/m*3 4.9 C 0 km/h
509 19-11-2010 05:43:05 5 C 6.05 g/m*3 5 C 0 km/h
510 19-11-2010 05:55:05 5 C 6.05 g/m*3 5 C 0 km/h
511 19-11-2010 06:07:05 4.9 C 6.01 g/m*3 4.9 C 0 km/h
512 19-11-2010 06:19:05 4.8 C 5.97 g/m*3 4.8 C 0 km/h
513 19-11-2010 06:31:05 4.8 C 6.04 g/m*3 4.8 C 0 km/h
514 19-11-2010 06:43:05 5 C 6.05 g/m*3 5 C 0 km/h
515 19-11-2010 06:55:02 5 C 6.05 g/m*3 5 C 0 km/h
516 19-11-2010 07:07:02 5.1 C 6.09 g/m*3 5.1 C 0 km/h
517 19-11-2010 07:19:02 5.2 C 6.13 g/m*3 5.2 C 0 km/h
518 19-11-2010 07:31:02 5.2 C 6.13 g/m*3 5.2 C 0 km/h
519 19-11-2010 07:43:02 5.1 C 6.09 g/m*3 5.1 C 0 km/h
520 19-11-2010 07:55:02 5.1 C 6.09 g/m*3 5.1 C 0 km/h
521 19-11-2010 08:07:01 5.2 C 6.13 g/m*3 5.2 C 0 km/h
522 19-11-2010 08:19:02 5.3 C 6.17 g/m*3 5.3 C 0 km/h
523 19-11-2010 08:31:02 5.4 C 6.21 g/m*3 5.4 C 0 km/h
524 19-11-2010 08:43:02 5.5 C 6.25 g/m*3 5.5 C 0 km/h
525 19-11-2010 08:55:02 5.8 C 6.38 g/m*3 5.8 C 0 km/h
Sensor: Nr:Datum:Temp:Abs-Feuchte:Windchill:Wind:
Aussen-T/F 526 19-11-2010 09:07:02 6 C 6.31 g/m*3 6 C 0 km/h
527 19-11-2010 09:19:02 6.2 C 6.32 g/m*3 6.2 C 0 km/h
528 19-11-2010 09:31:03 6.4 C 6.33 g/m*3 6.4 C 0 km/h
529 19-11-2010 09:43:03 6.4 C 6.18 g/m*3 6.4 C 0 km/h
530 19-11-2010 09:55:02 6.6 C 6.11 g/m*3 6.6 C 0 km/h
531 19-11-2010 10:07:02 6.9 C 6.24 g/m*3 6.9 C 0 km/h
532 19-11-2010 10:19:01 7.1 C 6.16 g/m*3 7.1 C 0 km/h
533 19-11-2010 10:31:02 7.6 C 6.28 g/m*3 7.6 C 0 km/h
534 19-11-2010 10:43:03 7.9 C 6.32 g/m*3 7.9 C 0 km/h
535 19-11-2010 10:55:02 8.6 C 6.36 g/m*3 8.6 C 0 km/h
536 19-11-2010 11:07:02 8.7 C 6.23 g/m*3 8.7 C 0 km/h
537 19-11-2010 11:19:02 8.9 C 6.13 g/m*3 8.9 C 0 km/h
538 19-11-2010 11:31:02 8.8 C 6.01 g/m*3 8.8 C 0 km/h
539 19-11-2010 11:43:02 8.8 C 6.01 g/m*3 8.8 C 0 km/h
540 19-11-2010 11:55:02 9 C 5.91 g/m*3 9 C 0 km/h
541 19-11-2010 12:07:02 9.2 C 5.98 g/m*3 9.2 C 0 km/h
542 19-11-2010 12:19:03 9.5 C 5.92 g/m*3 9.5 C 0 km/h
543 19-11-2010 12:31:02 9.5 C 5.83 g/m*3 9.5 C 0 km/h
544 19-11-2010 12:43:02 9.4 C 5.79 g/m*3 9.4 C 0 km/h
545 19-11-2010 12:55:02 10 C 5.73 g/m*3 10 C 0 km/h
546 19-11-2010 13:07:02 10.2 C 5.8 g/m*3 10.2 C 0 km/h
547 19-11-2010 13:19:02 9.7 C 5.81 g/m*3 9.7 C 0 km/h
548 19-11-2010 13:31:02 9.5 C 5.83 g/m*3 9.5 C 0 km/h
549 19-11-2010 13:43:02 9.5 C 5.92 g/m*3 9.5 C 0 km/h
550 19-11-2010 13:55:02 9.8 C 5.75 g/m*3 9.8 C 0 km/h
Sensor: Nr:Datum:Temp:Abs-Feuchte:Windchill:Wind:
Aussen-T/F 551 19-11-2010 14:07:01 10.2 C 5.61 g/m*3 10.2 C 0 km/h
552 19-11-2010 14:19:02 10.1 C 5.67 g/m*3 10.1 C 0 km/h
553 19-11-2010 14:31:02 9.9 C 5.7 g/m*3 9.9 C 0 km/h
554 19-11-2010 14:43:02 9.8 C 5.75 g/m*3 9.8 C 0 km/h
555 19-11-2010 14:55:01 9.7 C 5.72 g/m*3 9.7 C 0 km/h
556 19-11-2010 15:07:01 9.7 C 5.81 g/m*3 9.7 C 0 km/h
557 19-11-2010 15:19:01 9.2 C 5.8 g/m*3 9.2 C 0 km/h
558 19-11-2010 15:31:02 8.6 C 5.84 g/m*3 8.6 C 0 km/h
559 19-11-2010 15:43:02 7.7 C 6 g/m*3 7.7 C 0 km/h
560 19-11-2010 15:55:02 7.3 C 6.08 g/m*3 7.3 C 0 km/h
561 19-11-2010 16:07:02 6.9 C 6.08 g/m*3 6.9 C 0 km/h
562 19-11-2010 16:19:01 6.8 C 6.12 g/m*3 6.8 C 0 km/h
563 19-11-2010 16:31:02 6.8 C 6.19 g/m*3 6.8 C 0 km/h
564 19-11-2010 16:43:02 7.2 C 6.36 g/m*3 7.2 C 0 km/h
565 19-11-2010 16:55:02 7.5 C 6.4 g/m*3 7.5 C 0 km/h
566 19-11-2010 17:07:02 7.6 C 6.28 g/m*3 7.6 C 0 km/h
567 19-11-2010 17:19:01 7.6 C 6.28 g/m*3 7.6 C 0 km/h
568 19-11-2010 17:31:02 7.7 C 6.32 g/m*3 7.7 C 0 km/h
569 19-11-2010 17:43:02 7.5 C 6.32 g/m*3 7.5 C 0 km/h
570 19-11-2010 17:55:02 7.5 C 6.32 g/m*3 7.5 C 0 km/h
571 19-11-2010 18:07:02 7.5 C 6.4 g/m*3 7.5 C 0 km/h
572 19-11-2010 18:19:02 7.6 C 6.36 g/m*3 7.6 C 0 km/h
573 19-11-2010 18:31:02 7.7 C 6.32 g/m*3 7.7 C 0 km/h
574 19-11-2010 18:43:02 7.8 C 6.28 g/m*3 7.8 C 0 km/h
575 19-11-2010 18:55:02 7.5 C 6.24 g/m*3 7.5 C 0 km/h
Sensor: Nr:Datum:Temp:Abs-Feuchte:Windchill:Wind:
Aussen-T/F 576 19-11-2010 19:07:02 7.5 C 6.32 g/m*3 7.5 C 0 km/h
577 19-11-2010 19:19:02 7.3 C 6.24 g/m*3 7.3 C 0 km/h
578 19-11-2010 19:31:01 7 C 6.2 g/m*3 7 C 0 km/h
579 19-11-2010 19:43:01 6.7 C 6.23 g/m*3 6.7 C 0 km/h
580 19-11-2010 19:55:02 6.3 C 6.14 g/m*3 6.3 C 0 km/h
581 19-11-2010 20:07:01 5.9 C 6.13 g/m*3 5.9 C 0 km/h
582 19-11-2010 20:19:02 5.4 C 6 g/m*3 5.4 C 0 km/h
583 19-11-2010 20:31:01 5 C 5.84 g/m*3 5 C 0 km/h
584 19-11-2010 20:43:01 4.6 C 5.76 g/m*3 4.6 C 0 km/h
585 19-11-2010 20:55:01 4.6 C 5.82 g/m*3 4.6 C 0 km/h
586 19-11-2010 21:07:02 4.1 C 5.63 g/m*3 4.1 C 0 km/h
587 19-11-2010 21:19:02 3.9 C 5.62 g/m*3 3.9 C 0 km/h
588 19-11-2010 21:31:01 4 C 5.66 g/m*3 4 C 0 km/h
589 19-11-2010 21:43:01 3.8 C 5.65 g/m*3 3.8 C 0 km/h
590 19-11-2010 21:55:01 3.5 C 5.53 g/m*3 3.5 C 0 km/h
591 19-11-2010 22:07:01 3.4 C 5.5 g/m*3 3.4 C 0 km/h
592 19-11-2010 22:19:01 3.4 C 5.56 g/m*3 3.4 C 0 km/h
593 19-11-2010 22:31:01 4.4 C 5.94 g/m*3 4.4 C 0 km/h
594 19-11-2010 22:43:01 4.3 C 5.9 g/m*3 4.3 C 0 km/h
595 19-11-2010 22:55:01 4.1 C 5.82 g/m*3 4.1 C 0 km/h
596 19-11-2010 23:07:01 4 C 5.79 g/m*3 4 C 0 km/h
597 19-11-2010 23:19:02 4.3 C 5.9 g/m*3 4.3 C 0 km/h
598 19-11-2010 23:32:02 4.6 C 6.09 g/m*3 4.6 C 0 km/h
599 19-11-2010 23:44:02 4.8 C 6.17 g/m*3 4.8 C 0 km/h
600 19-11-2010 23:56:02 5 C 6.18 g/m*3 5 C 0 km/h
Sensor: Nr:Datum:Temp:Abs-Feuchte:Windchill:Wind:
Aussen-T/F 601 20-11-2010 00:08:02 4.7 C 6.13 g/m*3 4.7 C 0 km/h
602 20-11-2010 00:20:02 3.9 C 5.81 g/m*3 3.9 C 0 km/h
603 20-11-2010 00:32:02 3.2 C 5.54 g/m*3 3.2 C 0 km/h
604 20-11-2010 00:44:02 3.8 C 5.77 g/m*3 3.8 C 0 km/h
605 20-11-2010 00:56:02 4.6 C 6.09 g/m*3 4.6 C 0 km/h
606 20-11-2010 01:08:02 4.6 C 6.09 g/m*3 4.6 C 0 km/h
607 20-11-2010 01:20:02 4.9 C 6.21 g/m*3 4.9 C 0 km/h
608 20-11-2010 01:32:02 4.6 C 6.09 g/m*3 4.6 C 0 km/h
609 20-11-2010 01:44:02 3.7 C 5.73 g/m*3 3.7 C 0 km/h
610 20-11-2010 01:56:03 3.1 C 5.51 g/m*3 3.1 C 0 km/h
611 20-11-2010 02:08:03 2.4 C 5.25 g/m*3 2.4 C 0 km/h
612 20-11-2010 02:20:03 2.1 C 5.15 g/m*3 2.1 C 0 km/h
613 20-11-2010 02:32:03 1.7 C 5.06 g/m*3 1.7 C 0 km/h
614 20-11-2010 02:44:03 2 C 5.11 g/m*3 2 C 0 km/h
615 20-11-2010 02:56:03 1.5 C 4.99 g/m*3 1.5 C 0 km/h
616 20-11-2010 03:08:03 1.4 C 4.96 g/m*3 1.4 C 0 km/h
617 20-11-2010 03:20:03 1.2 C 4.84 g/m*3 1.2 C 0 km/h
618 20-11-2010 03:32:03 1.1 C 4.81 g/m*3 1.1 C 0 km/h
619 20-11-2010 03:44:03 1.3 C 4.87 g/m*3 1.3 C 0 km/h
620 20-11-2010 03:56:03 1.7 C 5.06 g/m*3 1.7 C 0 km/h
621 20-11-2010 04:08:03 2.1 C 5.15 g/m*3 2.1 C 0 km/h
622 20-11-2010 04:20:03 2.5 C 5.35 g/m*3 2.5 C 0 km/h
623 20-11-2010 04:32:03 2.8 C 5.46 g/m*3 2.8 C 0 km/h
624 20-11-2010 04:44:03 2.8 C 5.46 g/m*3 2.8 C 0 km/h
625 20-11-2010 04:56:03 3 C 5.47 g/m*3 3 C 0 km/h
Sensor: Nr:Datum:Temp:Abs-Feuchte:Windchill:Wind:
Aussen-T/F 626 20-11-2010 05:08:03 3.1 C 5.51 g/m*3 3.1 C 0 km/h
627 20-11-2010 05:20:03 3.2 C 5.6 g/m*3 3.2 C 0 km/h
628 20-11-2010 05:32:03 3.4 C 5.68 g/m*3 3.4 C 0 km/h
629 20-11-2010 05:44:03 3.4 C 5.68 g/m*3 3.4 C 0 km/h
630 20-11-2010 05:56:03 3.6 C 5.76 g/m*3 3.6 C 0 km/h
631 20-11-2010 06:08:03 3.6 C 5.76 g/m*3 3.6 C 0 km/h
632 20-11-2010 06:20:03 3.7 C 5.8 g/m*3 3.7 C 0 km/h
633 20-11-2010 06:32:04 3.8 C 5.83 g/m*3 3.8 C 0 km/h
634 20-11-2010 06:44:04 3.8 C 5.83 g/m*3 3.8 C 0 km/h
635 20-11-2010 06:56:04 3.9 C 5.87 g/m*3 3.9 C 0 km/h
636 20-11-2010 07:08:04 4 C 5.91 g/m*3 4 C 0 km/h
637 20-11-2010 07:20:04 4 C 5.91 g/m*3 4 C 0 km/h
638 20-11-2010 07:32:04 4.1 C 5.95 g/m*3 4.1 C 0 km/h
639 20-11-2010 07:44:04 4.1 C 5.95 g/m*3 4.1 C 0 km/h
640 20-11-2010 07:56:04 4.1 C 5.95 g/m*3 4.1 C 0 km/h
641 20-11-2010 08:08:02 4.2 C 5.99 g/m*3 4.2 C 0 km/h
642 20-11-2010 08:20:01 4.3 C 6.03 g/m*3 4.3 C 0 km/h
643 20-11-2010 08:32:02 4.4 C 6.07 g/m*3 4.4 C 0 km/h
644 20-11-2010 08:44:02 4.5 C 6.11 g/m*3 4.5 C 0 km/h
645 20-11-2010 08:56:02 4.6 C 6.15 g/m*3 4.6 C 0 km/h
646 20-11-2010 09:08:02 4.7 C 6.19 g/m*3 4.7 C 0 km/h
647 20-11-2010 09:20:01 4.9 C 6.28 g/m*3 4.9 C 0 km/h
648 20-11-2010 09:32:02 5 C 6.25 g/m*3 5 C 0 km/h
649 20-11-2010 09:44:02 5.2 C 6.4 g/m*3 5.2 C 0 km/h
650 20-11-2010 09:56:02 5.4 C 6.49 g/m*3 5.4 C 0 km/h
Sensor: Nr:Datum:Temp:Abs-Feuchte:Windchill:Wind:
Aussen-T/F 651 20-11-2010 10:08:02 5.5 C 6.46 g/m*3 5.5 C 0 km/h
652 20-11-2010 10:20:02 5.6 C 6.5 g/m*3 5.6 C 0 km/h
653 20-11-2010 10:32:02 6 C 6.6 g/m*3 6 C 0 km/h
654 20-11-2010 10:44:02 6.5 C 6.82 g/m*3 6.5 C 0 km/h
655 20-11-2010 10:56:02 6.5 C 6.75 g/m*3 6.5 C 0 km/h
656 20-11-2010 11:08:01 6.8 C 6.81 g/m*3 6.8 C 0 km/h
657 20-11-2010 11:20:02 6.9 C 6.7 g/m*3 6.9 C 0 km/h
658 20-11-2010 11:32:01 7.2 C 6.67 g/m*3 7.2 C 0 km/h
659 20-11-2010 11:44:01 8 C 6.78 g/m*3 8 C 0 km/h
660 20-11-2010 11:56:02 8.4 C 6.79 g/m*3 8.4 C 0 km/h
661 20-11-2010 12:08:01 8.8 C 6.88 g/m*3 8.8 C 0 km/h
662 20-11-2010 12:20:01 8.9 C 6.83 g/m*3 8.9 C 0 km/h
663 20-11-2010 12:32:02 9.2 C 6.61 g/m*3 9.2 C 0 km/h
664 20-11-2010 12:44:02 9.3 C 6.56 g/m*3 9.3 C 0 km/h
665 20-11-2010 12:56:02 9.3 C 6.47 g/m*3 9.3 C 0 km/h
666 20-11-2010 13:08:02 8.9 C 6.31 g/m*3 8.9 C 0 km/h
667 20-11-2010 13:20:01 8.7 C 6.4 g/m*3 8.7 C 0 km/h
668 20-11-2010 13:32:02 8.5 C 6.32 g/m*3 8.5 C 0 km/h
669 20-11-2010 13:44:03 9.1 C 6.48 g/m*3 9.1 C 0 km/h
670 20-11-2010 13:56:02 9.2 C 6.34 g/m*3 9.2 C 0 km/h
671 20-11-2010 14:08:02 9 C 6.26 g/m*3 9 C 0 km/h
672 20-11-2010 14:20:01 8.9 C 6.31 g/m*3 8.9 C 0 km/h
673 20-11-2010 14:32:02 8.8 C 6.35 g/m*3 8.8 C 0 km/h
674 20-11-2010 14:44:02 8.7 C 6.31 g/m*3 8.7 C 0 km/h
675 20-11-2010 14:56:02 8.5 C 6.23 g/m*3 8.5 C 0 km/h
Sensor: Nr:Datum:Temp:Abs-Feuchte:Windchill:Wind:
Aussen-T/F 676 20-11-2010 15:08:02 8.3 C 6.15 g/m*3 8.3 C 0 km/h
677 20-11-2010 15:20:02 8.1 C 6.24 g/m*3 8.1 C 0 km/h
678 20-11-2010 15:32:02 7.9 C 6.24 g/m*3 7.9 C 0 km/h
679 20-11-2010 15:44:02 7.6 C 6.2 g/m*3 7.6 C 0 km/h
680 20-11-2010 15:56:02 6.9 C 6.08 g/m*3 6.9 C 0 km/h
681 20-11-2010 16:08:02 6.2 C 5.96 g/m*3 6.2 C 0 km/h
682 20-11-2010 16:20:02 5.7 C 5.91 g/m*3 5.7 C 0 km/h
683 20-11-2010 16:32:01 5.2 C 5.78 g/m*3 5.2 C 0 km/h
684 20-11-2010 16:44:01 4.8 C 5.77 g/m*3 4.8 C 0 km/h
685 20-11-2010 16:56:02 4.8 C 5.9 g/m*3 4.8 C 0 km/h
686 20-11-2010 17:08:01 4.6 C 5.82 g/m*3 4.6 C 0 km/h
687 20-11-2010 17:20:02 4.6 C 5.89 g/m*3 4.6 C 0 km/h
688 20-11-2010 17:32:02 4.6 C 5.89 g/m*3 4.6 C 0 km/h
689 20-11-2010 17:44:02 4.7 C 6 g/m*3 4.7 C 0 km/h
690 20-11-2010 17:56:02 4.5 C 5.92 g/m*3 4.5 C 0 km/h
691 20-11-2010 18:08:02 4.5 C 5.92 g/m*3 4.5 C 0 km/h
692 20-11-2010 18:20:02 4.5 C 5.92 g/m*3 4.5 C 0 km/h
693 20-11-2010 18:32:02 4.4 C 5.88 g/m*3 4.4 C 0 km/h
694 20-11-2010 18:44:02 4.4 C 5.94 g/m*3 4.4 C 0 km/h
695 20-11-2010 18:56:01 4.2 C 5.86 g/m*3 4.2 C 0 km/h
696 20-11-2010 19:08:02 4.4 C 5.94 g/m*3 4.4 C 0 km/h
697 20-11-2010 19:20:01 3.9 C 5.75 g/m*3 3.9 C 0 km/h
698 20-11-2010 19:32:02 3.9 C 5.75 g/m*3 3.9 C 0 km/h
699 20-11-2010 19:44:02 3.8 C 5.71 g/m*3 3.8 C 0 km/h
700 20-11-2010 19:56:02 3.6 C 5.63 g/m*3 3.6 C 0 km/h
Sensor: Nr:Datum:Temp:Abs-Feuchte:Windchill:Wind:
Aussen-T/F 701 20-11-2010 20:08:02 3.6 C 5.63 g/m*3 3.6 C 0 km/h
702 20-11-2010 20:20:02 3.5 C 5.66 g/m*3 3.5 C 0 km/h
703 20-11-2010 20:32:02 3.4 C 5.62 g/m*3 3.4 C 0 km/h
704 20-11-2010 20:44:03 3.1 C 5.45 g/m*3 3.1 C 0 km/h
705 20-11-2010 20:56:02 2.8 C 5.4 g/m*3 2.8 C 0 km/h
706 20-11-2010 21:08:02 2.8 C 5.4 g/m*3 2.8 C 0 km/h
707 20-11-2010 21:20:02 2.8 C 5.4 g/m*3 2.8 C 0 km/h
708 20-11-2010 21:32:02 3.2 C 5.54 g/m*3 3.2 C 0 km/h
709 20-11-2010 21:44:02 3.6 C 5.69 g/m*3 3.6 C 0 km/h
710 20-11-2010 21:56:02 3.9 C 5.81 g/m*3 3.9 C 0 km/h
711 20-11-2010 22:08:03 4.1 C 5.89 g/m*3 4.1 C 0 km/h
712 20-11-2010 22:20:02 4.3 C 5.97 g/m*3 4.3 C 0 km/h
713 20-11-2010 22:32:02 4.4 C 6.01 g/m*3 4.4 C 0 km/h
714 20-11-2010 22:44:02 4.4 C 6.01 g/m*3 4.4 C 0 km/h
715 20-11-2010 22:56:01 4.4 C 6.01 g/m*3 4.4 C 0 km/h
716 20-11-2010 23:09:02 4 C 5.85 g/m*3 4 C 0 km/h
717 20-11-2010 23:21:02 4 C 5.85 g/m*3 4 C 0 km/h
718 20-11-2010 23:33:02 4.1 C 5.89 g/m*3 4.1 C 0 km/h
719 20-11-2010 23:45:02 4.3 C 6.03 g/m*3 4.3 C 0 km/h
720 20-11-2010 23:57:02 4.2 C 5.99 g/m*3 4.2 C 0 km/h
721 21-11-2010 00:09:02 4.3 C 5.97 g/m*3 4.3 C 0 km/h
722 21-11-2010 00:21:03 4.3 C 5.97 g/m*3 4.3 C 0 km/h
723 21-11-2010 00:33:03 4.3 C 5.97 g/m*3 4.3 C 0 km/h
724 21-11-2010 00:45:03 4.3 C 5.97 g/m*3 4.3 C 0 km/h
725 21-11-2010 00:57:03 4.4 C 5.94 g/m*3 4.4 C 0 km/h
Sensor: Nr:Datum:Temp:Abs-Feuchte:Windchill:Wind:
Aussen-T/F 726 21-11-2010 01:09:03 4.4 C 5.88 g/m*3 4.4 C 0 km/h
727 21-11-2010 01:21:03 4.5 C 5.78 g/m*3 4.5 C 0 km/h
728 21-11-2010 01:33:03 4.5 C 5.72 g/m*3 4.5 C 0 km/h
729 21-11-2010 01:45:03 4.5 C 5.72 g/m*3 4.5 C 0 km/h
730 21-11-2010 01:57:03 4.5 C 5.65 g/m*3 4.5 C 0 km/h
731 21-11-2010 02:09:03 4.5 C 5.59 g/m*3 4.5 C 0 km/h
732 21-11-2010 02:21:03 4.4 C 5.48 g/m*3 4.4 C 0 km/h
733 21-11-2010 02:33:03 4.4 C 5.35 g/m*3 4.4 C 0 km/h
734 21-11-2010 02:45:03 4.4 C 5.35 g/m*3 4.4 C 0 km/h
735 21-11-2010 02:57:03 4.5 C 5.39 g/m*3 4.5 C 0 km/h
736 21-11-2010 03:09:03 4.5 C 5.39 g/m*3 4.5 C 0 km/h
737 21-11-2010 03:21:03 4.5 C 5.32 g/m*3 4.5 C 0 km/h
738 21-11-2010 03:33:03 4.4 C 5.29 g/m*3 4.4 C 0 km/h
739 21-11-2010 03:45:03 4.5 C 5.26 g/m*3 4.5 C 0 km/h
740 21-11-2010 03:57:03 4.6 C 5.16 g/m*3 4.6 C 0 km/h
741 21-11-2010 04:09:03 4.6 C 5.16 g/m*3 4.6 C 0 km/h
742 21-11-2010 04:21:03 4.6 C 5.1 g/m*3 4.6 C 0 km/h
743 21-11-2010 04:33:03 4.6 C 5.03 g/m*3 4.6 C 0 km/h
744 21-11-2010 04:45:04 4.5 C 5 g/m*3 4.5 C 0 km/h
745 21-11-2010 04:57:04 4.5 C 5 g/m*3 4.5 C 0 km/h
746 21-11-2010 05:09:04 4.5 C 5 g/m*3 4.5 C 0 km/h
747 21-11-2010 05:21:04 4.6 C 4.96 g/m*3 4.6 C 0 km/h
748 21-11-2010 05:33:04 4.5 C 4.93 g/m*3 4.5 C 0 km/h
749 21-11-2010 05:45:04 4.5 C 4.93 g/m*3 4.5 C 0 km/h
750 21-11-2010 05:57:04 4.4 C 4.9 g/m*3 4.4 C 0 km/h
Sensor: Nr:Datum:Temp:Abs-Feuchte:Windchill:Wind:
Aussen-T/F 751 21-11-2010 06:09:04 4.4 C 4.9 g/m*3 4.4 C 0 km/h
752 21-11-2010 06:21:04 4.5 C 4.86 g/m*3 4.5 C 0 km/h
753 21-11-2010 06:33:04 4.4 C 4.9 g/m*3 4.4 C 0 km/h
754 21-11-2010 06:45:04 4.4 C 4.96 g/m*3 4.4 C 0 km/h
755 21-11-2010 06:57:04 4.3 C 4.99 g/m*3 4.3 C 0 km/h
756 21-11-2010 07:09:04 4.3 C 4.99 g/m*3 4.3 C 0 km/h
757 21-11-2010 07:21:04 4.4 C 5.03 g/m*3 4.4 C 0 km/h
758 21-11-2010 07:33:04 4.4 C 5.03 g/m*3 4.4 C 0 km/h
759 21-11-2010 07:45:04 4.4 C 5.09 g/m*3 4.4 C 0 km/h
760 21-11-2010 07:57:04 4.4 C 5.09 g/m*3 4.4 C 0 km/h
761 21-11-2010 08:09:04 4.5 C 5.19 g/m*3 4.5 C 0 km/h
762 21-11-2010 08:21:04 4.6 C 5.23 g/m*3 4.6 C 0 km/h
763 21-11-2010 08:33:04 4.7 C 5.13 g/m*3 4.7 C 0 km/h
764 21-11-2010 08:45:04 4.8 C 5.1 g/m*3 4.8 C 0 km/h
765 21-11-2010 08:57:04 4.9 C 5.06 g/m*3 4.9 C 0 km/h
766 21-11-2010 09:09:05 5.1 C 4.99 g/m*3 5.1 C 0 km/h
767 21-11-2010 09:21:05 5.1 C 4.92 g/m*3 5.1 C 0 km/h
768 21-11-2010 09:33:02 5 C 4.89 g/m*3 5 C 0 km/h
769 21-11-2010 09:45:02 4.9 C 4.86 g/m*3 4.9 C 0 km/h
770 21-11-2010 09:57:02 4.9 C 4.93 g/m*3 4.9 C 0 km/h
771 21-11-2010 10:09:02 5 C 4.89 g/m*3 5 C 0 km/h
772 21-11-2010 10:21:02 5.2 C 4.82 g/m*3 5.2 C 0 km/h
773 21-11-2010 10:33:02 5.4 C 4.81 g/m*3 5.4 C 0 km/h
774 21-11-2010 10:45:01 5.6 C 4.81 g/m*3 5.6 C 0 km/h
775 21-11-2010 10:57:01 5.6 C 4.74 g/m*3 5.6 C 0 km/h
Sensor: Nr:Datum:Temp:Abs-Feuchte:Windchill:Wind:
Aussen-T/F 776 21-11-2010 11:09:01 5.6 C 4.67 g/m*3 5.6 C 0 km/h
777 21-11-2010 11:21:02 5.3 C 4.64 g/m*3 5.3 C 0 km/h
778 21-11-2010 11:33:01 5.1 C 4.58 g/m*3 5.1 C 0 km/h
779 21-11-2010 11:45:03 5.2 C 4.61 g/m*3 5.2 C 0 km/h
780 21-11-2010 11:57:03 5.3 C 4.64 g/m*3 5.3 C 0 km/h
781 21-11-2010 12:09:02 5.1 C 4.58 g/m*3 5.1 C 0 km/h
782 21-11-2010 12:21:02 5 C 4.55 g/m*3 5 C 0 km/h
783 21-11-2010 12:33:02 5 C 4.48 g/m*3 5 C 0 km/h
784 21-11-2010 12:45:02 5.1 C 4.51 g/m*3 5.1 C 0 km/h
785 21-11-2010 12:57:02 5.3 C 4.51 g/m*3 5.3 C 0 km/h
786 21-11-2010 13:09:02 5.3 C 4.51 g/m*3 5.3 C 0 km/h
787 21-11-2010 13:21:02 5.1 C 4.45 g/m*3 5.1 C 0 km/h
788 21-11-2010 13:33:02 5.1 C 4.45 g/m*3 5.1 C 0 km/h
789 21-11-2010 13:45:02 5.1 C 4.45 g/m*3 5.1 C 0 km/h
790 21-11-2010 13:57:02 5 C 4.42 g/m*3 5 C 0 km/h
791 21-11-2010 14:09:02 5 C 4.42 g/m*3 5 C 0 km/h
792 21-11-2010 14:21:01 4.9 C 4.46 g/m*3 4.9 C 0 km/h
793 21-11-2010 14:33:02 4.9 C 4.46 g/m*3 4.9 C 0 km/h
794 21-11-2010 14:45:02 4.8 C 4.43 g/m*3 4.8 C 0 km/h
795 21-11-2010 14:57:02 4.8 C 4.36 g/m*3 4.8 C 0 km/h
796 21-11-2010 15:09:02 4.6 C 4.3 g/m*3 4.6 C 0 km/h
797 21-11-2010 15:21:01 4.5 C 4.27 g/m*3 4.5 C 0 km/h
798 21-11-2010 15:33:02 4.4 C 4.24 g/m*3 4.4 C 0 km/h
799 21-11-2010 15:45:02 4.4 C 4.31 g/m*3 4.4 C 0 km/h
800 21-11-2010 15:57:02 4.3 C 4.28 g/m*3 4.3 C 0 km/h
Sensor: Nr:Datum:Temp:Abs-Feuchte:Windchill:Wind:
Aussen-T/F 801 21-11-2010 16:09:02 4.3 C 4.28 g/m*3 4.3 C 0 km/h
802 21-11-2010 16:21:02 4.2 C 4.32 g/m*3 4.2 C 0 km/h
803 21-11-2010 16:33:02 4.2 C 4.45 g/m*3 4.2 C 0 km/h
804 21-11-2010 16:45:02 4.1 C 4.42 g/m*3 4.1 C 0 km/h
805 21-11-2010 16:57:02 4 C 4.45 g/m*3 4 C 0 km/h
806 21-11-2010 17:09:02 3.9 C 4.48 g/m*3 3.9 C 0 km/h
807 21-11-2010 17:21:02 3.9 C 4.55 g/m*3 3.9 C 0 km/h
808 21-11-2010 17:33:02 4 C 4.51 g/m*3 4 C 0 km/h
809 21-11-2010 17:45:02 4 C 4.45 g/m*3 4 C 0 km/h
810 21-11-2010 17:57:02 4 C 4.51 g/m*3 4 C 0 km/h
811 21-11-2010 18:09:01 4 C 4.51 g/m*3 4 C 0 km/h
812 21-11-2010 18:21:02 4 C 4.51 g/m*3 4 C 0 km/h
813 21-11-2010 18:33:02 4 C 4.51 g/m*3 4 C 0 km/h
814 21-11-2010 18:45:02 3.9 C 4.61 g/m*3 3.9 C 0 km/h
815 21-11-2010 18:57:02 3.9 C 4.67 g/m*3 3.9 C 0 km/h
816 21-11-2010 19:09:03 3.9 C 4.67 g/m*3 3.9 C 0 km/h
817 21-11-2010 19:21:02 4 C 4.64 g/m*3 4 C 0 km/h
818 21-11-2010 19:33:02 4.1 C 4.61 g/m*3 4.1 C 0 km/h
819 21-11-2010 19:45:02 4.1 C 4.54 g/m*3 4.1 C 0 km/h
820 21-11-2010 19:57:02 4.2 C 4.57 g/m*3 4.2 C 0 km/h
821 21-11-2010 20:09:02 4.3 C 4.61 g/m*3 4.3 C 0 km/h
822 21-11-2010 20:21:02 4.3 C 4.61 g/m*3 4.3 C 0 km/h
823 21-11-2010 20:33:02 4.3 C 4.54 g/m*3 4.3 C 0 km/h
824 21-11-2010 20:45:02 4.3 C 4.54 g/m*3 4.3 C 0 km/h
825 21-11-2010 20:57:02 4.3 C 4.48 g/m*3 4.3 C 0 km/h
Sensor: Nr:Datum:Temp:Abs-Feuchte:Windchill:Wind:
Aussen-T/F 826 21-11-2010 21:09:03 4.3 C 4.48 g/m*3 4.3 C 0 km/h
827 21-11-2010 21:21:02 4.3 C 4.48 g/m*3 4.3 C 0 km/h
828 21-11-2010 21:33:03 4.1 C 4.48 g/m*3 4.1 C 0 km/h
829 21-11-2010 21:45:02 4 C 4.51 g/m*3 4 C 0 km/h
830 21-11-2010 21:57:03 4.1 C 4.54 g/m*3 4.1 C 0 km/h
831 21-11-2010 22:09:02 3.9 C 4.55 g/m*3 3.9 C 0 km/h
832 21-11-2010 22:21:02 3.7 C 4.61 g/m*3 3.7 C 0 km/h
833 21-11-2010 22:33:01 3.8 C 4.71 g/m*3 3.8 C 0 km/h
834 21-11-2010 22:45:02 3.7 C 4.74 g/m*3 3.7 C 0 km/h
835 21-11-2010 22:57:02 3.7 C 4.67 g/m*3 3.7 C 0 km/h
836 21-11-2010 23:10:04 3.7 C 4.74 g/m*3 3.7 C 0 km/h
837 21-11-2010 23:22:04 3.7 C 4.8 g/m*3 3.7 C 0 km/h
838 21-11-2010 23:34:04 3.8 C 4.83 g/m*3 3.8 C 0 km/h
839 21-11-2010 23:46:04 3.8 C 4.83 g/m*3 3.8 C 0 km/h
840 21-11-2010 23:58:04 3.8 C 4.83 g/m*3 3.8 C 0 km/h
841 22-11-2010 00:10:04 3.9 C 4.93 g/m*3 3.9 C 0 km/h
842 22-11-2010 00:22:04 4.1 C 4.93 g/m*3 4.1 C 0 km/h
843 22-11-2010 00:34:04 4.1 C 4.93 g/m*3 4.1 C 0 km/h
844 22-11-2010 00:46:04 4.1 C 4.93 g/m*3 4.1 C 0 km/h
845 22-11-2010 00:58:04 4.1 C 4.93 g/m*3 4.1 C 0 km/h
846 22-11-2010 01:10:04 4.1 C 4.93 g/m*3 4.1 C 0 km/h
847 22-11-2010 01:22:04 4.1 C 4.93 g/m*3 4.1 C 0 km/h
848 22-11-2010 01:34:04 4.1 C 4.93 g/m*3 4.1 C 0 km/h
849 22-11-2010 01:46:04 4.1 C 4.93 g/m*3 4.1 C 0 km/h
850 22-11-2010 01:58:04 4 C 4.9 g/m*3 4 C 0 km/h
Sensor: Nr:Datum:Temp:Abs-Feuchte:Windchill:Wind:
Aussen-T/F 851 22-11-2010 02:10:04 4.1 C 4.93 g/m*3 4.1 C 0 km/h
852 22-11-2010 02:22:04 4.1 C 4.93 g/m*3 4.1 C 0 km/h
853 22-11-2010 02:34:04 4.2 C 5.03 g/m*3 4.2 C 0 km/h
854 22-11-2010 02:46:04 4.2 C 4.96 g/m*3 4.2 C 0 km/h
855 22-11-2010 02:58:04 4.2 C 5.03 g/m*3 4.2 C 0 km/h
856 22-11-2010 03:10:04 4.2 C 5.03 g/m*3 4.2 C 0 km/h
857 22-11-2010 03:22:05 4.3 C 5.06 g/m*3 4.3 C 0 km/h
858 22-11-2010 03:34:05 4.4 C 5.09 g/m*3 4.4 C 0 km/h
859 22-11-2010 03:46:05 4.6 C 5.1 g/m*3 4.6 C 0 km/h
860 22-11-2010 03:58:05 4.8 C 5.03 g/m*3 4.8 C 0 km/h
861 22-11-2010 04:10:05 4.9 C 5 g/m*3 4.9 C 0 km/h
862 22-11-2010 04:22:05 4.9 C 5 g/m*3 4.9 C 0 km/h
863 22-11-2010 04:34:05 4.9 C 5 g/m*3 4.9 C 0 km/h
864 22-11-2010 04:46:05 4.8 C 5.03 g/m*3 4.8 C 0 km/h
865 22-11-2010 04:58:05 4.8 C 5.03 g/m*3 4.8 C 0 km/h
866 22-11-2010 05:10:05 4.9 C 5 g/m*3 4.9 C 0 km/h
867 22-11-2010 05:22:05 4.9 C 5 g/m*3 4.9 C 0 km/h
868 22-11-2010 05:34:05 4.9 C 4.93 g/m*3 4.9 C 0 km/h
869 22-11-2010 05:46:05 4.9 C 4.93 g/m*3 4.9 C 0 km/h
870 22-11-2010 05:58:05 4.8 C 4.9 g/m*3 4.8 C 0 km/h
871 22-11-2010 06:10:05 4.7 C 4.86 g/m*3 4.7 C 0 km/h
872 22-11-2010 06:22:05 4.7 C 4.86 g/m*3 4.7 C 0 km/h
873 22-11-2010 06:34:05 4.7 C 4.86 g/m*3 4.7 C 0 km/h
874 22-11-2010 06:46:05 4.7 C 4.86 g/m*3 4.7 C 0 km/h
875 22-11-2010 06:58:05 4.7 C 4.86 g/m*3 4.7 C 0 km/h
Sensor: Nr:Datum:Temp:Abs-Feuchte:Windchill:Wind:
Aussen-T/F 876 22-11-2010 07:10:05 4.7 C 4.86 g/m*3 4.7 C 0 km/h
877 22-11-2010 07:22:03 4.7 C 4.8 g/m*3 4.7 C 0 km/h
878 22-11-2010 07:34:04 4.6 C 4.76 g/m*3 4.6 C 0 km/h
879 22-11-2010 07:46:02 4.6 C 4.76 g/m*3 4.6 C 0 km/h
880 22-11-2010 07:58:02 4.6 C 4.76 g/m*3 4.6 C 0 km/h
881 22-11-2010 08:10:02 4.6 C 4.83 g/m*3 4.6 C 0 km/h
882 22-11-2010 08:22:02 4.6 C 4.83 g/m*3 4.6 C 0 km/h
883 22-11-2010 08:34:02 4.6 C 4.76 g/m*3 4.6 C 0 km/h
884 22-11-2010 08:46:02 4.7 C 4.8 g/m*3 4.7 C 0 km/h
885 22-11-2010 08:58:02 4.7 C 4.8 g/m*3 4.7 C 0 km/h
886 22-11-2010 09:10:02 4.7 C 4.8 g/m*3 4.7 C 0 km/h
887 22-11-2010 09:22:02 4.7 C 4.8 g/m*3 4.7 C 0 km/h
888 22-11-2010 09:34:02 4.7 C 4.8 g/m*3 4.7 C 0 km/h
889 22-11-2010 09:46:01 4.8 C 4.83 g/m*3 4.8 C 0 km/h
890 22-11-2010 09:58:01 4.8 C 4.83 g/m*3 4.8 C 0 km/h
891 22-11-2010 10:10:02 4.9 C 4.86 g/m*3 4.9 C 0 km/h
892 22-11-2010 10:22:01 4.9 C 4.86 g/m*3 4.9 C 0 km/h
893 22-11-2010 10:34:01 4.8 C 4.83 g/m*3 4.8 C 0 km/h
894 22-11-2010 10:46:01 4.8 C 4.9 g/m*3 4.8 C 0 km/h
895 22-11-2010 10:58:01 4.7 C 4.86 g/m*3 4.7 C 0 km/h
896 22-11-2010 11:10:02 4.7 C 4.86 g/m*3 4.7 C 0 km/h
897 22-11-2010 11:22:01 4.6 C 4.9 g/m*3 4.6 C 0 km/h
898 22-11-2010 11:34:01 4.5 C 4.93 g/m*3 4.5 C 0 km/h
899 22-11-2010 11:46:01 4.3 C 4.99 g/m*3 4.3 C 0 km/h
900 22-11-2010 11:58:01 4.3 C 5.06 g/m*3 4.3 C 0 km/h
Sensor: Nr:Datum:Temp:Abs-Feuchte:Windchill:Wind:
Aussen-T/F 901 22-11-2010 12:10:01 4.3 C 5.19 g/m*3 4.3 C 0 km/h
902 22-11-2010 12:22:02 4.2 C 5.15 g/m*3 4.2 C 0 km/h
903 22-11-2010 12:34:01 4.2 C 5.22 g/m*3 4.2 C 0 km/h
904 22-11-2010 12:46:02 4.1 C 5.18 g/m*3 4.1 C 0 km/h
905 22-11-2010 12:58:02 4.2 C 5.28 g/m*3 4.2 C 0 km/h
906 22-11-2010 13:10:02 4.2 C 5.35 g/m*3 4.2 C 0 km/h
907 22-11-2010 13:22:02 4.2 C 5.35 g/m*3 4.2 C 0 km/h
908 22-11-2010 13:34:01 4.2 C 5.41 g/m*3 4.2 C 0 km/h
909 22-11-2010 13:46:02 4.2 C 5.35 g/m*3 4.2 C 0 km/h
910 22-11-2010 13:58:02 4.4 C 5.42 g/m*3 4.4 C 0 km/h
911 22-11-2010 14:10:01 4.5 C 5.39 g/m*3 4.5 C 0 km/h
912 22-11-2010 14:22:02 4.6 C 5.29 g/m*3 4.6 C 0 km/h
913 22-11-2010 14:34:02 4.8 C 5.3 g/m*3 4.8 C 0 km/h
914 22-11-2010 14:46:02 5 C 5.23 g/m*3 5 C 0 km/h
915 22-11-2010 14:58:02 5 C 5.03 g/m*3 5 C 0 km/h
916 22-11-2010 15:10:02 5 C 5.03 g/m*3 5 C 0 km/h
917 22-11-2010 15:22:02 5 C 5.03 g/m*3 5 C 0 km/h
918 22-11-2010 15:34:02 4.9 C 5.06 g/m*3 4.9 C 0 km/h
919 22-11-2010 15:46:02 4.8 C 5.03 g/m*3 4.8 C 0 km/h
920 22-11-2010 15:58:02 4.8 C 4.96 g/m*3 4.8 C 0 km/h
921 22-11-2010 16:10:02 4.6 C 4.9 g/m*3 4.6 C 0 km/h
922 22-11-2010 16:22:02 4.5 C 4.86 g/m*3 4.5 C 0 km/h
923 22-11-2010 16:34:02 4.3 C 4.86 g/m*3 4.3 C 0 km/h
924 22-11-2010 16:46:02 4.2 C 4.96 g/m*3 4.2 C 0 km/h
925 22-11-2010 16:58:02 4 C 4.96 g/m*3 4 C 0 km/h
Sensor: Nr:Datum:Temp:Abs-Feuchte:Windchill:Wind:
Aussen-T/F 926 22-11-2010 17:10:02 4 C 4.96 g/m*3 4 C 0 km/h
927 22-11-2010 17:22:02 3.9 C 4.99 g/m*3 3.9 C 0 km/h
928 22-11-2010 17:34:02 4 C 5.02 g/m*3 4 C 0 km/h
929 22-11-2010 17:46:02 4.1 C 4.99 g/m*3 4.1 C 0 km/h
930 22-11-2010 17:58:02 4.2 C 4.96 g/m*3 4.2 C 0 km/h
931 22-11-2010 18:10:02 4.2 C 4.96 g/m*3 4.2 C 0 km/h
932 22-11-2010 18:22:02 4.3 C 4.99 g/m*3 4.3 C 0 km/h
933 22-11-2010 18:34:01 4.3 C 4.93 g/m*3 4.3 C 0 km/h
934 22-11-2010 18:46:02 4.3 C 4.93 g/m*3 4.3 C 0 km/h
935 22-11-2010 18:58:02 4.3 C 4.93 g/m*3 4.3 C 0 km/h
936 22-11-2010 19:10:01 4.4 C 4.96 g/m*3 4.4 C 0 km/h
937 22-11-2010 19:22:02 4.4 C 4.9 g/m*3 4.4 C 0 km/h
938 22-11-2010 19:34:02 4.4 C 4.9 g/m*3 4.4 C 0 km/h
939 22-11-2010 19:46:02 4.4 C 4.83 g/m*3 4.4 C 0 km/h
940 22-11-2010 19:58:02 4.3 C 4.8 g/m*3 4.3 C 0 km/h
941 22-11-2010 20:10:02 4.4 C 4.83 g/m*3 4.4 C 0 km/h
942 22-11-2010 20:22:02 4.4 C 4.83 g/m*3 4.4 C 0 km/h
943 22-11-2010 20:34:02 4.4 C 4.77 g/m*3 4.4 C 0 km/h
944 22-11-2010 20:46:01 4.4 C 4.77 g/m*3 4.4 C 0 km/h
945 22-11-2010 20:58:01 4.5 C 4.8 g/m*3 4.5 C 0 km/h
946 22-11-2010 21:10:02 4.4 C 4.77 g/m*3 4.4 C 0 km/h
947 22-11-2010 21:22:01 4.4 C 4.83 g/m*3 4.4 C 0 km/h
948 22-11-2010 21:34:02 4.4 C 4.83 g/m*3 4.4 C 0 km/h
949 22-11-2010 21:46:01 4.4 C 4.83 g/m*3 4.4 C 0 km/h
950 22-11-2010 21:58:01 4.4 C 4.83 g/m*3 4.4 C 0 km/h
Sensor: Nr:Datum:Temp:Abs-Feuchte:Windchill:Wind:
Aussen-T/F 951 22-11-2010 22:10:02 4.5 C 4.86 g/m*3 4.5 C 0 km/h
952 22-11-2010 22:22:02 4.5 C 4.86 g/m*3 4.5 C 0 km/h
953 22-11-2010 22:34:01 4.5 C 4.93 g/m*3 4.5 C 0 km/h
954 22-11-2010 22:47:03 4.5 C 4.86 g/m*3 4.5 C 0 km/h
955 22-11-2010 22:59:03 4.5 C 4.93 g/m*3 4.5 C 0 km/h
956 22-11-2010 23:11:03 4.4 C 4.9 g/m*3 4.4 C 0 km/h
957 22-11-2010 23:23:03 4.5 C 4.93 g/m*3 4.5 C 0 km/h
958 22-11-2010 23:35:03 4.4 C 4.96 g/m*3 4.4 C 0 km/h
959 22-11-2010 23:47:04 4.3 C 4.93 g/m*3 4.3 C 0 km/h
960 22-11-2010 23:59:04 4.4 C 4.96 g/m*3 4.4 C 0 km/h
961 23-11-2010 00:11:04 4.4 C 4.96 g/m*3 4.4 C 0 km/h
962 23-11-2010 00:23:04 4.4 C 4.96 g/m*3 4.4 C 0 km/h
963 23-11-2010 00:35:04 4.5 C 4.93 g/m*3 4.5 C 0 km/h
964 23-11-2010 00:47:04 4.5 C 4.93 g/m*3 4.5 C 0 km/h
965 23-11-2010 00:59:04 4.4 C 4.9 g/m*3 4.4 C 0 km/h
966 23-11-2010 01:11:04 4.5 C 4.93 g/m*3 4.5 C 0 km/h
967 23-11-2010 01:23:04 4.5 C 4.86 g/m*3 4.5 C 0 km/h
968 23-11-2010 01:35:04 4.5 C 4.86 g/m*3 4.5 C 0 km/h
969 23-11-2010 01:47:04 4.4 C 4.83 g/m*3 4.4 C 0 km/h
970 23-11-2010 01:59:04 4.4 C 4.77 g/m*3 4.4 C 0 km/h
971 23-11-2010 02:11:04 4.3 C 4.74 g/m*3 4.3 C 0 km/h
972 23-11-2010 02:23:04 4.3 C 4.8 g/m*3 4.3 C 0 km/h
973 23-11-2010 02:35:04 4.3 C 4.61 g/m*3 4.3 C 0 km/h
974 23-11-2010 02:47:04 4.2 C 4.51 g/m*3 4.2 C 0 km/h
975 23-11-2010 02:59:04 4.2 C 4.45 g/m*3 4.2 C 0 km/h
Sensor: Nr:Datum:Temp:Abs-Feuchte:Windchill:Wind:
Aussen-T/F 976 23-11-2010 03:11:04 4.2 C 4.45 g/m*3 4.2 C 0 km/h
977 23-11-2010 03:23:04 4.1 C 4.42 g/m*3 4.1 C 0 km/h
978 23-11-2010 03:35:04 4.2 C 4.38 g/m*3 4.2 C 0 km/h
979 23-11-2010 03:47:04 4 C 4.39 g/m*3 4 C 0 km/h
980 23-11-2010 03:59:04 3.9 C 4.48 g/m*3 3.9 C 0 km/h
981 23-11-2010 04:11:04 3.8 C 4.39 g/m*3 3.8 C 0 km/h
982 23-11-2010 04:23:05 3.8 C 4.45 g/m*3 3.8 C 0 km/h
983 23-11-2010 04:35:05 3.7 C 4.55 g/m*3 3.7 C 0 km/h
984 23-11-2010 04:47:05 3.6 C 4.58 g/m*3 3.6 C 0 km/h
985 23-11-2010 04:59:05 3.5 C 4.61 g/m*3 3.5 C 0 km/h
986 23-11-2010 05:11:05 3.5 C 4.55 g/m*3 3.5 C 0 km/h
987 23-11-2010 05:23:05 3.5 C 4.61 g/m*3 3.5 C 0 km/h
988 23-11-2010 05:35:05 3.4 C 4.58 g/m*3 3.4 C 0 km/h
989 23-11-2010 05:47:05 2.9 C 4.67 g/m*3 2.9 C 0 km/h
990 23-11-2010 05:59:05 2.7 C 4.84 g/m*3 2.7 C 0 km/h
991 23-11-2010 06:11:05 2.6 C 4.92 g/m*3 2.6 C 0 km/h
992 23-11-2010 06:23:05 2.7 C 4.95 g/m*3 2.7 C 0 km/h
993 23-11-2010 06:35:05 2.6 C 5.03 g/m*3 2.6 C 0 km/h
994 23-11-2010 06:47:05 2.7 C 5.07 g/m*3 2.7 C 0 km/h
995 23-11-2010 06:59:05 2.7 C 5.07 g/m*3 2.7 C 0 km/h
996 23-11-2010 07:11:05 2.6 C 5.09 g/m*3 2.6 C 0 km/h
997 23-11-2010 07:23:02 2.8 C 5.16 g/m*3 2.8 C 0 km/h
998 23-11-2010 07:35:03 3.1 C 5.09 g/m*3 3.1 C 0 km/h
999 23-11-2010 07:47:02 3.2 C 5.06 g/m*3 3.2 C 0 km/h
1000 23-11-2010 07:59:02 3.1 C 4.97 g/m*3 3.1 C 0 km/h
Sensor: Nr:Datum:Temp:Abs-Feuchte:Windchill:Wind:
Aussen-T/F 1001 23-11-2010 08:11:02 3.1 C 4.91 g/m*3 3.1 C 0 km/h
1002 23-11-2010 08:23:01 3 C 4.88 g/m*3 3 C 0 km/h
1003 23-11-2010 08:35:02 3.1 C 4.97 g/m*3 3.1 C 0 km/h
1004 23-11-2010 08:47:02 3.3 C 4.85 g/m*3 3.3 C 0 km/h
1005 23-11-2010 08:59:02 3.4 C 4.83 g/m*3 3.4 C 0 km/h
1006 23-11-2010 09:11:03 3.6 C 4.77 g/m*3 3.6 C 0 km/h
1007 23-11-2010 09:23:02 3.7 C 4.74 g/m*3 3.7 C 0 km/h
1008 23-11-2010 09:35:02 3.6 C 4.77 g/m*3 3.6 C 0 km/h
1009 23-11-2010 09:47:01 3.7 C 4.8 g/m*3 3.7 C 0 km/h
1010 23-11-2010 09:59:01 3.8 C 4.71 g/m*3 3.8 C 0 km/h
1011 23-11-2010 10:11:02 4 C 4.64 g/m*3 4 C 0 km/h
1012 23-11-2010 10:23:01 4.1 C 4.61 g/m*3 4.1 C 0 km/h
1013 23-11-2010 10:35:01 4.3 C 4.54 g/m*3 4.3 C 0 km/h
1014 23-11-2010 10:47:01 4.4 C 4.57 g/m*3 4.4 C 0 km/h
1015 23-11-2010 10:59:01 4.5 C 4.54 g/m*3 4.5 C 0 km/h
1016 23-11-2010 11:11:02 4.4 C 4.57 g/m*3 4.4 C 0 km/h
1017 23-11-2010 11:23:02 4.7 C 4.73 g/m*3 4.7 C 0 km/h
1018 23-11-2010 11:35:01 4.8 C 4.76 g/m*3 4.8 C 0 km/h
1019 23-11-2010 11:47:01 4.9 C 4.66 g/m*3 4.9 C 0 km/h
1020 23-11-2010 11:59:01 4.8 C 4.56 g/m*3 4.8 C 0 km/h
1021 23-11-2010 12:11:01 5.2 C 4.61 g/m*3 5.2 C 0 km/h
1022 23-11-2010 12:23:01 5.2 C 4.48 g/m*3 5.2 C 0 km/h
1023 23-11-2010 12:35:01 5.1 C 4.38 g/m*3 5.1 C 0 km/h
1024 23-11-2010 12:47:01 5.4 C 4.47 g/m*3 5.4 C 0 km/h
1025 23-11-2010 12:59:01 5.5 C 4.42 g/m*3 5.5 C 0 km/h
Sensor: Nr:Datum:Temp:Abs-Feuchte:Windchill:Wind:
Aussen-T/F 1026 23-11-2010 13:11:02 5.8 C 4.44 g/m*3 5.8 C 0 km/h
1027 23-11-2010 13:23:01 6 C 4.43 g/m*3 6 C 0 km/h
1028 23-11-2010 13:35:02 6.2 C 4.34 g/m*3 6.2 C 0 km/h
1029 23-11-2010 13:47:01 6.1 C 4.31 g/m*3 6.1 C 0 km/h
1030 23-11-2010 13:59:01 6.1 C 4.31 g/m*3 6.1 C 0 km/h
1031 23-11-2010 14:11:02 5.9 C 4.25 g/m*3 5.9 C 0 km/h
1032 23-11-2010 14:23:01 5.8 C 4.23 g/m*3 5.8 C 0 km/h
1033 23-11-2010 14:35:02 5.7 C 4.27 g/m*3 5.7 C 0 km/h
1034 23-11-2010 14:47:01 5.7 C 4.27 g/m*3 5.7 C 0 km/h
1035 23-11-2010 14:59:01 5.6 C 4.24 g/m*3 5.6 C 0 km/h
1036 23-11-2010 15:11:02 5.7 C 4.2 g/m*3 5.7 C 0 km/h
1037 23-11-2010 15:23:02 5.6 C 4.17 g/m*3 5.6 C 0 km/h
1038 23-11-2010 15:35:01 5.6 C 4.24 g/m*3 5.6 C 0 km/h
1039 23-11-2010 15:47:02 5.5 C 4.28 g/m*3 5.5 C 0 km/h
1040 23-11-2010 15:59:02 5.3 C 4.37 g/m*3 5.3 C 0 km/h
1041 23-11-2010 16:11:01 5.3 C 4.44 g/m*3 5.3 C 0 km/h
1042 23-11-2010 16:23:02 5.4 C 4.47 g/m*3 5.4 C 0 km/h
1043 23-11-2010 16:35:01 5.4 C 4.47 g/m*3 5.4 C 0 km/h
1044 23-11-2010 16:47:03 5.5 C 4.49 g/m*3 5.5 C 0 km/h
1045 23-11-2010 16:59:03 5.3 C 4.51 g/m*3 5.3 C 0 km/h
1046 23-11-2010 17:11:02 5.3 C 4.51 g/m*3 5.3 C 0 km/h
1047 23-11-2010 17:23:02 5.3 C 4.51 g/m*3 5.3 C 0 km/h
1048 23-11-2010 17:35:02 5.3 C 4.44 g/m*3 5.3 C 0 km/h
1049 23-11-2010 17:47:02 5.4 C 4.4 g/m*3 5.4 C 0 km/h
1050 23-11-2010 17:59:03 5.3 C 4.44 g/m*3 5.3 C 0 km/h
Sensor: Nr:Datum:Temp:Abs-Feuchte:Windchill:Wind:
Aussen-T/F 1051 23-11-2010 18:11:01 5.2 C 4.48 g/m*3 5.2 C 0 km/h
1052 23-11-2010 18:23:02 5.4 C 4.47 g/m*3 5.4 C 0 km/h
1053 23-11-2010 18:35:02 5.2 C 4.41 g/m*3 5.2 C 0 km/h
1054 23-11-2010 18:47:02 5.4 C 4.33 g/m*3 5.4 C 0 km/h
1055 23-11-2010 18:59:02 5.2 C 4.41 g/m*3 5.2 C 0 km/h
1056 23-11-2010 19:11:03 5.2 C 4.48 g/m*3 5.2 C 0 km/h
1057 23-11-2010 19:23:02 5.3 C 4.51 g/m*3 5.3 C 0 km/h
1058 23-11-2010 19:35:02 5.2 C 4.48 g/m*3 5.2 C 0 km/h
1059 23-11-2010 19:47:01 5.1 C 4.51 g/m*3 5.1 C 0 km/h
1060 23-11-2010 19:59:01 5.2 C 4.54 g/m*3 5.2 C 0 km/h
1061 23-11-2010 20:11:02 5 C 4.48 g/m*3 5 C 0 km/h
1062 23-11-2010 20:23:01 5.2 C 4.48 g/m*3 5.2 C 0 km/h
1063 23-11-2010 20:35:02 5.2 C 4.41 g/m*3 5.2 C 0 km/h
1064 23-11-2010 20:47:01 5.2 C 4.34 g/m*3 5.2 C 0 km/h
1065 23-11-2010 20:59:01 5.1 C 4.58 g/m*3 5.1 C 0 km/h
1066 23-11-2010 21:11:02 4.8 C 4.49 g/m*3 4.8 C 0 km/h
1067 23-11-2010 21:23:01 5.1 C 4.31 g/m*3 5.1 C 0 km/h
1068 23-11-2010 21:35:02 5 C 4.28 g/m*3 5 C 0 km/h
1069 23-11-2010 21:47:01 5 C 4.28 g/m*3 5 C 0 km/h
1070 23-11-2010 21:59:01 5 C 4.28 g/m*3 5 C 0 km/h
1071 23-11-2010 22:12:03 5 C 4.28 g/m*3 5 C 0 km/h
1072 23-11-2010 22:24:03 5 C 4.28 g/m*3 5 C 0 km/h
1073 23-11-2010 22:36:03 4.9 C 4.39 g/m*3 4.9 C 0 km/h
1074 23-11-2010 22:48:03 4.9 C 4.39 g/m*3 4.9 C 0 km/h
1075 23-11-2010 23:00:03 4.8 C 4.36 g/m*3 4.8 C 0 km/h
Sensor: Nr:Datum:Temp:Abs-Feuchte:Windchill:Wind:
Aussen-T/F 1076 23-11-2010 23:12:03 4.8 C 4.36 g/m*3 4.8 C 0 km/h
1077 23-11-2010 23:24:03 4.6 C 4.37 g/m*3 4.6 C 0 km/h
1078 23-11-2010 23:36:03 4.6 C 4.43 g/m*3 4.6 C 0 km/h
1079 23-11-2010 23:48:03 4.4 C 4.44 g/m*3 4.4 C 0 km/h
1080 24-11-2010 00:00:03 4.2 C 4.45 g/m*3 4.2 C 0 km/h
1081 24-11-2010 00:12:03 4.4 C 4.51 g/m*3 4.4 C 0 km/h
1082 24-11-2010 00:24:03 4.4 C 4.44 g/m*3 4.4 C 0 km/h
1083 24-11-2010 00:36:03 4.3 C 4.41 g/m*3 4.3 C 0 km/h
1084 24-11-2010 00:48:04 4.3 C 4.41 g/m*3 4.3 C 0 km/h
1085 24-11-2010 01:00:04 4.3 C 4.41 g/m*3 4.3 C 0 km/h
1086 24-11-2010 01:12:04 4.3 C 4.41 g/m*3 4.3 C 0 km/h
1087 24-11-2010 01:24:04 3.6 C 4.39 g/m*3 3.6 C 0 km/h
1088 24-11-2010 01:36:04 3.6 C 4.52 g/m*3 3.6 C 0 km/h
1089 24-11-2010 01:48:04 4 C 4.58 g/m*3 4 C 0 km/h
1090 24-11-2010 02:00:04 3.5 C 4.49 g/m*3 3.5 C 0 km/h
1091 24-11-2010 02:12:04 3.4 C 4.52 g/m*3 3.4 C 0 km/h
1092 24-11-2010 02:24:04 3.5 C 4.55 g/m*3 3.5 C 0 km/h
1093 24-11-2010 02:36:04 3.3 C 4.43 g/m*3 3.3 C 0 km/h
1094 24-11-2010 02:48:04 3.4 C 4.52 g/m*3 3.4 C 0 km/h
1095 24-11-2010 03:00:04 3.5 C 4.49 g/m*3 3.5 C 0 km/h
1096 24-11-2010 03:12:04 3.5 C 4.61 g/m*3 3.5 C 0 km/h
1097 24-11-2010 03:24:04 3.5 C 4.61 g/m*3 3.5 C 0 km/h
1098 24-11-2010 03:36:04 3.5 C 4.67 g/m*3 3.5 C 0 km/h
1099 24-11-2010 03:48:04 3.6 C 4.7 g/m*3 3.6 C 0 km/h
1100 24-11-2010 04:00:04 3.6 C 4.7 g/m*3 3.6 C 0 km/h
Sensor: Nr:Datum:Temp:Abs-Feuchte:Windchill:Wind:
Aussen-T/F 1101 24-11-2010 04:12:04 3.5 C 4.67 g/m*3 3.5 C 0 km/h
1102 24-11-2010 04:24:04 3.5 C 4.73 g/m*3 3.5 C 0 km/h
1103 24-11-2010 04:36:04 3.4 C 4.7 g/m*3 3.4 C 0 km/h
1104 24-11-2010 04:48:05 3.3 C 4.79 g/m*3 3.3 C 0 km/h
1105 24-11-2010 05:00:05 3.1 C 4.85 g/m*3 3.1 C 0 km/h
1106 24-11-2010 05:12:05 2.9 C 4.96 g/m*3 2.9 C 0 km/h
1107 24-11-2010 05:24:05 2.9 C 5.02 g/m*3 2.9 C 0 km/h
1108 24-11-2010 05:36:05 2.8 C 5.04 g/m*3 2.8 C 0 km/h
1109 24-11-2010 05:48:05 2.9 C 5.14 g/m*3 2.9 C 0 km/h
1110 24-11-2010 06:00:05 3 C 5.11 g/m*3 3 C 0 km/h
1111 24-11-2010 06:12:05 3.2 C 5.12 g/m*3 3.2 C 0 km/h
1112 24-11-2010 06:24:05 3.2 C 5.06 g/m*3 3.2 C 0 km/h
1113 24-11-2010 06:36:05 3.3 C 5.04 g/m*3 3.3 C 0 km/h
1114 24-11-2010 06:48:05 3.3 C 5.04 g/m*3 3.3 C 0 km/h
1115 24-11-2010 07:00:05 3.4 C 5.01 g/m*3 3.4 C 0 km/h
1116 24-11-2010 07:12:02 3.4 C 5.01 g/m*3 3.4 C 0 km/h
1117 24-11-2010 07:24:03 3.3 C 5.04 g/m*3 3.3 C 0 km/h
1118 24-11-2010 07:36:03 3.2 C 5 g/m*3 3.2 C 0 km/h
1119 24-11-2010 07:48:01 3.4 C 5.01 g/m*3 3.4 C 0 km/h
1120 24-11-2010 08:00:01 3.5 C 5.04 g/m*3 3.5 C 0 km/h
1121 24-11-2010 08:12:01 3.4 C 4.95 g/m*3 3.4 C 0 km/h
1122 24-11-2010 08:24:01 3.3 C 5.04 g/m*3 3.3 C 0 km/h
1123 24-11-2010 08:36:02 3.3 C 5.1 g/m*3 3.3 C 0 km/h
1124 24-11-2010 08:48:02 3.6 C 5.26 g/m*3 3.6 C 0 km/h
1125 24-11-2010 09:00:02 3.6 C 5.14 g/m*3 3.6 C 0 km/h
Sensor: Nr:Datum:Temp:Abs-Feuchte:Windchill:Wind:
Aussen-T/F 1126 24-11-2010 09:12:02 4.1 C 5.06 g/m*3 4.1 C 0 km/h
1127 24-11-2010 09:24:01 4.3 C 4.93 g/m*3 4.3 C 0 km/h
1128 24-11-2010 09:36:02 4.5 C 4.93 g/m*3 4.5 C 0 km/h
1129 24-11-2010 09:48:02 4.6 C 4.9 g/m*3 4.6 C 0 km/h
1130 24-11-2010 10:00:02 4.8 C 4.83 g/m*3 4.8 C 0 km/h
1131 24-11-2010 10:12:02 5.1 C 4.72 g/m*3 5.1 C 0 km/h
1132 24-11-2010 10:24:02 5.2 C 4.68 g/m*3 5.2 C 0 km/h
1133 24-11-2010 10:36:01 5.4 C 4.67 g/m*3 5.4 C 0 km/h
1134 24-11-2010 10:48:02 5.6 C 4.6 g/m*3 5.6 C 0 km/h
1135 24-11-2010 11:00:02 5.7 C 4.63 g/m*3 5.7 C 0 km/h
1136 24-11-2010 11:12:01 4.9 C 4.73 g/m*3 4.9 C 0 km/h
1137 24-11-2010 11:24:01 4.9 C 4.86 g/m*3 4.9 C 0 km/h
1138 24-11-2010 11:36:02 5 C 4.89 g/m*3 5 C 0 km/h
1139 24-11-2010 11:48:02 5.6 C 4.81 g/m*3 5.6 C 0 km/h
1140 24-11-2010 12:00:02 5.6 C 4.6 g/m*3 5.6 C 0 km/h
1141 24-11-2010 12:12:01 5.8 C 4.58 g/m*3 5.8 C 0 km/h
1142 24-11-2010 12:24:02 6.1 C 4.53 g/m*3 6.1 C 0 km/h
1143 24-11-2010 12:36:02 5.9 C 4.61 g/m*3 5.9 C 0 km/h
1144 24-11-2010 12:48:01 5.6 C 4.52 g/m*3 5.6 C 0 km/h
1145 24-11-2010 13:00:01 5.6 C 4.6 g/m*3 5.6 C 0 km/h
1146 24-11-2010 13:12:02 5.6 C 4.67 g/m*3 5.6 C 0 km/h
1147 24-11-2010 13:24:01 5.4 C 4.54 g/m*3 5.4 C 0 km/h
1148 24-11-2010 13:36:01 5.1 C 4.58 g/m*3 5.1 C 0 km/h
1149 24-11-2010 13:48:01 5.1 C 4.65 g/m*3 5.1 C 0 km/h
1150 24-11-2010 14:00:01 4.9 C 4.73 g/m*3 4.9 C 0 km/h
Sensor: Nr:Datum:Temp:Abs-Feuchte:Windchill:Wind:
Aussen-T/F 1151 24-11-2010 14:12:02 4.7 C 5 g/m*3 4.7 C 0 km/h
1152 24-11-2010 14:24:01 4.5 C 5.19 g/m*3 4.5 C 0 km/h
1153 24-11-2010 14:36:01 4.3 C 5.25 g/m*3 4.3 C 0 km/h
1154 24-11-2010 14:48:01 4 C 5.21 g/m*3 4 C 0 km/h
1155 24-11-2010 15:00:01 3.5 C 5.04 g/m*3 3.5 C 0 km/h
1156 24-11-2010 15:12:02 3.4 C 5.13 g/m*3 3.4 C 0 km/h
1157 24-11-2010 15:24:02 3.5 C 5.29 g/m*3 3.5 C 0 km/h
1158 24-11-2010 15:36:01 3.5 C 5.35 g/m*3 3.5 C 0 km/h
1159 24-11-2010 15:48:02 3.5 C 5.41 g/m*3 3.5 C 0 km/h
1160 24-11-2010 16:00:02 3.5 C 5.41 g/m*3 3.5 C 0 km/h
1161 24-11-2010 16:12:01 3.5 C 5.35 g/m*3 3.5 C 0 km/h
1162 24-11-2010 16:24:02 3.3 C 5.16 g/m*3 3.3 C 0 km/h
1163 24-11-2010 16:36:01 3.1 C 5.09 g/m*3 3.1 C 0 km/h
1164 24-11-2010 16:48:02 3.1 C 5.09 g/m*3 3.1 C 0 km/h
1165 24-11-2010 17:00:02 3 C 5.05 g/m*3 3 C 0 km/h
1166 24-11-2010 17:12:02 3 C 5.05 g/m*3 3 C 0 km/h
1167 24-11-2010 17:24:02 2.4 C 4.91 g/m*3 2.4 C 0 km/h
1168 24-11-2010 17:36:02 1.6 C 4.7 g/m*3 1.6 C 0 km/h
1169 24-11-2010 17:48:02 1.4 C 4.69 g/m*3 1.4 C 0 km/h
1170 24-11-2010 18:00:02 1.4 C 4.75 g/m*3 1.4 C 0 km/h
1171 24-11-2010 18:12:01 1.5 C 4.83 g/m*3 1.5 C 0 km/h
1172 24-11-2010 18:24:01 1.6 C 4.92 g/m*3 1.6 C 0 km/h
1173 24-11-2010 18:36:02 1.7 C 4.95 g/m*3 1.7 C 0 km/h
1174 24-11-2010 18:48:02 2 C 5.06 g/m*3 2 C 0 km/h
1175 24-11-2010 19:00:02 2 C 5.06 g/m*3 2 C 0 km/h
Sensor: Nr:Datum:Temp:Abs-Feuchte:Windchill:Wind:
Aussen-T/F 1176 24-11-2010 19:12:02 2.2 C 5.13 g/m*3 2.2 C 0 km/h
1177 24-11-2010 19:24:02 2.1 C 5.09 g/m*3 2.1 C 0 km/h
1178 24-11-2010 19:36:02 1.9 C 5.08 g/m*3 1.9 C 0 km/h
1179 24-11-2010 19:48:02 1.9 C 5.08 g/m*3 1.9 C 0 km/h
1180 24-11-2010 20:00:02 1.5 C 4.94 g/m*3 1.5 C 0 km/h
1181 24-11-2010 20:12:02 1.3 C 4.87 g/m*3 1.3 C 0 km/h
1182 24-11-2010 20:24:02 1.4 C 4.91 g/m*3 1.4 C 0 km/h
1183 24-11-2010 20:36:02 1.3 C 4.87 g/m*3 1.3 C 0 km/h
1184 24-11-2010 20:48:02 1.6 C 4.97 g/m*3 1.6 C 0 km/h
1185 24-11-2010 21:00:02 1.9 C 5.08 g/m*3 1.9 C 0 km/h
1186 24-11-2010 21:12:02 1.3 C 4.87 g/m*3 1.3 C 0 km/h
1187 24-11-2010 21:24:02 1 C 4.78 g/m*3 1 C 0 km/h
1188 24-11-2010 21:36:03 1.2 C 4.84 g/m*3 1.2 C 0 km/h
1189 24-11-2010 21:49:04 1.7 C 5.01 g/m*3 1.7 C 0 km/h
1190 24-11-2010 22:01:04 2 C 5.11 g/m*3 2 C 0 km/h
1191 24-11-2010 22:13:04 2.2 C 5.18 g/m*3 2.2 C 0 km/h
1192 24-11-2010 22:25:04 2.3 C 5.22 g/m*3 2.3 C 0 km/h
1193 24-11-2010 22:37:05 2.1 C 5.09 g/m*3 2.1 C 0 km/h
1194 24-11-2010 22:49:05 2.1 C 5.04 g/m*3 2.1 C 0 km/h
1195 24-11-2010 23:01:05 2.1 C 5.04 g/m*3 2.1 C 0 km/h
1196 24-11-2010 23:13:05 2.1 C 4.98 g/m*3 2.1 C 0 km/h
1197 24-11-2010 23:25:05 2.6 C 5.15 g/m*3 2.6 C 0 km/h
1198 24-11-2010 23:37:05 2.6 C 5.09 g/m*3 2.6 C 0 km/h
1199 24-11-2010 23:49:05 2.6 C 5.03 g/m*3 2.6 C 0 km/h
1200 25-11-2010 00:01:05 2.4 C 4.91 g/m*3 2.4 C 0 km/h
Sensor: Nr:Datum:Temp:Abs-Feuchte:Windchill:Wind:
Aussen-T/F 1201 25-11-2010 00:13:05 2.6 C 4.98 g/m*3 2.6 C 0 km/h
1202 25-11-2010 00:25:05 2.4 C 4.91 g/m*3 2.4 C 0 km/h
1203 25-11-2010 00:37:05 2.5 C 4.94 g/m*3 2.5 C 0 km/h
1204 25-11-2010 00:49:05 2.6 C 4.92 g/m*3 2.6 C 0 km/h
1205 25-11-2010 01:01:05 2.6 C 4.92 g/m*3 2.6 C 0 km/h
1206 25-11-2010 01:13:05 3.1 C 4.97 g/m*3 3.1 C 0 km/h
1207 25-11-2010 01:25:05 3 C 4.76 g/m*3 3 C 0 km/h
1208 25-11-2010 01:37:05 2.9 C 4.78 g/m*3 2.9 C 0 km/h
1209 25-11-2010 01:49:05 3.1 C 4.67 g/m*3 3.1 C 0 km/h
1210 25-11-2010 02:01:05 3 C 4.52 g/m*3 3 C 0 km/h
1211 25-11-2010 02:13:05 2.9 C 4.55 g/m*3 2.9 C 0 km/h
1212 25-11-2010 02:25:05 2.7 C 4.54 g/m*3 2.7 C 0 km/h
1213 25-11-2010 02:37:05 2.6 C 4.57 g/m*3 2.6 C 0 km/h
1214 25-11-2010 02:49:06 2.6 C 4.57 g/m*3 2.6 C 0 km/h
1215 25-11-2010 03:01:06 2.5 C 4.6 g/m*3 2.5 C 0 km/h
1216 25-11-2010 03:13:06 3 C 4.52 g/m*3 3 C 0 km/h
1217 25-11-2010 03:25:06 3.1 C 4.37 g/m*3 3.1 C 0 km/h
1218 25-11-2010 03:37:06 2.9 C 4.31 g/m*3 2.9 C 0 km/h
1219 25-11-2010 03:49:06 2.6 C 4.34 g/m*3 2.6 C 0 km/h
1220 25-11-2010 04:01:06 2.5 C 4.31 g/m*3 2.5 C 0 km/h
1221 25-11-2010 04:13:06 2 C 4.17 g/m*3 2 C 0 km/h
1222 25-11-2010 04:25:06 1.9 C 4.19 g/m*3 1.9 C 0 km/h
1223 25-11-2010 04:37:06 1.7 C 4.14 g/m*3 1.7 C 0 km/h
1224 25-11-2010 04:49:06 2 C 4.17 g/m*3 2 C 0 km/h
1225 25-11-2010 05:01:06 1.5 C 4.03 g/m*3 1.5 C 0 km/h
Sensor: Nr:Datum:Temp:Abs-Feuchte:Windchill:Wind:
Aussen-T/F 1226 25-11-2010 05:13:06 1.4 C 4.11 g/m*3 1.4 C 0 km/h
1227 25-11-2010 05:25:06 1.7 C 4.19 g/m*3 1.7 C 0 km/h
1228 25-11-2010 05:37:06 0.9 C 4.02 g/m*3 0.9 C 0 km/h
1229 25-11-2010 05:49:06 1 C 4.05 g/m*3 1 C 0 km/h
1230 25-11-2010 06:01:06 0.9 C 4.02 g/m*3 0.9 C 0 km/h
1231 25-11-2010 06:13:06 1.4 C 4.21 g/m*3 1.4 C 0 km/h
1232 25-11-2010 06:25:06 0.7 C 4.12 g/m*3 0.7 C 0 km/h
1233 25-11-2010 06:37:06 0.1 C 4.05 g/m*3 0.1 C 0 km/h
1234 25-11-2010 06:49:06 0.2 C 4.18 g/m*3 0.2 C 0 km/h
1235 25-11-2010 07:01:07 0.3 C 4.25 g/m*3 0.3 C 0 km/h
1236 25-11-2010 07:13:07 0.3 C 4.3 g/m*3 0.3 C 0 km/h
1237 25-11-2010 07:25:04 0.2 C 4.27 g/m*3 0.2 C 0 km/h
1238 25-11-2010 07:37:04 -0.2 C 4.21 g/m*3 -0.2 C 0 km/h
1239 25-11-2010 07:49:02 -0.3 C 4.18 g/m*3 -0.3 C 0 km/h
1240 25-11-2010 08:01:01 -0.4 C 4.15 g/m*3 -0.4 C 0 km/h
1241 25-11-2010 08:13:01 -0.2 C 4.25 g/m*3 -0.2 C 0 km/h
1242 25-11-2010 08:25:02 -0.4 C 4.19 g/m*3 -0.4 C 0 km/h
1243 25-11-2010 08:37:02 -0.4 C 4.19 g/m*3 -0.4 C 0 km/h
1244 25-11-2010 08:49:02 0 C 4.36 g/m*3 0 C 0 km/h
1245 25-11-2010 09:01:02 0.4 C 4.48 g/m*3 0.4 C 0 km/h
1246 25-11-2010 09:13:02 0.5 C 4.46 g/m*3 0.5 C 0 km/h
1247 25-11-2010 09:25:01 0.7 C 4.47 g/m*3 0.7 C 0 km/h
1248 25-11-2010 09:37:01 0.7 C 4.42 g/m*3 0.7 C 0 km/h
1249 25-11-2010 09:49:03 0.6 C 4.39 g/m*3 0.6 C 0 km/h
1250 25-11-2010 10:01:02 0.4 C 4.28 g/m*3 0.4 C 0 km/h
Sensor: Nr:Datum:Temp:Abs-Feuchte:Windchill:Wind:
Aussen-T/F 1251 25-11-2010 10:13:02 0.6 C 4.39 g/m*3 0.6 C 0 km/h
1252 25-11-2010 10:25:02 0.9 C 4.48 g/m*3 0.9 C 0 km/h
1253 25-11-2010 10:37:02 1 C 4.46 g/m*3 1 C 0 km/h
1254 25-11-2010 10:49:02 1.1 C 4.49 g/m*3 1.1 C 0 km/h
1255 25-11-2010 11:01:01 1.2 C 4.47 g/m*3 1.2 C 0 km/h
1256 25-11-2010 11:13:01 1.4 C 4.53 g/m*3 1.4 C 0 km/h
1257 25-11-2010 11:25:02 1.9 C 4.58 g/m*3 1.9 C 0 km/h
1258 25-11-2010 11:37:02 2.2 C 4.56 g/m*3 2.2 C 0 km/h
1259 25-11-2010 11:49:02 2.1 C 4.48 g/m*3 2.1 C 0 km/h
1260 25-11-2010 12:01:02 1.7 C 4.41 g/m*3 1.7 C 0 km/h
1261 25-11-2010 12:13:02 1.5 C 4.4 g/m*3 1.5 C 0 km/h
1262 25-11-2010 12:25:02 1.4 C 4.43 g/m*3 1.4 C 0 km/h
1263 25-11-2010 12:37:02 2.4 C 4.74 g/m*3 2.4 C 0 km/h
1264 25-11-2010 12:49:01 3 C 4.58 g/m*3 3 C 0 km/h
1265 25-11-2010 13:01:02 3.3 C 4.43 g/m*3 3.3 C 0 km/h
1266 25-11-2010 13:13:03 3.4 C 4.28 g/m*3 3.4 C 0 km/h
1267 25-11-2010 13:25:01 3.6 C 4.15 g/m*3 3.6 C 0 km/h
1268 25-11-2010 13:37:01 3.5 C 4.12 g/m*3 3.5 C 0 km/h
1269 25-11-2010 13:49:01 3.6 C 4.15 g/m*3 3.6 C 0 km/h
1270 25-11-2010 14:01:01 3.6 C 4.09 g/m*3 3.6 C 0 km/h
1271 25-11-2010 14:13:01 3.7 C 4.11 g/m*3 3.7 C 0 km/h
1272 25-11-2010 14:25:02 3.7 C 4.05 g/m*3 3.7 C 0 km/h
1273 25-11-2010 14:37:01 3.6 C 4.09 g/m*3 3.6 C 0 km/h
1274 25-11-2010 14:49:02 3.7 C 3.8 g/m*3 3.7 C 0 km/h
1275 25-11-2010 15:01:01 3.8 C 3.89 g/m*3 3.8 C 0 km/h
Sensor: Nr:Datum:Temp:Abs-Feuchte:Windchill:Wind:
Aussen-T/F 1276 25-11-2010 15:13:01 3.8 C 3.89 g/m*3 3.8 C 0 km/h
1277 25-11-2010 15:25:01 3.5 C 3.75 g/m*3 3.5 C 0 km/h
1278 25-11-2010 15:37:01 2.9 C 4.07 g/m*3 2.9 C 0 km/h
1279 25-11-2010 15:49:02 2.4 C 4.17 g/m*3 2.4 C 0 km/h
1280 25-11-2010 16:01:02 2.2 C 4.17 g/m*3 2.2 C 0 km/h
1281 25-11-2010 16:13:02 2 C 4.17 g/m*3 2 C 0 km/h
1282 25-11-2010 16:25:02 1.8 C 4.22 g/m*3 1.8 C 0 km/h
1283 25-11-2010 16:37:02 2.1 C 4.25 g/m*3 2.1 C 0 km/h
1284 25-11-2010 16:49:02 2.1 C 4.25 g/m*3 2.1 C 0 km/h
1285 25-11-2010 17:01:02 2.1 C 4.25 g/m*3 2.1 C 0 km/h
1286 25-11-2010 17:13:02 2.1 C 4.36 g/m*3 2.1 C 0 km/h
1287 25-11-2010 17:25:01 2 C 4.39 g/m*3 2 C 0 km/h
1288 25-11-2010 17:37:02 2 C 4.33 g/m*3 2 C 0 km/h
1289 25-11-2010 17:49:02 2 C 4.39 g/m*3 2 C 0 km/h
1290 25-11-2010 18:01:02 2 C 4.39 g/m*3 2 C 0 km/h
1291 25-11-2010 18:13:02 1.8 C 4.39 g/m*3 1.8 C 0 km/h
1292 25-11-2010 18:25:02 1.9 C 4.53 g/m*3 1.9 C 0 km/h
1293 25-11-2010 18:37:02 1.8 C 4.49 g/m*3 1.8 C 0 km/h
1294 25-11-2010 18:49:02 1.2 C 4.31 g/m*3 1.2 C 0 km/h
1295 25-11-2010 19:01:02 0.9 C 4.28 g/m*3 0.9 C 0 km/h
1296 25-11-2010 19:13:02 0.8 C 4.3 g/m*3 0.8 C 0 km/h
1297 25-11-2010 19:25:01 0.9 C 4.38 g/m*3 0.9 C 0 km/h
1298 25-11-2010 19:37:02 1.1 C 4.49 g/m*3 1.1 C 0 km/h
1299 25-11-2010 19:49:01 1.2 C 4.47 g/m*3 1.2 C 0 km/h
1300 25-11-2010 20:01:02 0.8 C 4.4 g/m*3 0.8 C 0 km/h
Sensor: Nr:Datum:Temp:Abs-Feuchte:Windchill:Wind:
Aussen-T/F 1301 25-11-2010 20:13:03 0.8 C 4.4 g/m*3 0.8 C 0 km/h
1302 25-11-2010 20:25:01 0.7 C 4.42 g/m*3 0.7 C 0 km/h
1303 25-11-2010 20:37:02 0.5 C 4.36 g/m*3 0.5 C 0 km/h
1304 25-11-2010 20:50:04 0.7 C 4.42 g/m*3 0.7 C 0 km/h
1305 25-11-2010 21:02:04 0.9 C 4.48 g/m*3 0.9 C 0 km/h
1306 25-11-2010 21:14:04 1.2 C 4.53 g/m*3 1.2 C 0 km/h
1307 25-11-2010 21:26:04 1.4 C 4.53 g/m*3 1.4 C 0 km/h
1308 25-11-2010 21:38:04 1.4 C 4.48 g/m*3 1.4 C 0 km/h
1309 25-11-2010 21:50:04 1.3 C 4.45 g/m*3 1.3 C 0 km/h
1310 25-11-2010 22:02:04 1.4 C 4.48 g/m*3 1.4 C 0 km/h
1311 25-11-2010 22:14:04 1.3 C 4.45 g/m*3 1.3 C 0 km/h
1312 25-11-2010 22:26:04 1.3 C 4.5 g/m*3 1.3 C 0 km/h
1313 25-11-2010 22:38:05 1.3 C 4.5 g/m*3 1.3 C 0 km/h
1314 25-11-2010 22:50:05 1.4 C 4.53 g/m*3 1.4 C 0 km/h
1315 25-11-2010 23:02:05 1.2 C 4.47 g/m*3 1.2 C 0 km/h
1316 25-11-2010 23:14:05 1.3 C 4.5 g/m*3 1.3 C 0 km/h
1317 25-11-2010 23:26:05 1.4 C 4.53 g/m*3 1.4 C 0 km/h
1318 25-11-2010 23:38:05 1.5 C 4.57 g/m*3 1.5 C 0 km/h
1319 25-11-2010 23:50:05 1.4 C 4.53 g/m*3 1.4 C 0 km/h
1320 26-11-2010 00:02:05 1.4 C 4.53 g/m*3 1.4 C 0 km/h
1321 26-11-2010 00:14:05 1.6 C 4.6 g/m*3 1.6 C 0 km/h
1322 26-11-2010 00:26:05 1.6 C 4.6 g/m*3 1.6 C 0 km/h
1323 26-11-2010 00:38:05 1.4 C 4.48 g/m*3 1.4 C 0 km/h
1324 26-11-2010 00:50:05 1 C 4.36 g/m*3 1 C 0 km/h
1325 26-11-2010 01:02:05 0.9 C 4.43 g/m*3 0.9 C 0 km/h
Sensor: Nr:Datum:Temp:Abs-Feuchte:Windchill:Wind:
Aussen-T/F 1326 26-11-2010 01:14:05 1.1 C 4.49 g/m*3 1.1 C 0 km/h
1327 26-11-2010 01:26:05 1.1 C 4.55 g/m*3 1.1 C 0 km/h
1328 26-11-2010 01:38:05 1.2 C 4.53 g/m*3 1.2 C 0 km/h
1329 26-11-2010 01:50:05 1 C 4.46 g/m*3 1 C 0 km/h
1330 26-11-2010 02:02:05 1 C 4.46 g/m*3 1 C 0 km/h
1331 26-11-2010 02:14:05 1.1 C 4.49 g/m*3 1.1 C 0 km/h
1332 26-11-2010 02:26:05 1 C 4.46 g/m*3 1 C 0 km/h
1333 26-11-2010 02:38:05 1.1 C 4.49 g/m*3 1.1 C 0 km/h
1334 26-11-2010 02:50:06 1.1 C 4.44 g/m*3 1.1 C 0 km/h
1335 26-11-2010 03:02:06 1.1 C 4.49 g/m*3 1.1 C 0 km/h
1336 26-11-2010 03:14:06 1.2 C 4.47 g/m*3 1.2 C 0 km/h
1337 26-11-2010 03:26:06 0.6 C 4.29 g/m*3 0.6 C 0 km/h
1338 26-11-2010 03:38:06 0.4 C 4.28 g/m*3 0.4 C 0 km/h
1339 26-11-2010 03:50:06 0.4 C 4.33 g/m*3 0.4 C 0 km/h
1340 26-11-2010 04:02:06 0.4 C 4.38 g/m*3 0.4 C 0 km/h
1341 26-11-2010 04:14:06 0.3 C 4.35 g/m*3 0.3 C 0 km/h
1342 26-11-2010 04:26:06 0.3 C 4.4 g/m*3 0.3 C 0 km/h
1343 26-11-2010 04:38:06 0.3 C 4.4 g/m*3 0.3 C 0 km/h
1344 26-11-2010 04:50:06 0.3 C 4.45 g/m*3 0.3 C 0 km/h
1345 26-11-2010 05:02:06 0.3 C 4.45 g/m*3 0.3 C 0 km/h
1346 26-11-2010 05:14:06 0.1 C 4.39 g/m*3 0.1 C 0 km/h
1347 26-11-2010 05:26:06 0.2 C 4.47 g/m*3 0.2 C 0 km/h
1348 26-11-2010 05:38:06 0.3 C 4.5 g/m*3 0.3 C 0 km/h
1349 26-11-2010 05:50:06 0.4 C 4.53 g/m*3 0.4 C 0 km/h
1350 26-11-2010 06:02:06 0.4 C 4.53 g/m*3 0.4 C 0 km/h
Sensor: Nr:Datum:Temp:Abs-Feuchte:Windchill:Wind:
Aussen-T/F 1351 26-11-2010 06:14:06 0.4 C 4.53 g/m*3 0.4 C 0 km/h
1352 26-11-2010 06:26:06 0.2 C 4.47 g/m*3 0.2 C 0 km/h
1353 26-11-2010 06:38:06 0.1 C 4.44 g/m*3 0.1 C 0 km/h
1354 26-11-2010 06:50:07 0 C 4.46 g/m*3 0 C 0 km/h
1355 26-11-2010 07:02:03 0 C 4.46 g/m*3 0 C 0 km/h
1356 26-11-2010 07:14:03 0 C 4.46 g/m*3 0 C 0 km/h
1357 26-11-2010 07:26:03 0 C 4.46 g/m*3 0 C 0 km/h
1358 26-11-2010 07:38:03 0 C 4.46 g/m*3 0 C 0 km/h
1359 26-11-2010 07:50:01 0 C 4.46 g/m*3 0 C 0 km/h
1360 26-11-2010 08:02:02 0 C 4.46 g/m*3 0 C 0 km/h
1361 26-11-2010 08:14:02 0 C 4.46 g/m*3 0 C 0 km/h
1362 26-11-2010 08:26:01 0 C 4.46 g/m*3 0 C 0 km/h
1363 26-11-2010 08:38:01 0.1 C 4.54 g/m*3 0.1 C 0 km/h
1364 26-11-2010 08:50:01 0.1 C 4.54 g/m*3 0.1 C 0 km/h
1365 26-11-2010 09:02:01 0.1 C 4.54 g/m*3 0.1 C 0 km/h
1366 26-11-2010 09:14:01 0.1 C 4.54 g/m*3 0.1 C 0 km/h
1367 26-11-2010 09:26:01 0.1 C 4.54 g/m*3 0.1 C 0 km/h
1368 26-11-2010 09:38:02 0.2 C 4.57 g/m*3 0.2 C 0 km/h
1369 26-11-2010 09:50:02 0.2 C 4.57 g/m*3 0.2 C 0 km/h
1370 26-11-2010 10:02:01 0.4 C 4.63 g/m*3 0.4 C 0 km/h
1371 26-11-2010 10:14:01 0.4 C 4.63 g/m*3 0.4 C 0 km/h
1372 26-11-2010 10:26:02 0.5 C 4.61 g/m*3 0.5 C 0 km/h
1373 26-11-2010 10:38:02 0.7 C 4.68 g/m*3 0.7 C 0 km/h
1374 26-11-2010 10:50:01 0.9 C 4.74 g/m*3 0.9 C 0 km/h
1375 26-11-2010 11:02:02 1 C 4.67 g/m*3 1 C 0 km/h
Sensor: Nr:Datum:Temp:Abs-Feuchte:Windchill:Wind:
Aussen-T/F 1376 26-11-2010 11:14:02 1 C 4.62 g/m*3 1 C 0 km/h
1377 26-11-2010 11:26:01 1.2 C 4.63 g/m*3 1.2 C 0 km/h
1378 26-11-2010 11:38:01 1.2 C 4.58 g/m*3 1.2 C 0 km/h
1379 26-11-2010 11:50:01 1.2 C 4.53 g/m*3 1.2 C 0 km/h
1380 26-11-2010 12:02:02 1.1 C 4.49 g/m*3 1.1 C 0 km/h
1381 26-11-2010 12:14:02 1.1 C 4.49 g/m*3 1.1 C 0 km/h
1382 26-11-2010 12:26:01 0.8 C 4.4 g/m*3 0.8 C 0 km/h
1383 26-11-2010 12:38:02 0.7 C 4.37 g/m*3 0.7 C 0 km/h
1384 26-11-2010 12:50:01 0.5 C 4.31 g/m*3 0.5 C 0 km/h
1385 26-11-2010 13:02:02 0.4 C 4.28 g/m*3 0.4 C 0 km/h
1386 26-11-2010 13:14:02 0.6 C 4.34 g/m*3 0.6 C 0 km/h
1387 26-11-2010 13:26:02 1 C 4.46 g/m*3 1 C 0 km/h
1388 26-11-2010 13:38:01 1.3 C 4.5 g/m*3 1.3 C 0 km/h
1389 26-11-2010 13:50:01 1.2 C 4.26 g/m*3 1.2 C 0 km/h
1390 26-11-2010 14:02:01 1.4 C 4.21 g/m*3 1.4 C 0 km/h
1391 26-11-2010 14:14:01 1.5 C 4.19 g/m*3 1.5 C 0 km/h
1392 26-11-2010 14:26:02 1.5 C 4.14 g/m*3 1.5 C 0 km/h
1393 26-11-2010 14:38:01 1.8 C 4.17 g/m*3 1.8 C 0 km/h
1394 26-11-2010 14:50:03 1.8 C 4.17 g/m*3 1.8 C 0 km/h
1395 26-11-2010 15:02:02 1.4 C 3.79 g/m*3 1.4 C 0 km/h
1396 26-11-2010 15:14:02 1 C 3.74 g/m*3 1 C 0 km/h
1397 26-11-2010 15:26:02 0.9 C 3.81 g/m*3 0.9 C 0 km/h
1398 26-11-2010 15:38:02 0.7 C 3.86 g/m*3 0.7 C 0 km/h
1399 26-11-2010 15:50:02 0 C 3.78 g/m*3 0 C 0 km/h
1400 26-11-2010 16:02:01 -0.8 C 3.71 g/m*3 -0.8 C 0 km/h
Sensor: Nr:Datum:Temp:Abs-Feuchte:Windchill:Wind:
Aussen-T/F 1401 26-11-2010 16:14:01 -1.1 C 3.73 g/m*3 -1.1 C 0 km/h
1402 26-11-2010 16:26:02 -1.6 C 3.68 g/m*3 -1.6 C 0 km/h
1403 26-11-2010 16:38:02 -1.8 C 3.68 g/m*3 -1.8 C 0 km/h
1404 26-11-2010 16:50:02 -2.1 C 3.64 g/m*3 -2.1 C 0 km/h
1405 26-11-2010 17:02:03 -2.2 C 3.66 g/m*3 -2.2 C 0 km/h
1406 26-11-2010 17:14:03 -2.4 C 3.61 g/m*3 -2.4 C 0 km/h
1407 26-11-2010 17:26:02 -2.5 C 3.62 g/m*3 -2.5 C 0 km/h
1408 26-11-2010 17:38:02 -2.5 C 3.62 g/m*3 -2.5 C 0 km/h
1409 26-11-2010 17:50:01 -2.2 C 3.74 g/m*3 -2.2 C 0 km/h
1410 26-11-2010 18:02:02 -1.5 C 3.93 g/m*3 -1.5 C 0 km/h
1411 26-11-2010 18:14:02 -1.3 C 4.03 g/m*3 -1.3 C 0 km/h
1412 26-11-2010 18:26:01 -1.3 C 4.03 g/m*3 -1.3 C 0 km/h
1413 26-11-2010 18:38:01 -1.4 C 4 g/m*3 -1.4 C 0 km/h
1414 26-11-2010 18:50:01 -1.4 C 4 g/m*3 -1.4 C 0 km/h
1415 26-11-2010 19:02:02 -1.4 C 4 g/m*3 -1.4 C 0 km/h
1416 26-11-2010 19:14:02 -1.4 C 4 g/m*3 -1.4 C 0 km/h
1417 26-11-2010 19:26:01 -1.4 C 4 g/m*3 -1.4 C 0 km/h
1418 26-11-2010 19:38:01 -1.6 C 3.94 g/m*3 -1.6 C 0 km/h
1419 26-11-2010 19:50:02 -1.9 C 3.86 g/m*3 -1.9 C 0 km/h
1420 26-11-2010 20:02:02 -1.8 C 3.89 g/m*3 -1.8 C 0 km/h
1421 26-11-2010 20:14:02 -1.9 C 3.86 g/m*3 -1.9 C 0 km/h
1422 26-11-2010 20:26:02 -1.7 C 3.92 g/m*3 -1.7 C 0 km/h
1423 26-11-2010 20:38:02 -1.9 C 3.86 g/m*3 -1.9 C 0 km/h
1424 26-11-2010 20:50:02 -2.5 C 3.7 g/m*3 -2.5 C 0 km/h
1425 26-11-2010 21:02:01 -2.2 C 3.78 g/m*3 -2.2 C 0 km/h
Sensor: Nr:Datum:Temp:Abs-Feuchte:Windchill:Wind:
Aussen-T/F 1426 26-11-2010 21:14:01 -2 C 3.84 g/m*3 -2 C 0 km/h
1427 26-11-2010 21:26:02 -2.3 C 3.76 g/m*3 -2.3 C 0 km/h
1428 26-11-2010 21:38:02 -2.6 C 3.68 g/m*3 -2.6 C 0 km/h
1429 26-11-2010 21:50:02 -2.6 C 3.68 g/m*3 -2.6 C 0 km/h
1430 26-11-2010 22:02:02 -3 C 3.57 g/m*3 -3 C 0 km/h
1431 26-11-2010 22:14:02 -3.3 C 3.46 g/m*3 -3.3 C 0 km/h
1432 26-11-2010 22:26:02 -3.1 C 3.55 g/m*3 -3.1 C 0 km/h
1433 26-11-2010 22:38:02 -3.2 C 3.52 g/m*3 -3.2 C 0 km/h
1434 26-11-2010 22:50:02 -3.6 C 3.39 g/m*3 -3.6 C 0 km/h
1435 26-11-2010 23:03:02 -3.8 C 3.34 g/m*3 -3.8 C 0 km/h
1436 26-11-2010 23:15:02 -3.8 C 3.34 g/m*3 -3.8 C 0 km/h
1437 26-11-2010 23:27:02 -3.9 C 3.32 g/m*3 -3.9 C 0 km/h
1438 26-11-2010 23:39:02 -3.7 C 3.36 g/m*3 -3.7 C 0 km/h
1439 26-11-2010 23:51:02 -3.6 C 3.39 g/m*3 -3.6 C 0 km/h
1440 27-11-2010 00:03:02 -4 C 3.29 g/m*3 -4 C 0 km/h
1441 27-11-2010 00:15:02 -4.1 C 3.27 g/m*3 -4.1 C 0 km/h
1442 27-11-2010 00:27:02 -4.2 C 3.25 g/m*3 -4.2 C 0 km/h
1443 27-11-2010 00:39:02 -4.1 C 3.27 g/m*3 -4.1 C 0 km/h
1444 27-11-2010 00:51:02 -4 C 3.29 g/m*3 -4 C 0 km/h
1445 27-11-2010 01:03:02 -3.1 C 3.51 g/m*3 -3.1 C 0 km/h
1446 27-11-2010 01:15:02 -2.7 C 3.61 g/m*3 -2.7 C 0 km/h
1447 27-11-2010 01:27:02 -3.7 C 3.36 g/m*3 -3.7 C 0 km/h
1448 27-11-2010 01:39:02 -4.3 C 3.19 g/m*3 -4.3 C 0 km/h
1449 27-11-2010 01:51:03 -3.9 C 3.28 g/m*3 -3.9 C 0 km/h
1450 27-11-2010 02:03:03 -3.9 C 3.28 g/m*3 -3.9 C 0 km/h
Sensor: Nr:Datum:Temp:Abs-Feuchte:Windchill:Wind:
Aussen-T/F 1451 27-11-2010 02:15:03 -4.1 C 3.2 g/m*3 -4.1 C 0 km/h
1452 27-11-2010 02:27:03 -4.5 C 3.11 g/m*3 -4.5 C 0 km/h
1453 27-11-2010 02:39:03 -4 C 3.22 g/m*3 -4 C 0 km/h
1454 27-11-2010 02:51:03 -3.2 C 3.45 g/m*3 -3.2 C 0 km/h
1455 27-11-2010 03:03:03 -2.8 C 3.55 g/m*3 -2.8 C 0 km/h
1456 27-11-2010 03:15:03 -2.7 C 3.61 g/m*3 -2.7 C 0 km/h
1457 27-11-2010 03:27:03 -2.9 C 3.52 g/m*3 -2.9 C 0 km/h
1458 27-11-2010 03:39:03 -3.5 C 3.37 g/m*3 -3.5 C 0 km/h
1459 27-11-2010 03:51:03 -3.9 C 3.24 g/m*3 -3.9 C 0 km/h
1460 27-11-2010 04:03:03 -4.1 C 3.2 g/m*3 -4.1 C 0 km/h
1461 27-11-2010 04:15:03 -4 C 3.22 g/m*3 -4 C 0 km/h
1462 27-11-2010 04:27:03 -4.1 C 3.2 g/m*3 -4.1 C 0 km/h
1463 27-11-2010 04:39:03 -4 C 3.22 g/m*3 -4 C 0 km/h
1464 27-11-2010 04:51:03 -4.4 C 3.13 g/m*3 -4.4 C 0 km/h
1465 27-11-2010 05:03:03 -4.5 C 3.11 g/m*3 -4.5 C 0 km/h
1466 27-11-2010 05:15:03 -4.7 C 3.03 g/m*3 -4.7 C 0 km/h
1467 27-11-2010 05:27:03 -4.4 C 3.13 g/m*3 -4.4 C 0 km/h
1468 27-11-2010 05:39:03 -4 C 3.22 g/m*3 -4 C 0 km/h
1469 27-11-2010 05:51:03 -3.8 C 3.27 g/m*3 -3.8 C 0 km/h
1470 27-11-2010 06:03:04 -3.7 C 3.29 g/m*3 -3.7 C 0 km/h
1471 27-11-2010 06:15:04 -3.4 C 3.4 g/m*3 -3.4 C 0 km/h
1472 27-11-2010 06:27:04 -3.4 C 3.4 g/m*3 -3.4 C 0 km/h
1473 27-11-2010 06:39:04 -3.5 C 3.34 g/m*3 -3.5 C 0 km/h
1474 27-11-2010 06:51:04 -3.6 C 3.31 g/m*3 -3.6 C 0 km/h
1475 27-11-2010 07:03:04 -3.8 C 3.27 g/m*3 -3.8 C 0 km/h
Sensor: Nr:Datum:Temp:Abs-Feuchte:Windchill:Wind:
Aussen-T/F 1476 27-11-2010 07:15:04 -3.4 C 3.36 g/m*3 -3.4 C 0 km/h
1477 27-11-2010 07:27:04 -3.5 C 3.34 g/m*3 -3.5 C 0 km/h
1478 27-11-2010 07:39:04 -3.6 C 3.31 g/m*3 -3.6 C 0 km/h
1479 27-11-2010 07:51:04 -3.4 C 3.36 g/m*3 -3.4 C 0 km/h
1480 27-11-2010 08:03:04 -3.5 C 3.34 g/m*3 -3.5 C 0 km/h
1481 27-11-2010 08:15:04 -3.4 C 3.36 g/m*3 -3.4 C 0 km/h
1482 27-11-2010 08:27:04 -2.9 C 3.52 g/m*3 -2.9 C 0 km/h
1483 27-11-2010 08:39:04 -2.6 C 3.6 g/m*3 -2.6 C 0 km/h
1484 27-11-2010 08:51:04 -2.6 C 3.6 g/m*3 -2.6 C 0 km/h
1485 27-11-2010 09:03:04 -2.3 C 3.67 g/m*3 -2.3 C 0 km/h
1486 27-11-2010 09:15:04 -2 C 3.75 g/m*3 -2 C 0 km/h
1487 27-11-2010 09:27:04 -1.9 C 3.78 g/m*3 -1.9 C 0 km/h
1488 27-11-2010 09:39:04 -1.7 C 3.83 g/m*3 -1.7 C 0 km/h
1489 27-11-2010 09:51:04 -1.1 C 4 g/m*3 -1.1 C 0 km/h
1490 27-11-2010 10:03:02 -0.8 C 4.13 g/m*3 -0.8 C 0 km/h
1491 27-11-2010 10:15:02 -0.8 C 4.08 g/m*3 -0.8 C 0 km/h
1492 27-11-2010 10:27:02 -1 C 4.02 g/m*3 -1 C 0 km/h
1493 27-11-2010 10:39:01 -1 C 3.98 g/m*3 -1 C 0 km/h
1494 27-11-2010 10:51:02 -0.6 C 4.09 g/m*3 -0.6 C 0 km/h
1495 27-11-2010 11:03:01 -0.4 C 4.15 g/m*3 -0.4 C 0 km/h
1496 27-11-2010 11:15:02 -0.4 C 4.15 g/m*3 -0.4 C 0 km/h
1497 27-11-2010 11:27:02 -0.3 C 4.18 g/m*3 -0.3 C 0 km/h
1498 27-11-2010 11:39:01 0 C 4.26 g/m*3 0 C 0 km/h
1499 27-11-2010 11:51:02 0.1 C 4.2 g/m*3 0.1 C 0 km/h
1500 27-11-2010 12:03:02 0.2 C 4.13 g/m*3 0.2 C 0 km/h
Sensor: Nr:Datum:Temp:Abs-Feuchte:Windchill:Wind:
Aussen-T/F 1501 27-11-2010 12:15:02 0.3 C 4.06 g/m*3 0.3 C 0 km/h
1502 27-11-2010 12:27:02 0.4 C 4.03 g/m*3 0.4 C 0 km/h
1503 27-11-2010 12:39:03 0.6 C 3.99 g/m*3 0.6 C 0 km/h
1504 27-11-2010 12:51:02 0.4 C 3.79 g/m*3 0.4 C 0 km/h
1505 27-11-2010 13:03:02 0.7 C 3.86 g/m*3 0.7 C 0 km/h
1506 27-11-2010 13:15:02 0.7 C 3.86 g/m*3 0.7 C 0 km/h
1507 27-11-2010 13:27:02 0.7 C 3.92 g/m*3 0.7 C 0 km/h
1508 27-11-2010 13:39:02 1 C 4 g/m*3 1 C 0 km/h
1509 27-11-2010 13:51:02 1.2 C 3.89 g/m*3 1.2 C 0 km/h
1510 27-11-2010 14:03:02 1.4 C 3.95 g/m*3 1.4 C 0 km/h
1511 27-11-2010 14:15:02 1.5 C 3.87 g/m*3 1.5 C 0 km/h
1512 27-11-2010 14:27:02 1.5 C 3.71 g/m*3 1.5 C 0 km/h
1513 27-11-2010 14:39:02 1.7 C 3.7 g/m*3 1.7 C 0 km/h
1514 27-11-2010 14:51:01 1.3 C 3.71 g/m*3 1.3 C 0 km/h
1515 27-11-2010 15:03:02 1 C 3.74 g/m*3 1 C 0 km/h
1516 27-11-2010 15:15:01 1 C 3.84 g/m*3 1 C 0 km/h
1517 27-11-2010 15:27:01 0.8 C 3.79 g/m*3 0.8 C 0 km/h
1518 27-11-2010 15:39:01 0.7 C 3.81 g/m*3 0.7 C 0 km/h
1519 27-11-2010 15:51:01 0.3 C 3.81 g/m*3 0.3 C 0 km/h
1520 27-11-2010 16:03:01 -0.3 C 3.56 g/m*3 -0.3 C 0 km/h
1521 27-11-2010 16:15:02 -0.5 C 3.6 g/m*3 -0.5 C 0 km/h
1522 27-11-2010 16:27:02 -0.7 C 3.6 g/m*3 -0.7 C 0 km/h
1523 27-11-2010 16:39:01 -1 C 3.57 g/m*3 -1 C 0 km/h
1524 27-11-2010 16:51:02 -1.1 C 3.59 g/m*3 -1.1 C 0 km/h
1525 27-11-2010 17:03:01 -1 C 3.66 g/m*3 -1 C 0 km/h
Sensor: Nr:Datum:Temp:Abs-Feuchte:Windchill:Wind:
Aussen-T/F 1526 27-11-2010 17:15:02 -0.7 C 3.69 g/m*3 -0.7 C 0 km/h
1527 27-11-2010 17:27:02 -0.7 C 3.65 g/m*3 -0.7 C 0 km/h
1528 27-11-2010 17:39:01 -0.8 C 3.67 g/m*3 -0.8 C 0 km/h
1529 27-11-2010 17:51:02 -1.1 C 3.59 g/m*3 -1.1 C 0 km/h
1530 27-11-2010 18:03:02 -1.6 C 3.51 g/m*3 -1.6 C 0 km/h
1531 27-11-2010 18:15:02 -1.8 C 3.51 g/m*3 -1.8 C 0 km/h
1532 27-11-2010 18:27:02 -1.8 C 3.55 g/m*3 -1.8 C 0 km/h
1533 27-11-2010 18:39:02 -1.7 C 3.62 g/m*3 -1.7 C 0 km/h
1534 27-11-2010 18:51:02 -1 C 3.8 g/m*3 -1 C 0 km/h
1535 27-11-2010 19:03:01 -0.9 C 3.78 g/m*3 -0.9 C 0 km/h
1536 27-11-2010 19:15:02 -1 C 3.71 g/m*3 -1 C 0 km/h
1537 27-11-2010 19:27:02 -1.1 C 3.73 g/m*3 -1.1 C 0 km/h
1538 27-11-2010 19:39:02 -0.9 C 3.78 g/m*3 -0.9 C 0 km/h
1539 27-11-2010 19:51:02 -0.7 C 3.78 g/m*3 -0.7 C 0 km/h
1540 27-11-2010 20:03:03 -0.7 C 3.78 g/m*3 -0.7 C 0 km/h
1541 27-11-2010 20:15:02 -0.7 C 3.74 g/m*3 -0.7 C 0 km/h
1542 27-11-2010 20:27:02 -1.2 C 3.52 g/m*3 -1.2 C 0 km/h
1543 27-11-2010 20:39:02 -2.2 C 3.33 g/m*3 -2.2 C 0 km/h
1544 27-11-2010 20:51:01 -2.7 C 3.25 g/m*3 -2.7 C 0 km/h
1545 27-11-2010 21:03:02 -3 C 3.22 g/m*3 -3 C 0 km/h
1546 27-11-2010 21:15:01 -3 C 3.3 g/m*3 -3 C 0 km/h
1547 27-11-2010 21:27:01 -3 C 3.3 g/m*3 -3 C 0 km/h
1548 27-11-2010 21:39:01 -3.2 C 3.25 g/m*3 -3.2 C 0 km/h
1549 27-11-2010 21:51:01 -3.3 C 3.27 g/m*3 -3.3 C 0 km/h
1550 27-11-2010 22:03:02 -3.8 C 3.15 g/m*3 -3.8 C 0 km/h
Sensor: Nr:Datum:Temp:Abs-Feuchte:Windchill:Wind:
Aussen-T/F 1551 27-11-2010 22:15:01 -3.8 C 3.19 g/m*3 -3.8 C 0 km/h
1552 27-11-2010 22:27:01 -3.2 C 3.37 g/m*3 -3.2 C 0 km/h
1553 27-11-2010 22:40:03 -3.3 C 3.31 g/m*3 -3.3 C 0 km/h
1554 27-11-2010 22:52:03 -2.7 C 3.49 g/m*3 -2.7 C 0 km/h
1555 27-11-2010 23:04:03 -2.8 C 3.43 g/m*3 -2.8 C 0 km/h
1556 27-11-2010 23:16:03 -2.8 C 3.43 g/m*3 -2.8 C 0 km/h
1557 27-11-2010 23:28:03 -3 C 3.38 g/m*3 -3 C 0 km/h
1558 27-11-2010 23:40:03 -3.6 C 3.2 g/m*3 -3.6 C 0 km/h
1559 27-11-2010 23:52:03 -3.9 C 3.13 g/m*3 -3.9 C 0 km/h
1560 28-11-2010 00:04:03 -3.9 C 3.17 g/m*3 -3.9 C 0 km/h
1561 28-11-2010 00:16:03 -3.8 C 3.19 g/m*3 -3.8 C 0 km/h
1562 28-11-2010 00:28:03 -3.7 C 3.21 g/m*3 -3.7 C 0 km/h
1563 28-11-2010 00:40:03 -3.8 C 3.19 g/m*3 -3.8 C 0 km/h
1564 28-11-2010 00:52:03 -3.6 C 3.24 g/m*3 -3.6 C 0 km/h
1565 28-11-2010 01:04:03 -3.4 C 3.32 g/m*3 -3.4 C 0 km/h
1566 28-11-2010 01:16:03 -3 C 3.42 g/m*3 -3 C 0 km/h
1567 28-11-2010 01:28:03 -2.7 C 3.53 g/m*3 -2.7 C 0 km/h
1568 28-11-2010 01:40:03 -2.4 C 3.61 g/m*3 -2.4 C 0 km/h
1569 28-11-2010 01:52:03 -2.3 C 3.63 g/m*3 -2.3 C 0 km/h
1570 28-11-2010 02:04:03 -2.1 C 3.64 g/m*3 -2.1 C 0 km/h
1571 28-11-2010 02:16:03 -2.2 C 3.62 g/m*3 -2.2 C 0 km/h
1572 28-11-2010 02:28:04 -2.1 C 3.64 g/m*3 -2.1 C 0 km/h
1573 28-11-2010 02:40:04 -2.1 C 3.6 g/m*3 -2.1 C 0 km/h
1574 28-11-2010 02:52:04 -2.4 C 3.52 g/m*3 -2.4 C 0 km/h
1575 28-11-2010 03:04:04 -2.6 C 3.43 g/m*3 -2.6 C 0 km/h
Sensor: Nr:Datum:Temp:Abs-Feuchte:Windchill:Wind:
Aussen-T/F 1576 28-11-2010 03:16:04 -3.3 C 3.23 g/m*3 -3.3 C 0 km/h
1577 28-11-2010 03:28:04 -3.8 C 3.12 g/m*3 -3.8 C 0 km/h
1578 28-11-2010 03:40:04 -3.6 C 3.16 g/m*3 -3.6 C 0 km/h
1579 28-11-2010 03:52:04 -3.7 C 3.18 g/m*3 -3.7 C 0 km/h
1580 28-11-2010 04:04:04 -3.2 C 3.33 g/m*3 -3.2 C 0 km/h
1581 28-11-2010 04:16:04 -2.8 C 3.43 g/m*3 -2.8 C 0 km/h
1582 28-11-2010 04:28:04 -2.5 C 3.5 g/m*3 -2.5 C 0 km/h
1583 28-11-2010 04:40:04 -2.4 C 3.52 g/m*3 -2.4 C 0 km/h
1584 28-11-2010 04:52:04 -2.3 C 3.55 g/m*3 -2.3 C 0 km/h
1585 28-11-2010 05:04:04 -2.3 C 3.55 g/m*3 -2.3 C 0 km/h
1586 28-11-2010 05:16:04 -2.6 C 3.48 g/m*3 -2.6 C 0 km/h
1587 28-11-2010 05:28:04 -3 C 3.34 g/m*3 -3 C 0 km/h
1588 28-11-2010 05:40:04 -3 C 3.34 g/m*3 -3 C 0 km/h
1589 28-11-2010 05:52:04 -2.7 C 3.41 g/m*3 -2.7 C 0 km/h
1590 28-11-2010 06:04:04 -2.5 C 3.5 g/m*3 -2.5 C 0 km/h
1591 28-11-2010 06:16:04 -2.3 C 3.55 g/m*3 -2.3 C 0 km/h
1592 28-11-2010 06:28:04 -2.1 C 3.6 g/m*3 -2.1 C 0 km/h
1593 28-11-2010 06:40:04 -2 C 3.58 g/m*3 -2 C 0 km/h
1594 28-11-2010 06:52:05 -2 C 3.58 g/m*3 -2 C 0 km/h
1595 28-11-2010 07:04:05 -2 C 3.58 g/m*3 -2 C 0 km/h
1596 28-11-2010 07:16:05 -1.9 C 3.57 g/m*3 -1.9 C 0 km/h
1597 28-11-2010 07:28:05 -1.9 C 3.57 g/m*3 -1.9 C 0 km/h
1598 28-11-2010 07:40:05 -1.8 C 3.59 g/m*3 -1.8 C 0 km/h
1599 28-11-2010 07:52:05 -1.8 C 3.59 g/m*3 -1.8 C 0 km/h
1600 28-11-2010 08:04:05 -1.8 C 3.55 g/m*3 -1.8 C 0 km/h
Sensor: Nr:Datum:Temp:Abs-Feuchte:Windchill:Wind:
Aussen-T/F 1601 28-11-2010 08:16:05 -1.7 C 3.62 g/m*3 -1.7 C 0 km/h
1602 28-11-2010 08:28:05 -1.6 C 3.64 g/m*3 -1.6 C 0 km/h
1603 28-11-2010 08:40:05 -1.6 C 3.6 g/m*3 -1.6 C 0 km/h
1604 28-11-2010 08:52:05 -1.6 C 3.6 g/m*3 -1.6 C 0 km/h
1605 28-11-2010 09:04:05 -1.4 C 3.6 g/m*3 -1.4 C 0 km/h
1606 28-11-2010 09:16:05 -1.3 C 3.63 g/m*3 -1.3 C 0 km/h
1607 28-11-2010 09:28:05 -1.2 C 3.61 g/m*3 -1.2 C 0 km/h
1608 28-11-2010 09:40:03 -1.1 C 3.59 g/m*3 -1.1 C 0 km/h
1609 28-11-2010 09:52:01 -0.9 C 3.64 g/m*3 -0.9 C 0 km/h
1610 28-11-2010 10:04:02 -0.4 C 3.72 g/m*3 -0.4 C 0 km/h
1611 28-11-2010 10:16:02 -0.5 C 3.6 g/m*3 -0.5 C 0 km/h
1612 28-11-2010 10:28:02 -0.4 C 3.63 g/m*3 -0.4 C 0 km/h
1613 28-11-2010 10:40:02 -0.4 C 3.58 g/m*3 -0.4 C 0 km/h
1614 28-11-2010 10:52:02 -0.2 C 3.63 g/m*3 -0.2 C 0 km/h
1615 28-11-2010 11:04:01 -0.1 C 3.61 g/m*3 -0.1 C 0 km/h
1616 28-11-2010 11:16:02 -0.2 C 3.54 g/m*3 -0.2 C 0 km/h
1617 28-11-2010 11:28:02 -0.3 C 3.51 g/m*3 -0.3 C 0 km/h
1618 28-11-2010 11:40:01 -0.1 C 3.56 g/m*3 -0.1 C 0 km/h
1619 28-11-2010 11:52:02 -0.2 C 3.54 g/m*3 -0.2 C 0 km/h
1620 28-11-2010 12:04:01 0 C 3.59 g/m*3 0 C 0 km/h
1621 28-11-2010 12:16:01 0.1 C 3.61 g/m*3 0.1 C 0 km/h
1622 28-11-2010 12:28:01 0 C 3.59 g/m*3 0 C 0 km/h
1623 28-11-2010 12:40:02 0 C 3.59 g/m*3 0 C 0 km/h
1624 28-11-2010 12:52:02 0 C 3.59 g/m*3 0 C 0 km/h
1625 28-11-2010 13:04:02 0 C 3.59 g/m*3 0 C 0 km/h
Sensor: Nr:Datum:Temp:Abs-Feuchte:Windchill:Wind:
Aussen-T/F 1626 28-11-2010 13:16:02 0.1 C 3.61 g/m*3 0.1 C 0 km/h
1627 28-11-2010 13:28:02 0.1 C 3.66 g/m*3 0.1 C 0 km/h
1628 28-11-2010 13:40:02 0.2 C 3.64 g/m*3 0.2 C 0 km/h
1629 28-11-2010 13:52:02 0.3 C 3.66 g/m*3 0.3 C 0 km/h
1630 28-11-2010 14:04:02 0.2 C 3.64 g/m*3 0.2 C 0 km/h
1631 28-11-2010 14:16:02 0.3 C 3.66 g/m*3 0.3 C 0 km/h
1632 28-11-2010 14:28:02 0.5 C 3.71 g/m*3 0.5 C 0 km/h
1633 28-11-2010 14:40:02 0.7 C 3.71 g/m*3 0.7 C 0 km/h
1634 28-11-2010 14:52:01 0.8 C 3.74 g/m*3 0.8 C 0 km/h
1635 28-11-2010 15:04:02 0.7 C 3.71 g/m*3 0.7 C 0 km/h
1636 28-11-2010 15:16:01 0.7 C 3.71 g/m*3 0.7 C 0 km/h
1637 28-11-2010 15:28:01 0.6 C 3.74 g/m*3 0.6 C 0 km/h
1638 28-11-2010 15:40:01 0.5 C 3.71 g/m*3 0.5 C 0 km/h
1639 28-11-2010 15:52:01 0.2 C 3.68 g/m*3 0.2 C 0 km/h
1640 28-11-2010 16:04:01 0 C 3.68 g/m*3 0 C 0 km/h
1641 28-11-2010 16:16:02 -0.3 C 3.65 g/m*3 -0.3 C 0 km/h
1642 28-11-2010 16:28:02 -0.6 C 3.63 g/m*3 -0.6 C 0 km/h
1643 28-11-2010 16:40:01 -0.5 C 3.7 g/m*3 -0.5 C 0 km/h
1644 28-11-2010 16:52:03 -0.3 C 3.75 g/m*3 -0.3 C 0 km/h
1645 28-11-2010 17:04:02 -0.3 C 3.75 g/m*3 -0.3 C 0 km/h
1646 28-11-2010 17:16:02 -0.3 C 3.75 g/m*3 -0.3 C 0 km/h
1647 28-11-2010 17:28:02 -0.6 C 3.67 g/m*3 -0.6 C 0 km/h
1648 28-11-2010 17:40:02 -0.9 C 3.6 g/m*3 -0.9 C 0 km/h
1649 28-11-2010 17:52:02 -1.1 C 3.59 g/m*3 -1.1 C 0 km/h
1650 28-11-2010 18:04:02 -1.8 C 3.42 g/m*3 -1.8 C 0 km/h
Sensor: Nr:Datum:Temp:Abs-Feuchte:Windchill:Wind:
Aussen-T/F 1651 28-11-2010 18:16:02 -1.4 C 3.65 g/m*3 -1.4 C 0 km/h
1652 28-11-2010 18:28:02 -1 C 3.8 g/m*3 -1 C 0 km/h
1653 28-11-2010 18:40:02 -0.7 C 3.88 g/m*3 -0.7 C 0 km/h
1654 28-11-2010 18:52:02 -0.6 C 3.81 g/m*3 -0.6 C 0 km/h
1655 28-11-2010 19:04:02 -0.6 C 3.76 g/m*3 -0.6 C 0 km/h
1656 28-11-2010 19:16:01 -0.6 C 3.76 g/m*3 -0.6 C 0 km/h
1657 28-11-2010 19:28:01 -0.8 C 3.67 g/m*3 -0.8 C 0 km/h
1658 28-11-2010 19:40:02 -0.8 C 3.67 g/m*3 -0.8 C 0 km/h
1659 28-11-2010 19:52:02 -0.7 C 3.65 g/m*3 -0.7 C 0 km/h
1660 28-11-2010 20:04:02 -1.1 C 3.55 g/m*3 -1.1 C 0 km/h
1661 28-11-2010 20:16:02 -0.9 C 3.6 g/m*3 -0.9 C 0 km/h
1662 28-11-2010 20:28:02 -0.7 C 3.6 g/m*3 -0.7 C 0 km/h
1663 28-11-2010 20:40:02 -0.6 C 3.53 g/m*3 -0.6 C 0 km/h
1664 28-11-2010 20:52:02 -0.7 C 3.46 g/m*3 -0.7 C 0 km/h
1665 28-11-2010 21:04:02 -0.7 C 3.46 g/m*3 -0.7 C 0 km/h
1666 28-11-2010 21:16:02 -0.9 C 3.46 g/m*3 -0.9 C 0 km/h
1667 28-11-2010 21:28:02 -0.9 C 3.46 g/m*3 -0.9 C 0 km/h
1668 28-11-2010 21:40:02 -0.9 C 3.46 g/m*3 -0.9 C 0 km/h
1669 28-11-2010 21:52:02 -0.9 C 3.46 g/m*3 -0.9 C 0 km/h
1670 28-11-2010 22:04:02 -1 C 3.44 g/m*3 -1 C 0 km/h
1671 28-11-2010 22:16:02 -1 C 3.44 g/m*3 -1 C 0 km/h
1672 28-11-2010 22:28:02 -1.4 C 3.39 g/m*3 -1.4 C 0 km/h
1673 28-11-2010 22:40:03 -2.2 C 3.24 g/m*3 -2.2 C 0 km/h
1674 28-11-2010 22:52:02 -2.4 C 3.28 g/m*3 -2.4 C 0 km/h
1675 28-11-2010 23:04:01 -2.7 C 3.25 g/m*3 -2.7 C 0 km/h
Sensor: Nr:Datum:Temp:Abs-Feuchte:Windchill:Wind:
Aussen-T/F 1676 28-11-2010 23:16:02 -2.6 C 3.35 g/m*3 -2.6 C 0 km/h
1677 28-11-2010 23:28:02 -2 C 3.54 g/m*3 -2 C 0 km/h
1678 28-11-2010 23:40:02 -1.5 C 3.54 g/m*3 -1.5 C 0 km/h
1679 28-11-2010 23:52:02 -1.4 C 3.43 g/m*3 -1.4 C 0 km/h
1680 29-11-2010 00:04:02 -1.4 C 3.34 g/m*3 -1.4 C 0 km/h
1681 29-11-2010 00:16:02 -1.4 C 3.34 g/m*3 -1.4 C 0 km/h
1682 29-11-2010 00:28:02 -1.4 C 3.43 g/m*3 -1.4 C 0 km/h
1683 29-11-2010 00:40:02 -1.5 C 3.41 g/m*3 -1.5 C 0 km/h
1684 29-11-2010 00:52:01 -1.7 C 3.31 g/m*3 -1.7 C 0 km/h
1685 29-11-2010 01:04:02 -1.8 C 3.29 g/m*3 -1.8 C 0 km/h
1686 29-11-2010 01:16:01 -1.9 C 3.27 g/m*3 -1.9 C 0 km/h
1687 29-11-2010 01:28:01 -1.8 C 3.33 g/m*3 -1.8 C 0 km/h
1688 29-11-2010 01:40:02 -1.7 C 3.36 g/m*3 -1.7 C 0 km/h
1689 29-11-2010 01:52:01 -1.8 C 3.29 g/m*3 -1.8 C 0 km/h
1690 29-11-2010 02:04:02 -1.8 C 3.29 g/m*3 -1.8 C 0 km/h
1691 29-11-2010 02:16:02 -1.9 C 3.27 g/m*3 -1.9 C 0 km/h
1692 29-11-2010 02:28:02 -1.9 C 3.27 g/m*3 -1.9 C 0 km/h
1693 29-11-2010 02:40:02 -1.9 C 3.27 g/m*3 -1.9 C 0 km/h
1694 29-11-2010 02:52:01 -1.9 C 3.23 g/m*3 -1.9 C 0 km/h
1695 29-11-2010 03:04:01 -2 C 3.2 g/m*3 -2 C 0 km/h
1696 29-11-2010 03:16:01 -1.9 C 3.23 g/m*3 -1.9 C 0 km/h
1697 29-11-2010 03:28:01 -2 C 3.2 g/m*3 -2 C 0 km/h
1698 29-11-2010 03:40:01 -2 C 3.2 g/m*3 -2 C 0 km/h
1699 29-11-2010 03:52:01 -2.1 C 3.22 g/m*3 -2.1 C 0 km/h
1700 29-11-2010 04:04:01 -2.1 C 3.18 g/m*3 -2.1 C 0 km/h
Sensor: Nr:Datum:Temp:Abs-Feuchte:Windchill:Wind:
Aussen-T/F 1701 29-11-2010 04:16:02 -2 C 3.25 g/m*3 -2 C 0 km/h
1702 29-11-2010 04:28:02 -2 C 3.2 g/m*3 -2 C 0 km/h
1703 29-11-2010 04:40:01 -2 C 3.2 g/m*3 -2 C 0 km/h
1704 29-11-2010 04:52:01 -1.9 C 3.27 g/m*3 -1.9 C 0 km/h
1705 29-11-2010 05:04:01 -1.9 C 3.27 g/m*3 -1.9 C 0 km/h
1706 29-11-2010 05:16:02 -1.8 C 3.29 g/m*3 -1.8 C 0 km/h
1707 29-11-2010 05:28:02 -1.8 C 3.29 g/m*3 -1.8 C 0 km/h
1708 29-11-2010 05:40:01 -1.8 C 3.25 g/m*3 -1.8 C 0 km/h
1709 29-11-2010 05:52:02 -1.8 C 3.25 g/m*3 -1.8 C 0 km/h
1710 29-11-2010 06:04:01 -1.7 C 3.27 g/m*3 -1.7 C 0 km/h
1711 29-11-2010 06:16:01 -1.7 C 3.31 g/m*3 -1.7 C 0 km/h
1712 29-11-2010 06:28:01 -1.7 C 3.31 g/m*3 -1.7 C 0 km/h
1713 29-11-2010 06:40:01 -1.7 C 3.31 g/m*3 -1.7 C 0 km/h
1714 29-11-2010 06:52:01 -1.6 C 3.34 g/m*3 -1.6 C 0 km/h
1715 29-11-2010 07:04:01 -1.6 C 3.34 g/m*3 -1.6 C 0 km/h
1716 29-11-2010 07:16:01 -1.7 C 3.27 g/m*3 -1.7 C 0 km/h
1717 29-11-2010 07:28:01 -1.7 C 3.27 g/m*3 -1.7 C 0 km/h
1718 29-11-2010 07:40:02 -1.7 C 3.27 g/m*3 -1.7 C 0 km/h
1719 29-11-2010 07:52:01 -1.6 C 3.29 g/m*3 -1.6 C 0 km/h
1720 29-11-2010 08:04:02 -1.7 C 3.27 g/m*3 -1.7 C 0 km/h
1721 29-11-2010 08:16:01 -1.6 C 3.34 g/m*3 -1.6 C 0 km/h
1722 29-11-2010 08:28:01 -1.7 C 3.31 g/m*3 -1.7 C 0 km/h
1723 29-11-2010 08:40:01 -1.6 C 3.34 g/m*3 -1.6 C 0 km/h
1724 29-11-2010 08:52:01 -1.4 C 3.39 g/m*3 -1.4 C 0 km/h
1725 29-11-2010 09:04:01 -1.4 C 3.34 g/m*3 -1.4 C 0 km/h
Sensor: Nr:Datum:Temp:Abs-Feuchte:Windchill:Wind:
Aussen-T/F 1726 29-11-2010 09:16:01 -1.4 C 3.3 g/m*3 -1.4 C 0 km/h
1727 29-11-2010 09:28:01 -1.4 C 3.3 g/m*3 -1.4 C 0 km/h
1728 29-11-2010 09:40:01 -1.4 C 3.25 g/m*3 -1.4 C 0 km/h
1729 29-11-2010 09:52:01 -1.3 C 3.32 g/m*3 -1.3 C 0 km/h
1730 29-11-2010 10:04:01 -1.2 C 3.39 g/m*3 -1.2 C 0 km/h
1731 29-11-2010 10:16:02 -1.3 C 3.36 g/m*3 -1.3 C 0 km/h
1732 29-11-2010 10:28:02 -1.3 C 3.36 g/m*3 -1.3 C 0 km/h
1733 29-11-2010 10:40:01 -1.4 C 3.34 g/m*3 -1.4 C 0 km/h
1734 29-11-2010 10:52:02 -1.3 C 3.41 g/m*3 -1.3 C 0 km/h
1735 29-11-2010 11:04:01 -1.2 C 3.43 g/m*3 -1.2 C 0 km/h
1736 29-11-2010 11:16:02 -1.2 C 3.43 g/m*3 -1.2 C 0 km/h
1737 29-11-2010 11:28:02 -1.2 C 3.43 g/m*3 -1.2 C 0 km/h
1738 29-11-2010 11:40:01 -1.2 C 3.48 g/m*3 -1.2 C 0 km/h
1739 29-11-2010 11:52:02 -1.3 C 3.45 g/m*3 -1.3 C 0 km/h
1740 29-11-2010 12:04:01 -1.3 C 3.45 g/m*3 -1.3 C 0 km/h
1741 29-11-2010 12:16:02 -1.3 C 3.5 g/m*3 -1.3 C 0 km/h
1742 29-11-2010 12:28:02 -1.2 C 3.52 g/m*3 -1.2 C 0 km/h
1743 29-11-2010 12:40:01 -1.1 C 3.55 g/m*3 -1.1 C 0 km/h
1744 29-11-2010 12:52:02 -0.8 C 3.58 g/m*3 -0.8 C 0 km/h
1745 29-11-2010 13:04:01 -0.7 C 3.55 g/m*3 -0.7 C 0 km/h
1746 29-11-2010 13:16:01 -0.6 C 3.58 g/m*3 -0.6 C 0 km/h
1747 29-11-2010 13:28:01 -0.8 C 3.58 g/m*3 -0.8 C 0 km/h
1748 29-11-2010 13:40:02 -1.1 C 3.55 g/m*3 -1.1 C 0 km/h
1749 29-11-2010 13:52:01 -1 C 3.62 g/m*3 -1 C 0 km/h
1750 29-11-2010 14:04:02 -1 C 3.62 g/m*3 -1 C 0 km/h
Sensor: Nr:Datum:Temp:Abs-Feuchte:Windchill:Wind:
Aussen-T/F 1751 29-11-2010 14:16:01 -1 C 3.66 g/m*3 -1 C 0 km/h
1752 29-11-2010 14:28:01 -1 C 3.66 g/m*3 -1 C 0 km/h
1753 29-11-2010 14:40:02 -1 C 3.71 g/m*3 -1 C 0 km/h
1754 29-11-2010 14:52:01 -1.1 C 3.73 g/m*3 -1.1 C 0 km/h
1755 29-11-2010 15:04:02 -1.1 C 3.73 g/m*3 -1.1 C 0 km/h
1756 29-11-2010 15:16:01 -1.2 C 3.74 g/m*3 -1.2 C 0 km/h
1757 29-11-2010 15:28:01 -1.4 C 3.69 g/m*3 -1.4 C 0 km/h
1758 29-11-2010 15:40:01 -1.4 C 3.69 g/m*3 -1.4 C 0 km/h
1759 29-11-2010 15:52:01 -1.4 C 3.74 g/m*3 -1.4 C 0 km/h
1760 29-11-2010 16:04:01 -1.4 C 3.74 g/m*3 -1.4 C 0 km/h
1761 29-11-2010 16:16:02 -1.4 C 3.74 g/m*3 -1.4 C 0 km/h
1762 29-11-2010 16:28:02 -1.5 C 3.71 g/m*3 -1.5 C 0 km/h
1763 29-11-2010 16:40:01 -1.5 C 3.71 g/m*3 -1.5 C 0 km/h
1764 29-11-2010 16:52:01 -1.5 C 3.75 g/m*3 -1.5 C 0 km/h
1765 29-11-2010 17:04:01 -1.7 C 3.7 g/m*3 -1.7 C 0 km/h
1766 29-11-2010 17:16:02 -1.7 C 3.7 g/m*3 -1.7 C 0 km/h
1767 29-11-2010 17:28:02 -1.7 C 3.7 g/m*3 -1.7 C 0 km/h
1768 29-11-2010 17:40:01 -1.7 C 3.7 g/m*3 -1.7 C 0 km/h
1769 29-11-2010 17:52:02 -1.6 C 3.73 g/m*3 -1.6 C 0 km/h
1770 29-11-2010 18:04:01 -1.6 C 3.77 g/m*3 -1.6 C 0 km/h
1771 29-11-2010 18:16:01 -1.7 C 3.75 g/m*3 -1.7 C 0 km/h
1772 29-11-2010 18:28:01 -1.7 C 3.75 g/m*3 -1.7 C 0 km/h
1773 29-11-2010 18:40:01 -1.7 C 3.75 g/m*3 -1.7 C 0 km/h
1774 29-11-2010 18:52:01 -1.7 C 3.75 g/m*3 -1.7 C 0 km/h
1775 29-11-2010 19:04:01 -1.7 C 3.75 g/m*3 -1.7 C 0 km/h
Sensor: Nr:Datum:Temp:Abs-Feuchte:Windchill:Wind:
Aussen-T/F 1776 29-11-2010 19:16:01 -1.7 C 3.75 g/m*3 -1.7 C 0 km/h
1777 29-11-2010 19:28:01 -1.7 C 3.75 g/m*3 -1.7 C 0 km/h
1778 29-11-2010 19:40:02 -1.7 C 3.75 g/m*3 -1.7 C 0 km/h
1779 29-11-2010 19:52:01 -1.7 C 3.75 g/m*3 -1.7 C 0 km/h
1780 29-11-2010 20:04:02 -1.7 C 3.75 g/m*3 -1.7 C 0 km/h
1781 29-11-2010 20:16:01 -1.7 C 3.79 g/m*3 -1.7 C 0 km/h
1782 29-11-2010 20:28:01 -1.6 C 3.81 g/m*3 -1.6 C 0 km/h
1783 29-11-2010 20:40:01 -1.6 C 3.81 g/m*3 -1.6 C 0 km/h
1784 29-11-2010 20:52:01 -1.6 C 3.81 g/m*3 -1.6 C 0 km/h
1785 29-11-2010 21:04:01 -1.6 C 3.81 g/m*3 -1.6 C 0 km/h
1786 29-11-2010 21:16:01 -1.6 C 3.81 g/m*3 -1.6 C 0 km/h
1787 29-11-2010 21:28:01 -1.7 C 3.79 g/m*3 -1.7 C 0 km/h
1788 29-11-2010 21:40:01 -1.7 C 3.79 g/m*3 -1.7 C 0 km/h
1789 29-11-2010 21:52:01 -1.7 C 3.79 g/m*3 -1.7 C 0 km/h
1790 29-11-2010 22:04:01 -1.7 C 3.79 g/m*3 -1.7 C 0 km/h
1791 29-11-2010 22:16:01 -1.7 C 3.79 g/m*3 -1.7 C 0 km/h
1792 29-11-2010 22:28:01 -1.9 C 3.74 g/m*3 -1.9 C 0 km/h
1793 29-11-2010 22:40:02 -1.8 C 3.76 g/m*3 -1.8 C 0 km/h
1794 29-11-2010 22:52:01 -1.8 C 3.76 g/m*3 -1.8 C 0 km/h
1795 29-11-2010 23:04:02 -1.8 C 3.76 g/m*3 -1.8 C 0 km/h
1796 29-11-2010 23:16:01 -1.7 C 3.83 g/m*3 -1.7 C 0 km/h
1797 29-11-2010 23:28:01 -1.7 C 3.83 g/m*3 -1.7 C 0 km/h
1798 29-11-2010 23:40:02 -1.6 C 3.86 g/m*3 -1.6 C 0 km/h
1799 29-11-2010 23:52:01 -1.6 C 3.86 g/m*3 -1.6 C 0 km/h
1800 30-11-2010 00:04:02 -1.6 C 3.86 g/m*3 -1.6 C 0 km/h
Sensor: Nr:Datum:Temp:Abs-Feuchte:Windchill:Wind:
Aussen-T/F 1801 30-11-2010 00:16:01 -1.7 C 3.83 g/m*3 -1.7 C 0 km/h
1802 30-11-2010 00:28:01 -1.8 C 3.8 g/m*3 -1.8 C 0 km/h
1803 30-11-2010 00:40:01 -1.9 C 3.78 g/m*3 -1.9 C 0 km/h
1804 30-11-2010 00:52:01 -1.9 C 3.78 g/m*3 -1.9 C 0 km/h
1805 30-11-2010 01:04:01 -2 C 3.75 g/m*3 -2 C 0 km/h
1806 30-11-2010 01:16:01 -2 C 3.75 g/m*3 -2 C 0 km/h
1807 30-11-2010 01:28:01 -2 C 3.75 g/m*3 -2 C 0 km/h
1808 30-11-2010 01:40:01 -1.9 C 3.78 g/m*3 -1.9 C 0 km/h
1809 30-11-2010 01:52:01 -1.9 C 3.78 g/m*3 -1.9 C 0 km/h
1810 30-11-2010 02:04:01 -1.8 C 3.8 g/m*3 -1.8 C 0 km/h
1811 30-11-2010 02:16:02 -1.7 C 3.83 g/m*3 -1.7 C 0 km/h
1812 30-11-2010 02:28:02 -1.7 C 3.83 g/m*3 -1.7 C 0 km/h
1813 30-11-2010 02:40:01 -1.6 C 3.86 g/m*3 -1.6 C 0 km/h
1814 30-11-2010 02:53:05 -1.6 C 3.86 g/m*3 -1.6 C 0 km/h
1815 30-11-2010 03:05:05 -1.6 C 3.86 g/m*3 -1.6 C 0 km/h
1816 30-11-2010 03:17:05 -1.6 C 3.86 g/m*3 -1.6 C 0 km/h
1817 30-11-2010 03:29:05 -1.6 C 3.86 g/m*3 -1.6 C 0 km/h
1818 30-11-2010 03:41:01 -1.8 C 3.8 g/m*3 -1.8 C 0 km/h
1819 30-11-2010 03:53:01 -1.9 C 3.74 g/m*3 -1.9 C 0 km/h
1820 30-11-2010 04:05:02 -2.1 C 3.68 g/m*3 -2.1 C 0 km/h
1821 30-11-2010 04:17:02 -2.3 C 3.63 g/m*3 -2.3 C 0 km/h
1822 30-11-2010 04:29:02 -2.4 C 3.61 g/m*3 -2.4 C 0 km/h
1823 30-11-2010 04:41:02 -2.5 C 3.58 g/m*3 -2.5 C 0 km/h
1824 30-11-2010 04:53:02 -2.5 C 3.58 g/m*3 -2.5 C 0 km/h
1825 30-11-2010 05:05:01 -2.5 C 3.58 g/m*3 -2.5 C 0 km/h
Sensor: Nr:Datum:Temp:Abs-Feuchte:Windchill:Wind:
Aussen-T/F 1826 30-11-2010 05:17:02 -2.5 C 3.58 g/m*3 -2.5 C 0 km/h
1827 30-11-2010 05:29:03 -2.5 C 3.58 g/m*3 -2.5 C 0 km/h
1828 30-11-2010 05:41:01 -2.3 C 3.67 g/m*3 -2.3 C 0 km/h
1829 30-11-2010 05:53:02 -2.2 C 3.7 g/m*3 -2.2 C 0 km/h
1830 30-11-2010 06:05:02 -2.2 C 3.7 g/m*3 -2.2 C 0 km/h
1831 30-11-2010 06:17:02 -2.2 C 3.7 g/m*3 -2.2 C 0 km/h
1832 30-11-2010 06:29:02 -2.3 C 3.63 g/m*3 -2.3 C 0 km/h
1833 30-11-2010 06:41:03 -2.3 C 3.63 g/m*3 -2.3 C 0 km/h
1834 30-11-2010 06:53:02 -2.3 C 3.63 g/m*3 -2.3 C 0 km/h
1835 30-11-2010 07:05:02 -2.3 C 3.63 g/m*3 -2.3 C 0 km/h
1836 30-11-2010 07:17:01 -2.3 C 3.67 g/m*3 -2.3 C 0 km/h
1837 30-11-2010 07:29:01 -2.3 C 3.67 g/m*3 -2.3 C 0 km/h
1838 30-11-2010 07:41:02 -2.3 C 3.67 g/m*3 -2.3 C 0 km/h
1839 30-11-2010 07:53:02 -2.2 C 3.66 g/m*3 -2.2 C 0 km/h
1840 30-11-2010 08:05:02 -2.1 C 3.68 g/m*3 -2.1 C 0 km/h
1841 30-11-2010 08:17:01 -2.1 C 3.68 g/m*3 -2.1 C 0 km/h
1842 30-11-2010 08:29:01 -2.1 C 3.68 g/m*3 -2.1 C 0 km/h
1843 30-11-2010 08:41:02 -2.1 C 3.68 g/m*3 -2.1 C 0 km/h
1844 30-11-2010 08:53:02 -2 C 3.58 g/m*3 -2 C 0 km/h
1845 30-11-2010 09:05:02 -2 C 3.58 g/m*3 -2 C 0 km/h
1846 30-11-2010 09:17:02 -2 C 3.58 g/m*3 -2 C 0 km/h
1847 30-11-2010 09:29:02 -2 C 3.58 g/m*3 -2 C 0 km/h
1848 30-11-2010 09:41:02 -2 C 3.58 g/m*3 -2 C 0 km/h
1849 30-11-2010 09:53:01 -2 C 3.58 g/m*3 -2 C 0 km/h
1850 30-11-2010 10:05:02 -2 C 3.58 g/m*3 -2 C 0 km/h
Sensor: Nr:Datum:Temp:Abs-Feuchte:Windchill:Wind:
Aussen-T/F 1851 30-11-2010 10:17:02 -2 C 3.58 g/m*3 -2 C 0 km/h
1852 30-11-2010 10:29:02 -1.7 C 3.49 g/m*3 -1.7 C 0 km/h
1853 30-11-2010 10:41:01 -1.8 C 3.42 g/m*3 -1.8 C 0 km/h
1854 30-11-2010 10:53:02 -1.6 C 3.47 g/m*3 -1.6 C 0 km/h
1855 30-11-2010 11:05:01 -1.6 C 3.47 g/m*3 -1.6 C 0 km/h
1856 30-11-2010 11:17:02 -1.6 C 3.47 g/m*3 -1.6 C 0 km/h
1857 30-11-2010 11:29:02 -1.6 C 3.47 g/m*3 -1.6 C 0 km/h
1858 30-11-2010 11:41:01 -1.3 C 3.41 g/m*3 -1.3 C 0 km/h
1859 30-11-2010 11:53:02 -1.4 C 3.39 g/m*3 -1.4 C 0 km/h
1860 30-11-2010 12:05:02 -1.3 C 3.32 g/m*3 -1.3 C 0 km/h
1861 30-11-2010 12:17:02 -1.2 C 3.34 g/m*3 -1.2 C 0 km/h
1862 30-11-2010 12:29:02 -1.3 C 3.23 g/m*3 -1.3 C 0 km/h
1863 30-11-2010 12:41:02 -1.3 C 3.28 g/m*3 -1.3 C 0 km/h
1864 30-11-2010 12:53:01 -1.4 C 3.21 g/m*3 -1.4 C 0 km/h
1865 30-11-2010 13:05:02 -1.2 C 3.25 g/m*3 -1.2 C 0 km/h
1866 30-11-2010 13:17:01 -1.1 C 3.28 g/m*3 -1.1 C 0 km/h
1867 30-11-2010 13:29:01 -1 C 3.25 g/m*3 -1 C 0 km/h
1868 30-11-2010 13:41:02 -1 C 3.25 g/m*3 -1 C 0 km/h
1869 30-11-2010 13:53:01 -1.1 C 3.19 g/m*3 -1.1 C 0 km/h
1870 30-11-2010 14:05:01 -1.2 C 3.17 g/m*3 -1.2 C 0 km/h
1871 30-11-2010 14:17:01 -1.3 C 3.19 g/m*3 -1.3 C 0 km/h
1872 30-11-2010 14:29:01 -1.4 C 3.21 g/m*3 -1.4 C 0 km/h
1873 30-11-2010 14:41:02 -1.3 C 3.23 g/m*3 -1.3 C 0 km/h
1874 30-11-2010 14:53:02 -1.4 C 3.21 g/m*3 -1.4 C 0 km/h
1875 30-11-2010 15:05:02 -1.4 C 3.21 g/m*3 -1.4 C 0 km/h
Sensor: Nr:Datum:Temp:Abs-Feuchte:Windchill:Wind:
Aussen-T/F 1876 30-11-2010 15:17:02 -1.5 C 3.23 g/m*3 -1.5 C 0 km/h
1877 30-11-2010 15:29:02 -1.5 C 3.23 g/m*3 -1.5 C 0 km/h
1878 30-11-2010 15:41:02 -1.5 C 3.23 g/m*3 -1.5 C 0 km/h
1879 30-11-2010 15:53:01 -1.5 C 3.23 g/m*3 -1.5 C 0 km/h
1880 30-11-2010 16:05:02 -1.5 C 3.23 g/m*3 -1.5 C 0 km/h
1881 30-11-2010 16:17:01 -1.5 C 3.23 g/m*3 -1.5 C 0 km/h
1882 30-11-2010 16:29:01 -1.5 C 3.23 g/m*3 -1.5 C 0 km/h
1883 30-11-2010 16:41:01 -1.5 C 3.23 g/m*3 -1.5 C 0 km/h
1884 30-11-2010 16:53:01 -1.5 C 3.23 g/m*3 -1.5 C 0 km/h
1885 30-11-2010 17:05:01 -1.5 C 3.23 g/m*3 -1.5 C 0 km/h
1886 30-11-2010 17:17:01 -2 C 3.25 g/m*3 -2 C 0 km/h
1887 30-11-2010 17:29:01 -1.9 C 3.23 g/m*3 -1.9 C 0 km/h
1888 30-11-2010 17:41:01 -2.1 C 3.18 g/m*3 -2.1 C 0 km/h
1889 30-11-2010 17:53:01 -2.1 C 3.18 g/m*3 -2.1 C 0 km/h
1890 30-11-2010 18:05:01 -2.1 C 3.18 g/m*3 -2.1 C 0 km/h
1891 30-11-2010 18:17:02 -2.1 C 3.18 g/m*3 -2.1 C 0 km/h
1892 30-11-2010 18:29:02 -2.1 C 3.18 g/m*3 -2.1 C 0 km/h
1893 30-11-2010 18:41:01 -2.1 C 3.18 g/m*3 -2.1 C 0 km/h
1894 30-11-2010 18:53:03 -2.1 C 3.18 g/m*3 -2.1 C 0 km/h
1895 30-11-2010 19:05:02 -2.1 C 3.18 g/m*3 -2.1 C 0 km/h
1896 30-11-2010 19:17:02 -2.1 C 3.18 g/m*3 -2.1 C 0 km/h
1897 30-11-2010 19:29:02 -2.1 C 3.18 g/m*3 -2.1 C 0 km/h
1898 30-11-2010 19:41:02 -2.1 C 3.18 g/m*3 -2.1 C 0 km/h
1899 30-11-2010 19:53:02 -2.1 C 3.14 g/m*3 -2.1 C 0 km/h
1900 30-11-2010 20:05:02 -2.1 C 3.14 g/m*3 -2.1 C 0 km/h
Sensor: Nr:Datum:Temp:Abs-Feuchte:Windchill:Wind:
Aussen-T/F 1901 30-11-2010 20:17:02 -2.2 C 3.12 g/m*3 -2.2 C 0 km/h
1902 30-11-2010 20:29:02 -2.3 C 3.1 g/m*3 -2.3 C 0 km/h
1903 30-11-2010 20:41:02 -2.4 C 3.07 g/m*3 -2.4 C 0 km/h
1904 30-11-2010 20:53:02 -2.3 C 3.14 g/m*3 -2.3 C 0 km/h
1905 30-11-2010 21:05:01 -2.4 C 3.07 g/m*3 -2.4 C 0 km/h
1906 30-11-2010 21:17:01 -2.4 C 3.07 g/m*3 -2.4 C 0 km/h
1907 30-11-2010 21:29:01 -2.4 C 3.07 g/m*3 -2.4 C 0 km/h
1908 30-11-2010 21:41:02 -2.4 C 3.03 g/m*3 -2.4 C 0 km/h
1909 30-11-2010 21:53:02 -2.4 C 2.99 g/m*3 -2.4 C 0 km/h
1910 30-11-2010 22:05:02 -2.5 C 2.97 g/m*3 -2.5 C 0 km/h
1911 30-11-2010 22:18:02 -2.6 C 2.95 g/m*3 -2.6 C 0 km/h
1912 30-11-2010 22:30:02 -2.6 C 2.95 g/m*3 -2.6 C 0 km/h
1913 30-11-2010 22:42:02 -2.6 C 2.91 g/m*3 -2.6 C 0 km/h
1914 30-11-2010 22:54:02 -2.6 C 2.91 g/m*3 -2.6 C 0 km/h
1915 30-11-2010 23:06:03 -2.6 C 2.87 g/m*3 -2.6 C 0 km/h
1916 30-11-2010 23:18:03 -2.7 C 2.85 g/m*3 -2.7 C 0 km/h
1917 30-11-2010 23:30:03 -2.8 C 2.83 g/m*3 -2.8 C 0 km/h
1918 30-11-2010 23:42:03 -2.8 C 2.83 g/m*3 -2.8 C 0 km/h
1919 30-11-2010 23:54:03 -2.9 C 2.77 g/m*3 -2.9 C 0 km/h
1920 01-12-2010 00:06:03 -2.9 C 2.81 g/m*3 -2.9 C 0 km/h
1921 01-12-2010 00:18:03 -3 C 2.75 g/m*3 -3 C 0 km/h
1922 01-12-2010 00:30:03 -3 C 2.75 g/m*3 -3 C 0 km/h
1923 01-12-2010 00:42:03 -3 C 2.75 g/m*3 -3 C 0 km/h
1924 01-12-2010 00:54:03 -3.1 C 2.73 g/m*3 -3.1 C 0 km/h
1925 01-12-2010 01:06:03 -3.2 C 2.71 g/m*3 -3.2 C 0 km/h
Sensor: Nr:Datum:Temp:Abs-Feuchte:Windchill:Wind:
Aussen-T/F 1926 01-12-2010 01:18:03 -3.2 C 2.71 g/m*3 -3.2 C 0 km/h
1927 01-12-2010 01:30:03 -3.3 C 2.65 g/m*3 -3.3 C 0 km/h
1928 01-12-2010 01:42:03 -3.3 C 2.65 g/m*3 -3.3 C 0 km/h
1929 01-12-2010 01:54:03 -3.5 C 2.62 g/m*3 -3.5 C 0 km/h
1930 01-12-2010 02:06:03 -3.6 C 2.6 g/m*3 -3.6 C 0 km/h
1931 01-12-2010 02:18:03 -3.8 C 2.52 g/m*3 -3.8 C 0 km/h
1932 01-12-2010 02:30:03 -4 C 2.49 g/m*3 -4 C 0 km/h
1933 01-12-2010 02:42:03 -4 C 2.49 g/m*3 -4 C 0 km/h
1934 01-12-2010 02:54:03 -4 C 2.45 g/m*3 -4 C 0 km/h
1935 01-12-2010 03:06:03 -4.1 C 2.43 g/m*3 -4.1 C 0 km/h
1936 01-12-2010 03:18:03 -4.2 C 2.42 g/m*3 -4.2 C 0 km/h
1937 01-12-2010 03:30:04 -4.3 C 2.36 g/m*3 -4.3 C 0 km/h
1938 01-12-2010 03:42:04 -4.5 C 2.33 g/m*3 -4.5 C 0 km/h
1939 01-12-2010 03:54:04 -4.6 C 2.28 g/m*3 -4.6 C 0 km/h
1940 01-12-2010 04:06:04 -4.8 C 2.28 g/m*3 -4.8 C 0 km/h
1941 01-12-2010 04:18:04 -4.9 C 2.26 g/m*3 -4.9 C 0 km/h
1942 01-12-2010 04:30:04 -5 C 2.21 g/m*3 -5 C 0 km/h
1943 01-12-2010 04:42:04 -5.1 C 2.2 g/m*3 -5.1 C 0 km/h
1944 01-12-2010 04:54:04 -5.2 C 2.22 g/m*3 -5.2 C 0 km/h
1945 01-12-2010 05:06:04 -5.3 C 2.17 g/m*3 -5.3 C 0 km/h
1946 01-12-2010 05:18:04 -5.4 C 2.18 g/m*3 -5.4 C 0 km/h
1947 01-12-2010 05:30:04 -5.4 C 2.18 g/m*3 -5.4 C 0 km/h
1948 01-12-2010 05:42:04 -5.5 C 2.17 g/m*3 -5.5 C 0 km/h
1949 01-12-2010 05:54:04 -5.4 C 2.22 g/m*3 -5.4 C 0 km/h
1950 01-12-2010 06:06:04 -5.4 C 2.18 g/m*3 -5.4 C 0 km/h
Sensor: Nr:Datum:Temp:Abs-Feuchte:Windchill:Wind:
Aussen-T/F 1951 01-12-2010 06:18:04 -5.4 C 2.18 g/m*3 -5.4 C 0 km/h
1952 01-12-2010 06:30:04 -5.6 C 2.12 g/m*3 -5.6 C 0 km/h
1953 01-12-2010 06:42:04 -5.6 C 2.12 g/m*3 -5.6 C 0 km/h
1954 01-12-2010 06:54:04 -5.8 C 2.09 g/m*3 -5.8 C 0 km/h
1955 01-12-2010 07:06:04 -5.8 C 2.09 g/m*3 -5.8 C 0 km/h
1956 01-12-2010 07:18:04 -5.8 C 2.09 g/m*3 -5.8 C 0 km/h
1957 01-12-2010 07:30:04 -5.9 C 2.04 g/m*3 -5.9 C 0 km/h
1958 01-12-2010 07:42:03 -6 C 2.03 g/m*3 -6 C 0 km/h
1959 01-12-2010 07:54:02 -6 C 2.03 g/m*3 -6 C 0 km/h
1960 01-12-2010 08:06:02 -6.1 C 1.98 g/m*3 -6.1 C 0 km/h
1961 01-12-2010 08:18:02 -6.2 C 1.97 g/m*3 -6.2 C 0 km/h
1962 01-12-2010 08:30:02 -6.2 C 1.97 g/m*3 -6.2 C 0 km/h
1963 01-12-2010 08:42:02 -6.4 C 1.91 g/m*3 -6.4 C 0 km/h
1964 01-12-2010 08:54:01 -6.4 C 1.91 g/m*3 -6.4 C 0 km/h
1965 01-12-2010 09:06:02 -6.2 C 1.94 g/m*3 -6.2 C 0 km/h
1966 01-12-2010 09:18:01 -6.1 C 1.92 g/m*3 -6.1 C 0 km/h
1967 01-12-2010 09:30:01 -6 C 1.9 g/m*3 -6 C 0 km/h
1968 01-12-2010 09:42:02 -5.8 C 1.93 g/m*3 -5.8 C 0 km/h
1969 01-12-2010 09:54:02 -5.7 C 1.94 g/m*3 -5.7 C 0 km/h
1970 01-12-2010 10:06:02 -5.6 C 1.96 g/m*3 -5.6 C 0 km/h
1971 01-12-2010 10:18:01 -5.5 C 1.97 g/m*3 -5.5 C 0 km/h
1972 01-12-2010 10:30:01 -5.4 C 1.95 g/m*3 -5.4 C 0 km/h
1973 01-12-2010 10:42:02 -5.6 C 1.92 g/m*3 -5.6 C 0 km/h
1974 01-12-2010 10:54:01 -5.6 C 1.96 g/m*3 -5.6 C 0 km/h
1975 01-12-2010 11:06:02 -5.5 C 1.97 g/m*3 -5.5 C 0 km/h
Sensor: Nr:Datum:Temp:Abs-Feuchte:Windchill:Wind:
Aussen-T/F 1976 01-12-2010 11:18:02 -5.4 C 1.98 g/m*3 -5.4 C 0 km/h
1977 01-12-2010 11:30:02 -5.4 C 1.98 g/m*3 -5.4 C 0 km/h
1978 01-12-2010 11:42:02 -5.6 C 1.96 g/m*3 -5.6 C 0 km/h
1979 01-12-2010 11:54:02 -5.5 C 1.97 g/m*3 -5.5 C 0 km/h
1980 01-12-2010 12:06:01 -5.6 C 1.96 g/m*3 -5.6 C 0 km/h
1981 01-12-2010 12:18:02 -5.7 C 1.94 g/m*3 -5.7 C 0 km/h
1982 01-12-2010 12:30:03 -5.8 C 1.93 g/m*3 -5.8 C 0 km/h
1983 01-12-2010 12:42:01 -6 C 1.9 g/m*3 -6 C 0 km/h
1984 01-12-2010 12:54:02 -6 C 1.9 g/m*3 -6 C 0 km/h
1985 01-12-2010 13:06:01 -6 C 1.87 g/m*3 -6 C 0 km/h
1986 01-12-2010 13:18:01 -6.1 C 1.89 g/m*3 -6.1 C 0 km/h
1987 01-12-2010 13:30:01 -6.1 C 1.86 g/m*3 -6.1 C 0 km/h
1988 01-12-2010 13:42:02 -6.1 C 1.82 g/m*3 -6.1 C 0 km/h
1989 01-12-2010 13:54:02 -6.2 C 1.81 g/m*3 -6.2 C 0 km/h
1990 01-12-2010 14:06:02 -6.2 C 1.81 g/m*3 -6.2 C 0 km/h
1991 01-12-2010 14:18:02 -6.2 C 1.78 g/m*3 -6.2 C 0 km/h
1992 01-12-2010 14:30:02 -6.2 C 1.78 g/m*3 -6.2 C 0 km/h
1993 01-12-2010 14:42:02 -6.1 C 1.79 g/m*3 -6.1 C 0 km/h
1994 01-12-2010 14:54:02 -6.2 C 1.78 g/m*3 -6.2 C 0 km/h
1995 01-12-2010 15:06:02 -6.2 C 1.78 g/m*3 -6.2 C 0 km/h
1996 01-12-2010 15:18:02 -6.2 C 1.78 g/m*3 -6.2 C 0 km/h
1997 01-12-2010 15:30:02 -6.3 C 1.77 g/m*3 -6.3 C 0 km/h
1998 01-12-2010 15:42:02 -6.3 C 1.8 g/m*3 -6.3 C 0 km/h
1999 01-12-2010 15:54:01 -6.4 C 1.78 g/m*3 -6.4 C 0 km/h
2000 01-12-2010 16:06:01 -6.5 C 1.74 g/m*3 -6.5 C 0 km/h
Sensor: Nr:Datum:Temp:Abs-Feuchte:Windchill:Wind:
Aussen-T/F 2001 01-12-2010 16:18:02 -6.6 C 1.73 g/m*3 -6.6 C 0 km/h
2002 01-12-2010 16:30:02 -6.6 C 1.76 g/m*3 -6.6 C 0 km/h
2003 01-12-2010 16:42:01 -6.6 C 1.76 g/m*3 -6.6 C 0 km/h
2004 01-12-2010 16:54:01 -6.6 C 1.76 g/m*3 -6.6 C 0 km/h
2005 01-12-2010 17:06:01 -6.6 C 1.79 g/m*3 -6.6 C 0 km/h
2006 01-12-2010 17:18:02 -6.6 C 1.79 g/m*3 -6.6 C 0 km/h
2007 01-12-2010 17:30:02 -6.6 C 1.79 g/m*3 -6.6 C 0 km/h
2008 01-12-2010 17:42:01 -6.6 C 1.79 g/m*3 -6.6 C 0 km/h
2009 01-12-2010 17:54:03 -6.5 C 1.83 g/m*3 -6.5 C 0 km/h
2010 01-12-2010 18:06:02 -6.5 C 1.83 g/m*3 -6.5 C 0 km/h
2011 01-12-2010 18:18:02 -6.5 C 1.83 g/m*3 -6.5 C 0 km/h
2012 01-12-2010 18:30:02 -6.6 C 1.79 g/m*3 -6.6 C 0 km/h
2013 01-12-2010 18:42:02 -6.5 C 1.83 g/m*3 -6.5 C 0 km/h
2014 01-12-2010 18:54:02 -6.6 C 1.82 g/m*3 -6.6 C 0 km/h
2015 01-12-2010 19:06:01 -6.6 C 1.82 g/m*3 -6.6 C 0 km/h
2016 01-12-2010 19:18:02 -6.5 C 1.8 g/m*3 -6.5 C 0 km/h
2017 01-12-2010 19:30:02 -6.6 C 1.82 g/m*3 -6.6 C 0 km/h
2018 01-12-2010 19:42:02 -6.6 C 1.82 g/m*3 -6.6 C 0 km/h
2019 01-12-2010 19:54:02 -6.6 C 1.79 g/m*3 -6.6 C 0 km/h
2020 01-12-2010 20:06:03 -6.6 C 1.79 g/m*3 -6.6 C 0 km/h
2021 01-12-2010 20:18:02 -6.6 C 1.76 g/m*3 -6.6 C 0 km/h
2022 01-12-2010 20:30:02 -6.7 C 1.75 g/m*3 -6.7 C 0 km/h
2023 01-12-2010 20:42:02 -6.7 C 1.75 g/m*3 -6.7 C 0 km/h
2024 01-12-2010 20:54:01 -6.6 C 1.82 g/m*3 -6.6 C 0 km/h
2025 01-12-2010 21:06:02 -6.6 C 1.82 g/m*3 -6.6 C 0 km/h
Sensor: Nr:Datum:Temp:Abs-Feuchte:Windchill:Wind:
Aussen-T/F 2026 01-12-2010 21:18:01 -6.8 C 1.73 g/m*3 -6.8 C 0 km/h
2027 01-12-2010 21:30:01 -6.8 C 1.7 g/m*3 -6.8 C 0 km/h
2028 01-12-2010 21:42:01 -6.7 C 1.75 g/m*3 -6.7 C 0 km/h
2029 01-12-2010 21:54:01 -6.8 C 1.7 g/m*3 -6.8 C 0 km/h
2030 01-12-2010 22:06:01 -6.8 C 1.67 g/m*3 -6.8 C 0 km/h
2031 01-12-2010 22:18:02 -6.8 C 1.7 g/m*3 -6.8 C 0 km/h
2032 01-12-2010 22:30:02 -6.9 C 1.72 g/m*3 -6.9 C 0 km/h
2033 01-12-2010 22:42:01 -6.9 C 1.75 g/m*3 -6.9 C 0 km/h
2034 01-12-2010 22:54:02 -6.9 C 1.78 g/m*3 -6.9 C 0 km/h
2035 01-12-2010 23:06:02 -7 C 1.74 g/m*3 -7 C 0 km/h
2036 01-12-2010 23:18:02 -7 C 1.77 g/m*3 -7 C 0 km/h
2037 01-12-2010 23:30:02 -7 C 1.8 g/m*3 -7 C 0 km/h
2038 01-12-2010 23:42:03 -7.1 C 1.78 g/m*3 -7.1 C 0 km/h
2039 01-12-2010 23:54:02 -7.2 C 1.77 g/m*3 -7.2 C 0 km/h
2040 02-12-2010 00:06:02 -7.1 C 1.81 g/m*3 -7.1 C 0 km/h
2041 02-12-2010 00:18:01 -7.1 C 1.81 g/m*3 -7.1 C 0 km/h
2042 02-12-2010 00:30:01 -7.1 C 1.84 g/m*3 -7.1 C 0 km/h
2043 02-12-2010 00:42:02 -7.2 C 1.8 g/m*3 -7.2 C 0 km/h
2044 02-12-2010 00:54:02 -7.2 C 1.8 g/m*3 -7.2 C 0 km/h
2045 02-12-2010 01:06:02 -7.2 C 1.8 g/m*3 -7.2 C 0 km/h
2046 02-12-2010 01:18:02 -7.1 C 1.81 g/m*3 -7.1 C 0 km/h
2047 02-12-2010 01:30:02 -7.1 C 1.78 g/m*3 -7.1 C 0 km/h
2048 02-12-2010 01:42:02 -7.1 C 1.78 g/m*3 -7.1 C 0 km/h
2049 02-12-2010 01:54:02 -7.1 C 1.75 g/m*3 -7.1 C 0 km/h
2050 02-12-2010 02:06:02 -7.2 C 1.74 g/m*3 -7.2 C 0 km/h
Sensor: Nr:Datum:Temp:Abs-Feuchte:Windchill:Wind:
Aussen-T/F 2051 02-12-2010 02:18:03 -7.3 C 1.67 g/m*3 -7.3 C 0 km/h
2052 02-12-2010 02:30:03 -7.3 C 1.7 g/m*3 -7.3 C 0 km/h
2053 02-12-2010 02:42:02 -7.3 C 1.7 g/m*3 -7.3 C 0 km/h
2054 02-12-2010 02:55:04 -7.3 C 1.73 g/m*3 -7.3 C 0 km/h
2055 02-12-2010 03:07:04 -7.3 C 1.73 g/m*3 -7.3 C 0 km/h
2056 02-12-2010 03:19:04 -7.2 C 1.77 g/m*3 -7.2 C 0 km/h
2057 02-12-2010 03:31:01 -7.3 C 1.76 g/m*3 -7.3 C 0 km/h
2058 02-12-2010 03:43:01 -7.4 C 1.72 g/m*3 -7.4 C 0 km/h
2059 02-12-2010 03:55:01 -7.4 C 1.72 g/m*3 -7.4 C 0 km/h
2060 02-12-2010 04:07:01 -7.5 C 1.73 g/m*3 -7.5 C 0 km/h
2061 02-12-2010 04:19:01 -7.5 C 1.76 g/m*3 -7.5 C 0 km/h
2062 02-12-2010 04:31:01 -7.5 C 1.79 g/m*3 -7.5 C 0 km/h
2063 02-12-2010 04:43:01 -7.5 C 1.82 g/m*3 -7.5 C 0 km/h
2064 02-12-2010 04:55:01 -7.5 C 1.79 g/m*3 -7.5 C 0 km/h
2065 02-12-2010 05:07:01 -7.6 C 1.77 g/m*3 -7.6 C 0 km/h
2066 02-12-2010 05:19:02 -7.6 C 1.77 g/m*3 -7.6 C 0 km/h
2067 02-12-2010 05:31:01 -7.6 C 1.77 g/m*3 -7.6 C 0 km/h
2068 02-12-2010 05:43:01 -7.6 C 1.83 g/m*3 -7.6 C 0 km/h
2069 02-12-2010 05:55:03 -7.8 C 1.78 g/m*3 -7.8 C 0 km/h
2070 02-12-2010 06:07:02 -7.8 C 1.8 g/m*3 -7.8 C 0 km/h
2071 02-12-2010 06:19:02 -7.7 C 1.85 g/m*3 -7.7 C 0 km/h
2072 02-12-2010 06:31:02 -7.8 C 1.83 g/m*3 -7.8 C 0 km/h
2073 02-12-2010 06:43:02 -7.8 C 1.83 g/m*3 -7.8 C 0 km/h
2074 02-12-2010 06:55:02 -7.7 C 1.87 g/m*3 -7.7 C 0 km/h
2075 02-12-2010 07:07:01 -7.7 C 1.9 g/m*3 -7.7 C 0 km/h
Sensor: Nr:Datum:Temp:Abs-Feuchte:Windchill:Wind:
Aussen-T/F 2076 02-12-2010 07:19:02 -7.7 C 1.9 g/m*3 -7.7 C 0 km/h
2077 02-12-2010 07:31:02 -7.8 C 1.86 g/m*3 -7.8 C 0 km/h
2078 02-12-2010 07:43:02 -7.7 C 1.9 g/m*3 -7.7 C 0 km/h
2079 02-12-2010 07:55:02 -7.7 C 1.9 g/m*3 -7.7 C 0 km/h
2080 02-12-2010 08:07:02 -7.7 C 1.9 g/m*3 -7.7 C 0 km/h
2081 02-12-2010 08:19:02 -7.7 C 1.87 g/m*3 -7.7 C 0 km/h
2082 02-12-2010 08:31:03 -7.7 C 1.87 g/m*3 -7.7 C 0 km/h
2083 02-12-2010 08:43:03 -7.8 C 1.83 g/m*3 -7.8 C 0 km/h
2084 02-12-2010 08:55:02 -7.6 C 1.86 g/m*3 -7.6 C 0 km/h
2085 02-12-2010 09:07:01 -7.4 C 1.92 g/m*3 -7.4 C 0 km/h
2086 02-12-2010 09:19:01 -7.1 C 1.96 g/m*3 -7.1 C 0 km/h
2087 02-12-2010 09:31:02 -7.2 C 1.94 g/m*3 -7.2 C 0 km/h
2088 02-12-2010 09:43:02 -7.1 C 1.96 g/m*3 -7.1 C 0 km/h
2089 02-12-2010 09:55:02 -6.7 C 2.02 g/m*3 -6.7 C 0 km/h
2090 02-12-2010 10:07:02 -6.5 C 2.02 g/m*3 -6.5 C 0 km/h
2091 02-12-2010 10:19:02 -6.3 C 1.98 g/m*3 -6.3 C 0 km/h
2092 02-12-2010 10:31:02 -6.1 C 1.98 g/m*3 -6.1 C 0 km/h
2093 02-12-2010 10:43:02 -6 C 1.96 g/m*3 -6 C 0 km/h
2094 02-12-2010 10:55:02 -5.8 C 2.02 g/m*3 -5.8 C 0 km/h
2095 02-12-2010 11:07:02 -5.8 C 2.02 g/m*3 -5.8 C 0 km/h
2096 02-12-2010 11:19:01 -6.1 C 1.95 g/m*3 -6.1 C 0 km/h
2097 02-12-2010 11:31:02 -5.2 C 2.11 g/m*3 -5.2 C 0 km/h
2098 02-12-2010 11:43:02 -5.6 C 2.02 g/m*3 -5.6 C 0 km/h
2099 02-12-2010 11:55:01 -5.4 C 2.05 g/m*3 -5.4 C 0 km/h
2100 02-12-2010 12:07:02 -6.2 C 1.97 g/m*3 -6.2 C 0 km/h
Sensor: Nr:Datum:Temp:Abs-Feuchte:Windchill:Wind:
Aussen-T/F 2101 02-12-2010 12:19:02 -6.2 C 2.03 g/m*3 -6.2 C 0 km/h
2102 02-12-2010 12:31:01 -6.1 C 2.04 g/m*3 -6.1 C 0 km/h
2103 02-12-2010 12:43:01 -6.1 C 2.08 g/m*3 -6.1 C 0 km/h
2104 02-12-2010 12:55:02 -5.8 C 2.15 g/m*3 -5.8 C 0 km/h
2105 02-12-2010 13:07:01 -5.8 C 2.12 g/m*3 -5.8 C 0 km/h
2106 02-12-2010 13:19:02 -5.7 C 2.14 g/m*3 -5.7 C 0 km/h
2107 02-12-2010 13:31:01 -5.3 C 2.2 g/m*3 -5.3 C 0 km/h
2108 02-12-2010 13:43:01 -4.5 C 2.26 g/m*3 -4.5 C 0 km/h
2109 02-12-2010 13:55:02 -5.2 C 2.05 g/m*3 -5.2 C 0 km/h
2110 02-12-2010 14:07:02 -5.1 C 2.13 g/m*3 -5.1 C 0 km/h
2111 02-12-2010 14:19:02 -5.6 C 2.12 g/m*3 -5.6 C 0 km/h
2112 02-12-2010 14:31:02 -6 C 2.06 g/m*3 -6 C 0 km/h
2113 02-12-2010 14:43:02 -6 C 2.15 g/m*3 -6 C 0 km/h
2114 02-12-2010 14:55:02 -5.3 C 2.33 g/m*3 -5.3 C 0 km/h
2115 02-12-2010 15:07:02 -4.9 C 2.37 g/m*3 -4.9 C 0 km/h
2116 02-12-2010 15:19:01 -4.6 C 2.31 g/m*3 -4.6 C 0 km/h
2117 02-12-2010 15:31:02 -4.6 C 2.24 g/m*3 -4.6 C 0 km/h
2118 02-12-2010 15:43:02 -4.8 C 2.21 g/m*3 -4.8 C 0 km/h
2119 02-12-2010 15:55:02 -4.8 C 2.25 g/m*3 -4.8 C 0 km/h
2120 02-12-2010 16:07:02 -4.9 C 2.26 g/m*3 -4.9 C 0 km/h
2121 02-12-2010 16:19:01 -5.1 C 2.26 g/m*3 -5.1 C 0 km/h
2122 02-12-2010 16:31:02 -5.1 C 2.3 g/m*3 -5.1 C 0 km/h
2123 02-12-2010 16:43:02 -5.2 C 2.32 g/m*3 -5.2 C 0 km/h
2124 02-12-2010 16:55:02 -5.3 C 2.37 g/m*3 -5.3 C 0 km/h
2125 02-12-2010 17:07:02 -5.7 C 2.3 g/m*3 -5.7 C 0 km/h
Sensor: Nr:Datum:Temp:Abs-Feuchte:Windchill:Wind:
Aussen-T/F 2126 02-12-2010 17:19:02 -6.9 C 2.11 g/m*3 -6.9 C 0 km/h
2127 02-12-2010 17:31:02 -7.9 C 2.04 g/m*3 -7.9 C 0 km/h
2128 02-12-2010 17:43:02 -8.2 C 2.05 g/m*3 -8.2 C 0 km/h
2129 02-12-2010 17:55:01 -8.1 C 2.12 g/m*3 -8.1 C 0 km/h
2130 02-12-2010 18:07:02 -8.2 C 2.13 g/m*3 -8.2 C 0 km/h
2131 02-12-2010 18:19:02 -8 C 2.19 g/m*3 -8 C 0 km/h
2132 02-12-2010 18:31:02 -7.8 C 2.25 g/m*3 -7.8 C 0 km/h
2133 02-12-2010 18:43:02 -8.2 C 2.18 g/m*3 -8.2 C 0 km/h
2134 02-12-2010 18:55:02 -7.9 C 2.23 g/m*3 -7.9 C 0 km/h
2135 02-12-2010 19:07:01 -7.9 C 2.26 g/m*3 -7.9 C 0 km/h
2136 02-12-2010 19:19:02 -7.9 C 2.26 g/m*3 -7.9 C 0 km/h
2137 02-12-2010 19:31:02 -8.6 C 2.12 g/m*3 -8.6 C 0 km/h
2138 02-12-2010 19:43:02 -8.9 C 2.07 g/m*3 -8.9 C 0 km/h
2139 02-12-2010 19:55:02 -8.8 C 2.09 g/m*3 -8.8 C 0 km/h
2140 02-12-2010 20:07:01 -9.4 C 2 g/m*3 -9.4 C 0 km/h
2141 02-12-2010 20:19:01 -9 C 2.06 g/m*3 -9 C 0 km/h
2142 02-12-2010 20:31:02 -7.7 C 2.32 g/m*3 -7.7 C 0 km/h
2143 02-12-2010 20:43:02 -7.2 C 2.41 g/m*3 -7.2 C 0 km/h
2144 02-12-2010 20:55:02 -6.9 C 2.49 g/m*3 -6.9 C 0 km/h
2145 02-12-2010 21:07:02 -6.9 C 2.46 g/m*3 -6.9 C 0 km/h
2146 02-12-2010 21:19:02 -7 C 2.44 g/m*3 -7 C 0 km/h
2147 02-12-2010 21:31:02 -7.5 C 2.33 g/m*3 -7.5 C 0 km/h
2148 02-12-2010 21:43:02 -7.9 C 2.26 g/m*3 -7.9 C 0 km/h
2149 02-12-2010 21:55:02 -8.4 C 2.15 g/m*3 -8.4 C 0 km/h
2150 02-12-2010 22:07:02 -8.2 C 2.21 g/m*3 -8.2 C 0 km/h
Sensor: Nr:Datum:Temp:Abs-Feuchte:Windchill:Wind:
Aussen-T/F 2151 02-12-2010 22:20:04 -8.5 C 2.13 g/m*3 -8.5 C 0 km/h
2152 02-12-2010 22:32:04 -8.9 C 2.07 g/m*3 -8.9 C 0 km/h
2153 02-12-2010 22:44:04 -8.9 C 2.05 g/m*3 -8.9 C 0 km/h
2154 02-12-2010 22:56:04 -8.2 C 2.18 g/m*3 -8.2 C 0 km/h
2155 02-12-2010 23:08:04 -8.3 C 2.17 g/m*3 -8.3 C 0 km/h
2156 02-12-2010 23:20:04 -7.8 C 2.28 g/m*3 -7.8 C 0 km/h
2157 02-12-2010 23:32:04 -7.9 C 2.23 g/m*3 -7.9 C 0 km/h
2158 02-12-2010 23:44:04 -7.8 C 2.25 g/m*3 -7.8 C 0 km/h
2159 02-12-2010 23:56:04 -8 C 2.22 g/m*3 -8 C 0 km/h
2160 03-12-2010 00:08:04 -8.5 C 2.11 g/m*3 -8.5 C 0 km/h
2161 03-12-2010 00:20:04 -9.5 C 1.93 g/m*3 -9.5 C 0 km/h
2162 03-12-2010 00:32:04 -10.1 C 1.82 g/m*3 -10.1 C 0 km/h
2163 03-12-2010 00:44:04 -10.7 C 1.72 g/m*3 -10.7 C 0 km/h
2164 03-12-2010 00:56:04 -10.6 C 1.73 g/m*3 -10.6 C 0 km/h
2165 03-12-2010 01:08:04 -10.4 C 1.76 g/m*3 -10.4 C 0 km/h
2166 03-12-2010 01:20:04 -9.8 C 1.89 g/m*3 -9.8 C 0 km/h
2167 03-12-2010 01:32:04 -9.7 C 1.9 g/m*3 -9.7 C 0 km/h
2168 03-12-2010 01:44:04 -9.3 C 1.99 g/m*3 -9.3 C 0 km/h
2169 03-12-2010 01:56:04 -9.1 C 2.02 g/m*3 -9.1 C 0 km/h
2170 03-12-2010 02:08:04 -9.1 C 2.02 g/m*3 -9.1 C 0 km/h
2171 03-12-2010 02:20:04 -9 C 2.03 g/m*3 -9 C 0 km/h
2172 03-12-2010 02:32:05 -9.1 C 1.99 g/m*3 -9.1 C 0 km/h
2173 03-12-2010 02:44:05 -9.1 C 1.99 g/m*3 -9.1 C 0 km/h
2174 03-12-2010 02:56:05 -9.3 C 1.96 g/m*3 -9.3 C 0 km/h
2175 03-12-2010 03:08:05 -9.2 C 1.98 g/m*3 -9.2 C 0 km/h
Sensor: Nr:Datum:Temp:Abs-Feuchte:Windchill:Wind:
Aussen-T/F 2176 03-12-2010 03:20:05 -9 C 2.01 g/m*3 -9 C 0 km/h
2177 03-12-2010 03:32:05 -8.7 C 2.05 g/m*3 -8.7 C 0 km/h
2178 03-12-2010 03:44:05 -8.5 C 2.11 g/m*3 -8.5 C 0 km/h
2179 03-12-2010 03:56:05 -8.5 C 2.08 g/m*3 -8.5 C 0 km/h
2180 03-12-2010 04:08:05 -8.2 C 2.13 g/m*3 -8.2 C 0 km/h
2181 03-12-2010 04:20:05 -8.1 C 2.14 g/m*3 -8.1 C 0 km/h
2182 03-12-2010 04:32:05 -7.9 C 2.18 g/m*3 -7.9 C 0 km/h
2183 03-12-2010 04:44:05 -8 C 2.16 g/m*3 -8 C 0 km/h
2184 03-12-2010 04:56:05 -8.1 C 2.12 g/m*3 -8.1 C 0 km/h
2185 03-12-2010 05:08:05 -8.6 C 2.04 g/m*3 -8.6 C 0 km/h
2186 03-12-2010 05:20:05 -8.8 C 1.98 g/m*3 -8.8 C 0 km/h
2187 03-12-2010 05:32:05 -8.6 C 2.04 g/m*3 -8.6 C 0 km/h
2188 03-12-2010 05:44:05 -8.5 C 2.08 g/m*3 -8.5 C 0 km/h
2189 03-12-2010 05:56:05 -8.9 C 2 g/m*3 -8.9 C 0 km/h
2190 03-12-2010 06:08:05 -9.5 C 1.91 g/m*3 -9.5 C 0 km/h
2191 03-12-2010 06:20:05 -9.8 C 1.84 g/m*3 -9.8 C 0 km/h
2192 03-12-2010 06:32:06 -9.6 C 1.89 g/m*3 -9.6 C 0 km/h
2193 03-12-2010 06:44:06 -9.4 C 1.92 g/m*3 -9.4 C 0 km/h
2194 03-12-2010 06:56:06 -9.1 C 1.99 g/m*3 -9.1 C 0 km/h
2195 03-12-2010 07:08:03 -8.7 C 2.08 g/m*3 -8.7 C 0 km/h
2196 03-12-2010 07:20:04 -8.7 C 2.08 g/m*3 -8.7 C 0 km/h
2197 03-12-2010 07:32:03 -8.9 C 2.02 g/m*3 -8.9 C 0 km/h
2198 03-12-2010 07:44:03 -9 C 2.01 g/m*3 -9 C 0 km/h
2199 03-12-2010 07:56:02 -9.3 C 1.96 g/m*3 -9.3 C 0 km/h
2200 03-12-2010 08:08:02 -9.5 C 1.93 g/m*3 -9.5 C 0 km/h
Sensor: Nr:Datum:Temp:Abs-Feuchte:Windchill:Wind:
Aussen-T/F 2201 03-12-2010 08:20:02 -9.9 C 1.85 g/m*3 -9.9 C 0 km/h
2202 03-12-2010 08:32:03 -10.2 C 1.81 g/m*3 -10.2 C 0 km/h
2203 03-12-2010 08:44:03 -10 C 1.84 g/m*3 -10 C 0 km/h
2204 03-12-2010 08:56:02 -10 C 1.84 g/m*3 -10 C 0 km/h
2205 03-12-2010 09:08:01 -10 C 1.84 g/m*3 -10 C 0 km/h
2206 03-12-2010 09:20:02 -9.8 C 1.87 g/m*3 -9.8 C 0 km/h
2207 03-12-2010 09:32:02 -10 C 1.81 g/m*3 -10 C 0 km/h
2208 03-12-2010 09:44:02 -9.8 C 1.84 g/m*3 -9.8 C 0 km/h
2209 03-12-2010 09:56:02 -9.4 C 1.87 g/m*3 -9.4 C 0 km/h
2210 03-12-2010 10:08:03 -9.1 C 1.92 g/m*3 -9.1 C 0 km/h
2211 03-12-2010 10:20:02 -8.6 C 1.96 g/m*3 -8.6 C 0 km/h
2212 03-12-2010 10:32:02 -8.2 C 2.05 g/m*3 -8.2 C 0 km/h
2213 03-12-2010 10:44:02 -7.5 C 2.16 g/m*3 -7.5 C 0 km/h
2214 03-12-2010 10:56:01 -7.1 C 2.19 g/m*3 -7.1 C 0 km/h
2215 03-12-2010 11:08:02 -6.6 C 2.24 g/m*3 -6.6 C 0 km/h
2216 03-12-2010 11:20:01 -6.6 C 2.21 g/m*3 -6.6 C 0 km/h
2217 03-12-2010 11:32:01 -6.4 C 2.21 g/m*3 -6.4 C 0 km/h
2218 03-12-2010 11:44:01 -6.2 C 2.22 g/m*3 -6.2 C 0 km/h
2219 03-12-2010 11:56:01 -5.8 C 2.25 g/m*3 -5.8 C 0 km/h
2220 03-12-2010 12:08:01 -5.7 C 2.23 g/m*3 -5.7 C 0 km/h
2221 03-12-2010 12:20:02 -5.4 C 2.25 g/m*3 -5.4 C 0 km/h
2222 03-12-2010 12:32:01 -4.9 C 2.33 g/m*3 -4.9 C 0 km/h
2223 03-12-2010 12:44:01 -4.8 C 2.31 g/m*3 -4.8 C 0 km/h
2224 03-12-2010 12:56:02 -5 C 2.28 g/m*3 -5 C 0 km/h
2225 03-12-2010 13:08:01 -4.9 C 2.3 g/m*3 -4.9 C 0 km/h
Sensor: Nr:Datum:Temp:Abs-Feuchte:Windchill:Wind:
Aussen-T/F 2226 03-12-2010 13:20:02 -4.7 C 2.33 g/m*3 -4.7 C 0 km/h
2227 03-12-2010 13:32:01 -4.8 C 2.31 g/m*3 -4.8 C 0 km/h
2228 03-12-2010 13:44:01 -4.7 C 2.33 g/m*3 -4.7 C 0 km/h
2229 03-12-2010 13:56:02 -4.6 C 2.35 g/m*3 -4.6 C 0 km/h
2230 03-12-2010 14:08:02 -4.4 C 2.35 g/m*3 -4.4 C 0 km/h
2231 03-12-2010 14:20:02 -4.3 C 2.4 g/m*3 -4.3 C 0 km/h
2232 03-12-2010 14:32:02 -4.3 C 2.36 g/m*3 -4.3 C 0 km/h
2233 03-12-2010 14:44:02 -4.2 C 2.38 g/m*3 -4.2 C 0 km/h
2234 03-12-2010 14:56:02 -4.1 C 2.4 g/m*3 -4.1 C 0 km/h
2235 03-12-2010 15:08:02 -4.2 C 2.42 g/m*3 -4.2 C 0 km/h
2236 03-12-2010 15:20:01 -4.4 C 2.42 g/m*3 -4.4 C 0 km/h
2237 03-12-2010 15:32:02 -4.7 C 2.4 g/m*3 -4.7 C 0 km/h
2238 03-12-2010 15:44:02 -4.8 C 2.42 g/m*3 -4.8 C 0 km/h
2239 03-12-2010 15:56:02 -5.3 C 2.37 g/m*3 -5.3 C 0 km/h
2240 03-12-2010 16:08:02 -5.7 C 2.36 g/m*3 -5.7 C 0 km/h
2241 03-12-2010 16:20:02 -6.1 C 2.36 g/m*3 -6.1 C 0 km/h
2242 03-12-2010 16:32:02 -6.3 C 2.35 g/m*3 -6.3 C 0 km/h
2243 03-12-2010 16:44:02 -6.3 C 2.39 g/m*3 -6.3 C 0 km/h
2244 03-12-2010 16:56:02 -6.5 C 2.38 g/m*3 -6.5 C 0 km/h
2245 03-12-2010 17:08:02 -6.8 C 2.33 g/m*3 -6.8 C 0 km/h
2246 03-12-2010 17:20:02 -6.8 C 2.36 g/m*3 -6.8 C 0 km/h
2247 03-12-2010 17:32:02 -7 C 2.33 g/m*3 -7 C 0 km/h
2248 03-12-2010 17:44:02 -7 C 2.36 g/m*3 -7 C 0 km/h
2249 03-12-2010 17:56:02 -7.3 C 2.3 g/m*3 -7.3 C 0 km/h
2250 03-12-2010 18:08:02 -7.4 C 2.29 g/m*3 -7.4 C 0 km/h
Sensor: Nr:Datum:Temp:Abs-Feuchte:Windchill:Wind:
Aussen-T/F 2251 03-12-2010 18:20:02 -7.3 C 2.3 g/m*3 -7.3 C 0 km/h
2252 03-12-2010 18:32:02 -7 C 2.36 g/m*3 -7 C 0 km/h
2253 03-12-2010 18:44:02 -6.8 C 2.42 g/m*3 -6.8 C 0 km/h
2254 03-12-2010 18:56:02 -6.6 C 2.46 g/m*3 -6.6 C 0 km/h
2255 03-12-2010 19:08:02 -6.1 C 2.58 g/m*3 -6.1 C 0 km/h
2256 03-12-2010 19:20:02 -5.8 C 2.64 g/m*3 -5.8 C 0 km/h
2257 03-12-2010 19:32:01 -5.7 C 2.65 g/m*3 -5.7 C 0 km/h
2258 03-12-2010 19:44:01 -5.6 C 2.64 g/m*3 -5.6 C 0 km/h
2259 03-12-2010 19:56:02 -5.5 C 2.66 g/m*3 -5.5 C 0 km/h
2260 03-12-2010 20:08:01 -5.5 C 2.63 g/m*3 -5.5 C 0 km/h
2261 03-12-2010 20:20:02 -5.4 C 2.65 g/m*3 -5.4 C 0 km/h
2262 03-12-2010 20:32:02 -5.3 C 2.67 g/m*3 -5.3 C 0 km/h
2263 03-12-2010 20:44:02 -5.3 C 2.63 g/m*3 -5.3 C 0 km/h
2264 03-12-2010 20:56:02 -5.3 C 2.63 g/m*3 -5.3 C 0 km/h
2265 03-12-2010 21:08:03 -5.3 C 2.63 g/m*3 -5.3 C 0 km/h
2266 03-12-2010 21:20:02 -5.5 C 2.56 g/m*3 -5.5 C 0 km/h
2267 03-12-2010 21:32:02 -6.1 C 2.45 g/m*3 -6.1 C 0 km/h
2268 03-12-2010 21:44:02 -6.1 C 2.48 g/m*3 -6.1 C 0 km/h
2269 03-12-2010 21:56:01 -5.6 C 2.61 g/m*3 -5.6 C 0 km/h
2270 03-12-2010 22:08:02 -5.9 C 2.55 g/m*3 -5.9 C 0 km/h
2271 03-12-2010 22:20:01 -6.5 C 2.41 g/m*3 -6.5 C 0 km/h
2272 03-12-2010 22:32:02 -6.9 C 2.37 g/m*3 -6.9 C 0 km/h
2273 03-12-2010 22:44:03 -7.2 C 2.32 g/m*3 -7.2 C 0 km/h
2274 03-12-2010 22:56:02 -7.4 C 2.32 g/m*3 -7.4 C 0 km/h
2275 03-12-2010 23:08:02 -8 C 2.22 g/m*3 -8 C 0 km/h
Sensor: Nr:Datum:Temp:Abs-Feuchte:Windchill:Wind:
Aussen-T/F 2276 03-12-2010 23:20:01 -8 C 2.22 g/m*3 -8 C 0 km/h
2277 03-12-2010 23:32:02 -8.2 C 2.18 g/m*3 -8.2 C 0 km/h
2278 03-12-2010 23:44:02 -7.2 C 2.41 g/m*3 -7.2 C 0 km/h
2279 03-12-2010 23:56:02 -8.2 C 2.21 g/m*3 -8.2 C 0 km/h
2280 04-12-2010 00:08:02 -8.7 C 2.13 g/m*3 -8.7 C 0 km/h
2281 04-12-2010 00:20:02 -8.4 C 2.18 g/m*3 -8.4 C 0 km/h
2282 04-12-2010 00:32:02 -8.5 C 2.16 g/m*3 -8.5 C 0 km/h
2283 04-12-2010 00:44:02 -8.6 C 2.14 g/m*3 -8.6 C 0 km/h
2284 04-12-2010 00:56:02 -8.3 C 2.22 g/m*3 -8.3 C 0 km/h
2285 04-12-2010 01:08:02 -8.2 C 2.24 g/m*3 -8.2 C 0 km/h
2286 04-12-2010 01:20:03 -9.1 C 2.04 g/m*3 -9.1 C 0 km/h
2287 04-12-2010 01:32:02 -9.4 C 2 g/m*3 -9.4 C 0 km/h
2288 04-12-2010 01:44:02 -9.4 C 2 g/m*3 -9.4 C 0 km/h
2289 04-12-2010 01:56:02 -9.4 C 2.02 g/m*3 -9.4 C 0 km/h
2290 04-12-2010 02:08:02 -9.6 C 1.97 g/m*3 -9.6 C 0 km/h
2291 04-12-2010 02:20:02 -9.4 C 2 g/m*3 -9.4 C 0 km/h
2292 04-12-2010 02:32:02 -9 C 2.08 g/m*3 -9 C 0 km/h
2293 04-12-2010 02:44:02 -9.1 C 2.04 g/m*3 -9.1 C 0 km/h
2294 04-12-2010 02:57:04 -9.2 C 2.03 g/m*3 -9.2 C 0 km/h
2295 04-12-2010 03:09:04 -9.8 C 1.94 g/m*3 -9.8 C 0 km/h
2296 04-12-2010 03:21:03 -10.4 C 1.83 g/m*3 -10.4 C 0 km/h
2297 04-12-2010 03:33:01 -10.5 C 1.79 g/m*3 -10.5 C 0 km/h
2298 04-12-2010 03:45:01 -10 C 1.88 g/m*3 -10 C 0 km/h
2299 04-12-2010 03:57:01 -9 C 2.06 g/m*3 -9 C 0 km/h
2300 04-12-2010 04:09:02 -8.8 C 2.09 g/m*3 -8.8 C 0 km/h
Sensor: Nr:Datum:Temp:Abs-Feuchte:Windchill:Wind:
Aussen-T/F 2301 04-12-2010 04:21:02 -8.2 C 2.21 g/m*3 -8.2 C 0 km/h
2302 04-12-2010 04:33:01 -8 C 2.24 g/m*3 -8 C 0 km/h
2303 04-12-2010 04:45:02 -7.6 C 2.31 g/m*3 -7.6 C 0 km/h
2304 04-12-2010 04:57:02 -7.2 C 2.38 g/m*3 -7.2 C 0 km/h
2305 04-12-2010 05:09:01 -6.9 C 2.43 g/m*3 -6.9 C 0 km/h
2306 04-12-2010 05:21:02 -6.3 C 2.57 g/m*3 -6.3 C 0 km/h
2307 04-12-2010 05:33:01 -5.1 C 2.81 g/m*3 -5.1 C 0 km/h
2308 04-12-2010 05:45:02 -4.5 C 2.82 g/m*3 -4.5 C 0 km/h
2309 04-12-2010 05:57:02 -4.8 C 2.73 g/m*3 -4.8 C 0 km/h
2310 04-12-2010 06:09:02 -4.5 C 2.68 g/m*3 -4.5 C 0 km/h
2311 04-12-2010 06:21:02 -4.9 C 2.57 g/m*3 -4.9 C 0 km/h
2312 04-12-2010 06:33:03 -5 C 2.55 g/m*3 -5 C 0 km/h
2313 04-12-2010 06:45:02 -5.3 C 2.53 g/m*3 -5.3 C 0 km/h
2314 04-12-2010 06:57:02 -5 C 2.62 g/m*3 -5 C 0 km/h
2315 04-12-2010 07:09:02 -5 C 2.62 g/m*3 -5 C 0 km/h
2316 04-12-2010 07:21:01 -5.3 C 2.53 g/m*3 -5.3 C 0 km/h
2317 04-12-2010 07:33:02 -5.4 C 2.51 g/m*3 -5.4 C 0 km/h
2318 04-12-2010 07:45:02 -5.2 C 2.58 g/m*3 -5.2 C 0 km/h
2319 04-12-2010 07:57:02 -4.8 C 2.66 g/m*3 -4.8 C 0 km/h
2320 04-12-2010 08:09:02 -4.8 C 2.63 g/m*3 -4.8 C 0 km/h
2321 04-12-2010 08:21:02 -4.1 C 2.76 g/m*3 -4.1 C 0 km/h
2322 04-12-2010 08:33:02 -3.8 C 2.71 g/m*3 -3.8 C 0 km/h
2323 04-12-2010 08:45:02 -3.5 C 2.65 g/m*3 -3.5 C 0 km/h
2324 04-12-2010 08:57:02 -3.5 C 2.58 g/m*3 -3.5 C 0 km/h
2325 04-12-2010 09:09:02 -3.3 C 2.61 g/m*3 -3.3 C 0 km/h
Sensor: Nr:Datum:Temp:Abs-Feuchte:Windchill:Wind:
Aussen-T/F 2326 04-12-2010 09:21:01 -3.1 C 2.57 g/m*3 -3.1 C 0 km/h
2327 04-12-2010 09:33:02 -3 C 2.59 g/m*3 -3 C 0 km/h
2328 04-12-2010 09:45:01 -2.9 C 2.61 g/m*3 -2.9 C 0 km/h
2329 04-12-2010 09:57:01 -3.2 C 2.52 g/m*3 -3.2 C 0 km/h
2330 04-12-2010 10:09:02 -2.9 C 2.57 g/m*3 -2.9 C 0 km/h
2331 04-12-2010 10:21:02 -2.4 C 2.66 g/m*3 -2.4 C 0 km/h
2332 04-12-2010 10:33:02 -2 C 2.82 g/m*3 -2 C 0 km/h
2333 04-12-2010 10:45:02 -1.8 C 2.69 g/m*3 -1.8 C 0 km/h
2334 04-12-2010 10:57:02 -1.5 C 2.62 g/m*3 -1.5 C 0 km/h
2335 04-12-2010 11:09:01 -1.5 C 2.58 g/m*3 -1.5 C 0 km/h
2336 04-12-2010 11:21:02 -1.3 C 2.43 g/m*3 -1.3 C 0 km/h
2337 04-12-2010 11:33:01 -1.5 C 2.4 g/m*3 -1.5 C 0 km/h
2338 04-12-2010 11:45:02 -1.3 C 2.43 g/m*3 -1.3 C 0 km/h
2339 04-12-2010 11:57:02 -1.3 C 2.39 g/m*3 -1.3 C 0 km/h
2340 04-12-2010 12:09:02 -1 C 2.49 g/m*3 -1 C 0 km/h
2341 04-12-2010 12:21:02 -0.9 C 2.41 g/m*3 -0.9 C 0 km/h
2342 04-12-2010 12:33:03 -0.7 C 2.49 g/m*3 -0.7 C 0 km/h
2343 04-12-2010 12:45:02 -0.8 C 2.43 g/m*3 -0.8 C 0 km/h
2344 04-12-2010 12:57:02 -0.9 C 2.46 g/m*3 -0.9 C 0 km/h
2345 04-12-2010 13:09:02 -1.3 C 2.39 g/m*3 -1.3 C 0 km/h
2346 04-12-2010 13:21:01 -1.6 C 2.38 g/m*3 -1.6 C 0 km/h
2347 04-12-2010 13:33:02 -1.6 C 2.38 g/m*3 -1.6 C 0 km/h
2348 04-12-2010 13:45:02 -1.3 C 2.43 g/m*3 -1.3 C 0 km/h
2349 04-12-2010 13:57:02 -1.2 C 2.45 g/m*3 -1.2 C 0 km/h
2350 04-12-2010 14:09:02 -1.1 C 2.47 g/m*3 -1.1 C 0 km/h
Sensor: Nr:Datum:Temp:Abs-Feuchte:Windchill:Wind:
Aussen-T/F 2351 04-12-2010 14:21:01 -1.1 C 2.47 g/m*3 -1.1 C 0 km/h
2352 04-12-2010 14:33:02 -0.9 C 2.46 g/m*3 -0.9 C 0 km/h
2353 04-12-2010 14:45:01 -1 C 2.49 g/m*3 -1 C 0 km/h
2354 04-12-2010 14:57:01 -0.9 C 2.46 g/m*3 -0.9 C 0 km/h
2355 04-12-2010 15:09:02 -0.9 C 2.5 g/m*3 -0.9 C 0 km/h
2356 04-12-2010 15:21:02 -0.9 C 2.5 g/m*3 -0.9 C 0 km/h
2357 04-12-2010 15:33:02 -0.9 C 2.5 g/m*3 -0.9 C 0 km/h
2358 04-12-2010 15:45:01 -0.9 C 2.5 g/m*3 -0.9 C 0 km/h
2359 04-12-2010 15:57:01 -1 C 2.58 g/m*3 -1 C 0 km/h
2360 04-12-2010 16:09:02 -1.1 C 2.6 g/m*3 -1.1 C 0 km/h
2361 04-12-2010 16:21:02 -1.1 C 2.6 g/m*3 -1.1 C 0 km/h
2362 04-12-2010 16:33:01 -1.3 C 2.66 g/m*3 -1.3 C 0 km/h
2363 04-12-2010 16:45:02 -1.2 C 2.67 g/m*3 -1.2 C 0 km/h
2364 04-12-2010 16:57:02 -1.4 C 2.68 g/m*3 -1.4 C 0 km/h
2365 04-12-2010 17:09:01 -1.2 C 2.72 g/m*3 -1.2 C 0 km/h
2366 04-12-2010 17:21:02 -1 C 2.76 g/m*3 -1 C 0 km/h
2367 04-12-2010 17:33:02 -1 C 2.76 g/m*3 -1 C 0 km/h
2368 04-12-2010 17:45:02 -1.1 C 2.78 g/m*3 -1.1 C 0 km/h
2369 04-12-2010 17:57:03 -1.1 C 2.78 g/m*3 -1.1 C 0 km/h
2370 04-12-2010 18:09:02 -1.1 C 2.78 g/m*3 -1.1 C 0 km/h
2371 04-12-2010 18:21:02 -1 C 2.8 g/m*3 -1 C 0 km/h
2372 04-12-2010 18:33:02 -0.8 C 2.8 g/m*3 -0.8 C 0 km/h
2373 04-12-2010 18:45:01 -0.8 C 2.8 g/m*3 -0.8 C 0 km/h
2374 04-12-2010 18:57:01 -0.8 C 2.8 g/m*3 -0.8 C 0 km/h
2375 04-12-2010 19:09:02 -0.9 C 2.78 g/m*3 -0.9 C 0 km/h
Sensor: Nr:Datum:Temp:Abs-Feuchte:Windchill:Wind:
Aussen-T/F 2376 04-12-2010 19:21:01 -0.8 C 2.8 g/m*3 -0.8 C 0 km/h
2377 04-12-2010 19:33:02 -0.8 C 2.8 g/m*3 -0.8 C 0 km/h
2378 04-12-2010 19:45:01 -1 C 2.8 g/m*3 -1 C 0 km/h
2379 04-12-2010 19:57:01 -1.1 C 2.78 g/m*3 -1.1 C 0 km/h
2380 04-12-2010 20:09:02 -1.1 C 2.83 g/m*3 -1.1 C 0 km/h
2381 04-12-2010 20:21:01 -1.2 C 2.85 g/m*3 -1.2 C 0 km/h
2382 04-12-2010 20:33:02 -0.9 C 2.87 g/m*3 -0.9 C 0 km/h
2383 04-12-2010 20:45:01 -0.7 C 2.91 g/m*3 -0.7 C 0 km/h
2384 04-12-2010 20:57:01 -0.9 C 2.91 g/m*3 -0.9 C 0 km/h
2385 04-12-2010 21:09:02 -1.2 C 2.94 g/m*3 -1.2 C 0 km/h
2386 04-12-2010 21:21:02 -1.1 C 3.01 g/m*3 -1.1 C 0 km/h
2387 04-12-2010 21:33:01 -1 C 3.12 g/m*3 -1 C 0 km/h
2388 04-12-2010 21:45:02 -1.1 C 3.28 g/m*3 -1.1 C 0 km/h
2389 04-12-2010 21:57:02 -1.1 C 3.32 g/m*3 -1.1 C 0 km/h
2390 04-12-2010 22:09:02 -1.3 C 3.32 g/m*3 -1.3 C 0 km/h
2391 04-12-2010 22:21:01 -1.1 C 3.46 g/m*3 -1.1 C 0 km/h
2392 04-12-2010 22:33:02 -1.3 C 3.45 g/m*3 -1.3 C 0 km/h
2393 04-12-2010 22:45:02 -1.1 C 3.55 g/m*3 -1.1 C 0 km/h
2394 04-12-2010 22:57:02 -1.1 C 3.55 g/m*3 -1.1 C 0 km/h
2395 04-12-2010 23:09:02 -1.3 C 3.5 g/m*3 -1.3 C 0 km/h
2396 04-12-2010 23:21:02 -1.4 C 3.47 g/m*3 -1.4 C 0 km/h
2397 04-12-2010 23:33:02 -1.1 C 3.5 g/m*3 -1.1 C 0 km/h
2398 04-12-2010 23:45:02 -1 C 3.53 g/m*3 -1 C 0 km/h
2399 04-12-2010 23:57:02 -0.8 C 3.53 g/m*3 -0.8 C 0 km/h
2400 05-12-2010 00:09:02 -0.8 C 3.48 g/m*3 -0.8 C 0 km/h
Sensor: Nr:Datum:Temp:Abs-Feuchte:Windchill:Wind:
Aussen-T/F 2401 05-12-2010 00:21:02 -0.7 C 3.51 g/m*3 -0.7 C 0 km/h
2402 05-12-2010 00:33:02 -0.5 C 3.51 g/m*3 -0.5 C 0 km/h
2403 05-12-2010 00:45:02 -0.4 C 3.49 g/m*3 -0.4 C 0 km/h
2404 05-12-2010 00:57:02 -0.1 C 3.42 g/m*3 -0.1 C 0 km/h
2405 05-12-2010 01:09:02 -0.1 C 3.42 g/m*3 -0.1 C 0 km/h
2406 05-12-2010 01:21:02 0.3 C 3.26 g/m*3 0.3 C 0 km/h
2407 05-12-2010 01:33:02 0.3 C 3.26 g/m*3 0.3 C 0 km/h
2408 05-12-2010 01:45:02 0.1 C 3.27 g/m*3 0.1 C 0 km/h
2409 05-12-2010 01:57:02 0 C 3.34 g/m*3 0 C 0 km/h
2410 05-12-2010 02:09:02 0 C 3.39 g/m*3 0 C 0 km/h
2411 05-12-2010 02:21:03 0.1 C 3.46 g/m*3 0.1 C 0 km/h
2412 05-12-2010 02:33:02 0 C 3.49 g/m*3 0 C 0 km/h
2413 05-12-2010 02:46:04 0 C 3.54 g/m*3 0 C 0 km/h
2414 05-12-2010 02:58:04 0 C 3.59 g/m*3 0 C 0 km/h
2415 05-12-2010 03:10:04 0 C 3.54 g/m*3 0 C 0 km/h
2416 05-12-2010 03:22:04 0.2 C 3.49 g/m*3 0.2 C 0 km/h
2417 05-12-2010 03:34:02 0.2 C 3.54 g/m*3 0.2 C 0 km/h
2418 05-12-2010 03:46:02 0.1 C 3.51 g/m*3 0.1 C 0 km/h
2419 05-12-2010 03:58:02 0.1 C 3.56 g/m*3 0.1 C 0 km/h
2420 05-12-2010 04:10:02 0.1 C 3.61 g/m*3 0.1 C 0 km/h
2421 05-12-2010 04:22:02 0.1 C 3.66 g/m*3 0.1 C 0 km/h
2422 05-12-2010 04:34:02 0.1 C 3.66 g/m*3 0.1 C 0 km/h
2423 05-12-2010 04:46:01 0.2 C 3.54 g/m*3 0.2 C 0 km/h
2424 05-12-2010 04:58:01 0.1 C 3.42 g/m*3 0.1 C 0 km/h
2425 05-12-2010 05:10:01 0.3 C 3.36 g/m*3 0.3 C 0 km/h
Sensor: Nr:Datum:Temp:Abs-Feuchte:Windchill:Wind:
Aussen-T/F 2426 05-12-2010 05:22:01 -0.1 C 3.32 g/m*3 -0.1 C 0 km/h
2427 05-12-2010 05:34:01 0.1 C 3.27 g/m*3 0.1 C 0 km/h
2428 05-12-2010 05:46:01 0.6 C 3.18 g/m*3 0.6 C 0 km/h
2429 05-12-2010 05:58:01 0.2 C 3.09 g/m*3 0.2 C 0 km/h
2430 05-12-2010 06:10:01 0.2 C 3.14 g/m*3 0.2 C 0 km/h
2431 05-12-2010 06:22:02 0.5 C 3.06 g/m*3 0.5 C 0 km/h
2432 05-12-2010 06:34:01 0.1 C 2.98 g/m*3 0.1 C 0 km/h
2433 05-12-2010 06:46:02 0.2 C 3 g/m*3 0.2 C 0 km/h
2434 05-12-2010 06:58:02 0.1 C 2.93 g/m*3 0.1 C 0 km/h
2435 05-12-2010 07:10:02 -0.2 C 3.01 g/m*3 -0.2 C 0 km/h
2436 05-12-2010 07:22:02 0.2 C 2.95 g/m*3 0.2 C 0 km/h
2437 05-12-2010 07:34:01 0.1 C 2.88 g/m*3 0.1 C 0 km/h
2438 05-12-2010 07:46:02 -0.2 C 2.82 g/m*3 -0.2 C 0 km/h
2439 05-12-2010 07:58:02 -0.3 C 2.89 g/m*3 -0.3 C 0 km/h
2440 05-12-2010 08:10:01 -0.5 C 2.9 g/m*3 -0.5 C 0 km/h
2441 05-12-2010 08:22:01 0.1 C 2.93 g/m*3 0.1 C 0 km/h
2442 05-12-2010 08:34:02 -0.1 C 2.84 g/m*3 -0.1 C 0 km/h
2443 05-12-2010 08:46:02 -0.4 C 2.83 g/m*3 -0.4 C 0 km/h
2444 05-12-2010 08:58:02 -0.7 C 3 g/m*3 -0.7 C 0 km/h
2445 05-12-2010 09:10:02 -0.6 C 3.02 g/m*3 -0.6 C 0 km/h
2446 05-12-2010 09:22:02 -0.4 C 3.02 g/m*3 -0.4 C 0 km/h
2447 05-12-2010 09:34:02 0 C 2.91 g/m*3 0 C 0 km/h
2448 05-12-2010 09:46:02 0.3 C 2.97 g/m*3 0.3 C 0 km/h
2449 05-12-2010 09:58:02 0.8 C 2.87 g/m*3 0.8 C 0 km/h
2450 05-12-2010 10:10:02 1.2 C 2.74 g/m*3 1.2 C 0 km/h
Sensor: Nr:Datum:Temp:Abs-Feuchte:Windchill:Wind:
Aussen-T/F 2451 05-12-2010 10:22:02 1.5 C 2.69 g/m*3 1.5 C 0 km/h
2452 05-12-2010 10:34:02 1.6 C 3.03 g/m*3 1.6 C 0 km/h
2453 05-12-2010 10:46:02 1.9 C 2.81 g/m*3 1.9 C 0 km/h
2454 05-12-2010 10:58:02 2.2 C 2.87 g/m*3 2.2 C 0 km/h
2455 05-12-2010 11:10:02 2.5 C 2.7 g/m*3 2.5 C 0 km/h
2456 05-12-2010 11:22:02 2.3 C 2.78 g/m*3 2.3 C 0 km/h
2457 05-12-2010 11:34:02 2.5 C 2.87 g/m*3 2.5 C 0 km/h
2458 05-12-2010 11:46:01 2.6 C 2.72 g/m*3 2.6 C 0 km/h
2459 05-12-2010 11:58:01 2.8 C 2.76 g/m*3 2.8 C 0 km/h
2460 05-12-2010 12:10:01 2.8 C 2.7 g/m*3 2.8 C 0 km/h
2461 05-12-2010 12:22:02 3 C 2.68 g/m*3 3 C 0 km/h
2462 05-12-2010 12:34:01 3.2 C 2.65 g/m*3 3.2 C 0 km/h
2463 05-12-2010 12:46:02 3.3 C 2.67 g/m*3 3.3 C 0 km/h
2464 05-12-2010 12:58:02 3.2 C 2.65 g/m*3 3.2 C 0 km/h
2465 05-12-2010 13:10:02 3.3 C 2.67 g/m*3 3.3 C 0 km/h
2466 05-12-2010 13:22:03 3.4 C 2.63 g/m*3 3.4 C 0 km/h
2467 05-12-2010 13:34:02 3.4 C 2.57 g/m*3 3.4 C 0 km/h
2468 05-12-2010 13:46:02 3.3 C 2.61 g/m*3 3.3 C 0 km/h
2469 05-12-2010 13:58:02 3.6 C 2.66 g/m*3 3.6 C 0 km/h
2470 05-12-2010 14:10:02 3.2 C 2.59 g/m*3 3.2 C 0 km/h
2471 05-12-2010 14:22:02 3.3 C 2.61 g/m*3 3.3 C 0 km/h
2472 05-12-2010 14:34:02 3.3 C 2.61 g/m*3 3.3 C 0 km/h
2473 05-12-2010 14:46:02 3.2 C 2.59 g/m*3 3.2 C 0 km/h
2474 05-12-2010 14:58:03 3.2 C 2.59 g/m*3 3.2 C 0 km/h
2475 05-12-2010 15:10:01 2.9 C 2.78 g/m*3 2.9 C 0 km/h
Sensor: Nr:Datum:Temp:Abs-Feuchte:Windchill:Wind:
Aussen-T/F 2476 05-12-2010 15:22:02 2.6 C 2.84 g/m*3 2.6 C 0 km/h
2477 05-12-2010 15:34:02 2.1 C 3.08 g/m*3 2.1 C 0 km/h
2478 05-12-2010 15:46:02 1.7 C 3.27 g/m*3 1.7 C 0 km/h
2479 05-12-2010 15:58:02 1.8 C 3.23 g/m*3 1.8 C 0 km/h
2480 05-12-2010 16:10:02 1.5 C 3.28 g/m*3 1.5 C 0 km/h
2481 05-12-2010 16:22:02 1.4 C 3.31 g/m*3 1.4 C 0 km/h
2482 05-12-2010 16:34:02 1.2 C 3.31 g/m*3 1.2 C 0 km/h
2483 05-12-2010 16:46:01 1.1 C 3.24 g/m*3 1.1 C 0 km/h
2484 05-12-2010 16:58:01 1 C 3.27 g/m*3 1 C 0 km/h
2485 05-12-2010 17:10:02 1 C 3.32 g/m*3 1 C 0 km/h
2486 05-12-2010 17:22:01 1.1 C 3.45 g/m*3 1.1 C 0 km/h
2487 05-12-2010 17:34:01 1.7 C 3.38 g/m*3 1.7 C 0 km/h
2488 05-12-2010 17:46:01 1.7 C 3.43 g/m*3 1.7 C 0 km/h
2489 05-12-2010 17:58:01 1.4 C 3.41 g/m*3 1.4 C 0 km/h
2490 05-12-2010 18:10:02 1 C 3.63 g/m*3 1 C 0 km/h
2491 05-12-2010 18:22:02 0.9 C 3.76 g/m*3 0.9 C 0 km/h
2492 05-12-2010 18:34:02 0.8 C 3.79 g/m*3 0.8 C 0 km/h
2493 05-12-2010 18:46:02 0.9 C 3.92 g/m*3 0.9 C 0 km/h
2494 05-12-2010 18:58:02 0.8 C 3.94 g/m*3 0.8 C 0 km/h
2495 05-12-2010 19:10:02 0.8 C 3.94 g/m*3 0.8 C 0 km/h
2496 05-12-2010 19:22:02 0.9 C 3.92 g/m*3 0.9 C 0 km/h
2497 05-12-2010 19:34:02 0.8 C 3.94 g/m*3 0.8 C 0 km/h
2498 05-12-2010 19:46:01 0.9 C 4.02 g/m*3 0.9 C 0 km/h
2499 05-12-2010 19:58:01 0.9 C 4.02 g/m*3 0.9 C 0 km/h
2500 05-12-2010 20:10:02 0.9 C 4.02 g/m*3 0.9 C 0 km/h
Sensor: Nr:Datum:Temp:Abs-Feuchte:Windchill:Wind:
Aussen-T/F 2501 05-12-2010 20:22:01 0.7 C 4.02 g/m*3 0.7 C 0 km/h
2502 05-12-2010 20:34:02 0.6 C 4.09 g/m*3 0.6 C 0 km/h
2503 05-12-2010 20:46:02 0.5 C 4.11 g/m*3 0.5 C 0 km/h
2504 05-12-2010 20:58:02 0.4 C 4.13 g/m*3 0.4 C 0 km/h
2505 05-12-2010 21:10:02 0.3 C 4.16 g/m*3 0.3 C 0 km/h
2506 05-12-2010 21:22:01 0.3 C 4.25 g/m*3 0.3 C 0 km/h
2507 05-12-2010 21:34:02 0.3 C 4.25 g/m*3 0.3 C 0 km/h
2508 05-12-2010 21:46:02 0.3 C 4.3 g/m*3 0.3 C 0 km/h
2509 05-12-2010 21:58:02 0.5 C 4.36 g/m*3 0.5 C 0 km/h
2510 05-12-2010 22:10:02 0.4 C 4.38 g/m*3 0.4 C 0 km/h
2511 05-12-2010 22:22:02 0.4 C 4.33 g/m*3 0.4 C 0 km/h
2512 05-12-2010 22:34:02 0.4 C 4.33 g/m*3 0.4 C 0 km/h
2513 05-12-2010 22:46:02 0.3 C 4.35 g/m*3 0.3 C 0 km/h
2514 05-12-2010 22:58:02 0.3 C 4.35 g/m*3 0.3 C 0 km/h
2515 05-12-2010 23:10:02 0.2 C 4.32 g/m*3 0.2 C 0 km/h
2516 05-12-2010 23:22:02 0.2 C 4.32 g/m*3 0.2 C 0 km/h
2517 05-12-2010 23:34:02 0.2 C 4.32 g/m*3 0.2 C 0 km/h
2518 05-12-2010 23:46:02 0.2 C 4.32 g/m*3 0.2 C 0 km/h
2519 05-12-2010 23:58:02 0.2 C 4.37 g/m*3 0.2 C 0 km/h
2520 06-12-2010 00:10:01 0.1 C 4.34 g/m*3 0.1 C 0 km/h
2521 06-12-2010 00:22:02 0.1 C 4.34 g/m*3 0.1 C 0 km/h
2522 06-12-2010 00:34:02 0.1 C 4.34 g/m*3 0.1 C 0 km/h
2523 06-12-2010 00:46:02 0.2 C 4.37 g/m*3 0.2 C 0 km/h
2524 06-12-2010 00:58:02 0.1 C 4.34 g/m*3 0.1 C 0 km/h
2525 06-12-2010 01:10:03 0.2 C 4.37 g/m*3 0.2 C 0 km/h
Sensor: Nr:Datum:Temp:Abs-Feuchte:Windchill:Wind:
Aussen-T/F 2526 06-12-2010 01:22:02 0.1 C 4.34 g/m*3 0.1 C 0 km/h
2527 06-12-2010 01:34:02 0.1 C 4.39 g/m*3 0.1 C 0 km/h
2528 06-12-2010 01:46:01 0.1 C 4.39 g/m*3 0.1 C 0 km/h
2529 06-12-2010 01:58:01 0.1 C 4.39 g/m*3 0.1 C 0 km/h
2530 06-12-2010 02:10:02 0.1 C 4.39 g/m*3 0.1 C 0 km/h
2531 06-12-2010 02:22:01 0.1 C 4.39 g/m*3 0.1 C 0 km/h
2532 06-12-2010 02:34:01 0.1 C 4.39 g/m*3 0.1 C 0 km/h
2533 06-12-2010 02:47:03 0.1 C 4.39 g/m*3 0.1 C 0 km/h
2534 06-12-2010 02:59:03 0.1 C 4.39 g/m*3 0.1 C 0 km/h
2535 06-12-2010 03:11:04 0.1 C 4.39 g/m*3 0.1 C 0 km/h
2536 06-12-2010 03:23:05 0.1 C 4.34 g/m*3 0.1 C 0 km/h
2537 06-12-2010 03:35:02 0.1 C 4.34 g/m*3 0.1 C 0 km/h
2538 06-12-2010 03:47:02 0.1 C 4.34 g/m*3 0.1 C 0 km/h
2539 06-12-2010 03:59:02 0.1 C 4.34 g/m*3 0.1 C 0 km/h
2540 06-12-2010 04:11:02 0.2 C 4.37 g/m*3 0.2 C 0 km/h
2541 06-12-2010 04:23:02 0.2 C 4.42 g/m*3 0.2 C 0 km/h
2542 06-12-2010 04:35:02 0.1 C 4.39 g/m*3 0.1 C 0 km/h
2543 06-12-2010 04:47:02 0.1 C 4.39 g/m*3 0.1 C 0 km/h
2544 06-12-2010 04:59:02 0.1 C 4.34 g/m*3 0.1 C 0 km/h
2545 06-12-2010 05:11:02 0 C 4.31 g/m*3 0 C 0 km/h
2546 06-12-2010 05:23:02 0 C 4.31 g/m*3 0 C 0 km/h
2547 06-12-2010 05:35:02 0.1 C 4.34 g/m*3 0.1 C 0 km/h
2548 06-12-2010 05:47:02 0 C 4.31 g/m*3 0 C 0 km/h
2549 06-12-2010 05:59:02 0.1 C 4.39 g/m*3 0.1 C 0 km/h
2550 06-12-2010 06:11:02 0.1 C 4.39 g/m*3 0.1 C 0 km/h
Sensor: Nr:Datum:Temp:Abs-Feuchte:Windchill:Wind:
Aussen-T/F 2551 06-12-2010 06:23:02 0 C 4.36 g/m*3 0 C 0 km/h
2552 06-12-2010 06:35:02 0 C 4.36 g/m*3 0 C 0 km/h
2553 06-12-2010 06:47:02 0 C 4.36 g/m*3 0 C 0 km/h
2554 06-12-2010 06:59:02 0 C 4.36 g/m*3 0 C 0 km/h
2555 06-12-2010 07:11:01 0 C 4.36 g/m*3 0 C 0 km/h
2556 06-12-2010 07:23:02 0 C 4.36 g/m*3 0 C 0 km/h
2557 06-12-2010 07:35:01 0 C 4.36 g/m*3 0 C 0 km/h
2558 06-12-2010 07:47:02 0 C 4.31 g/m*3 0 C 0 km/h
2559 06-12-2010 07:59:02 0 C 4.31 g/m*3 0 C 0 km/h
2560 06-12-2010 08:11:02 0 C 4.31 g/m*3 0 C 0 km/h
2561 06-12-2010 08:23:02 0 C 4.31 g/m*3 0 C 0 km/h
2562 06-12-2010 08:35:02 0 C 4.31 g/m*3 0 C 0 km/h
2563 06-12-2010 08:47:02 0.1 C 4.29 g/m*3 0.1 C 0 km/h
2564 06-12-2010 08:59:02 0.2 C 4.32 g/m*3 0.2 C 0 km/h
2565 06-12-2010 09:11:02 0.4 C 4.38 g/m*3 0.4 C 0 km/h
2566 06-12-2010 09:23:01 0.7 C 4.37 g/m*3 0.7 C 0 km/h
2567 06-12-2010 09:35:02 0.9 C 4.43 g/m*3 0.9 C 0 km/h
2568 06-12-2010 09:47:02 1.1 C 4.34 g/m*3 1.1 C 0 km/h
2569 06-12-2010 09:59:02 1.1 C 4.34 g/m*3 1.1 C 0 km/h
2570 06-12-2010 10:11:02 1.3 C 4.13 g/m*3 1.3 C 0 km/h
2571 06-12-2010 10:23:01 1.4 C 4.05 g/m*3 1.4 C 0 km/h
2572 06-12-2010 10:35:01 1.4 C 4.05 g/m*3 1.4 C 0 km/h
2573 06-12-2010 10:47:03 1.3 C 3.97 g/m*3 1.3 C 0 km/h
2574 06-12-2010 10:59:03 1.5 C 3.97 g/m*3 1.5 C 0 km/h
2575 06-12-2010 11:11:02 1.5 C 3.97 g/m*3 1.5 C 0 km/h
Sensor: Nr:Datum:Temp:Abs-Feuchte:Windchill:Wind:
Aussen-T/F 2576 06-12-2010 11:23:02 1.7 C 3.97 g/m*3 1.7 C 0 km/h
2577 06-12-2010 11:35:02 2 C 3.95 g/m*3 2 C 0 km/h
2578 06-12-2010 11:47:02 2 C 3.89 g/m*3 2 C 0 km/h
2579 06-12-2010 11:59:02 2.2 C 3.89 g/m*3 2.2 C 0 km/h
2580 06-12-2010 12:11:01 2.2 C 3.83 g/m*3 2.2 C 0 km/h
2581 06-12-2010 12:23:02 2.5 C 3.79 g/m*3 2.5 C 0 km/h
2582 06-12-2010 12:35:02 2.6 C 3.76 g/m*3 2.6 C 0 km/h
2583 06-12-2010 12:47:02 2.3 C 3.69 g/m*3 2.3 C 0 km/h
2584 06-12-2010 12:59:02 2.4 C 3.71 g/m*3 2.4 C 0 km/h
2585 06-12-2010 13:11:03 2.5 C 3.74 g/m*3 2.5 C 0 km/h
2586 06-12-2010 13:23:02 2.5 C 3.68 g/m*3 2.5 C 0 km/h
2587 06-12-2010 13:35:02 2.6 C 3.7 g/m*3 2.6 C 0 km/h
2588 06-12-2010 13:47:01 2.7 C 3.67 g/m*3 2.7 C 0 km/h
2589 06-12-2010 13:59:01 2.4 C 3.6 g/m*3 2.4 C 0 km/h
2590 06-12-2010 14:11:02 2.1 C 3.58 g/m*3 2.1 C 0 km/h
2591 06-12-2010 14:23:01 2.2 C 3.66 g/m*3 2.2 C 0 km/h
2592 06-12-2010 14:35:01 2 C 3.61 g/m*3 2 C 0 km/h
2593 06-12-2010 14:47:01 1.8 C 3.56 g/m*3 1.8 C 0 km/h
2594 06-12-2010 14:59:01 1.4 C 3.52 g/m*3 1.4 C 0 km/h
2595 06-12-2010 15:11:02 1.4 C 3.57 g/m*3 1.4 C 0 km/h
2596 06-12-2010 15:23:02 1.2 C 3.58 g/m*3 1.2 C 0 km/h
2597 06-12-2010 15:35:01 1 C 3.63 g/m*3 1 C 0 km/h
2598 06-12-2010 15:47:01 0.8 C 3.74 g/m*3 0.8 C 0 km/h
2599 06-12-2010 15:59:01 0.4 C 3.74 g/m*3 0.4 C 0 km/h
2600 06-12-2010 16:11:01 0 C 3.68 g/m*3 0 C 0 km/h
Sensor: Nr:Datum:Temp:Abs-Feuchte:Windchill:Wind:
Aussen-T/F 2601 06-12-2010 16:23:02 -0.2 C 3.68 g/m*3 -0.2 C 0 km/h
2602 06-12-2010 16:35:01 -0.3 C 3.7 g/m*3 -0.3 C 0 km/h
2603 06-12-2010 16:47:03 -0.4 C 3.68 g/m*3 -0.4 C 0 km/h
2604 06-12-2010 16:59:03 -0.4 C 3.72 g/m*3 -0.4 C 0 km/h
2605 06-12-2010 17:11:02 -0.5 C 3.7 g/m*3 -0.5 C 0 km/h
2606 06-12-2010 17:23:02 -0.6 C 3.72 g/m*3 -0.6 C 0 km/h
2607 06-12-2010 17:35:02 -0.7 C 3.74 g/m*3 -0.7 C 0 km/h
2608 06-12-2010 17:47:02 -0.8 C 3.71 g/m*3 -0.8 C 0 km/h
2609 06-12-2010 17:59:03 -0.8 C 3.76 g/m*3 -0.8 C 0 km/h
2610 06-12-2010 18:11:01 -1.1 C 3.68 g/m*3 -1.1 C 0 km/h
2611 06-12-2010 18:23:02 -1 C 3.75 g/m*3 -1 C 0 km/h
2612 06-12-2010 18:35:02 -0.8 C 3.8 g/m*3 -0.8 C 0 km/h
2613 06-12-2010 18:47:02 -0.7 C 3.83 g/m*3 -0.7 C 0 km/h
2614 06-12-2010 18:59:02 -0.9 C 3.73 g/m*3 -0.9 C 0 km/h
2615 06-12-2010 19:11:03 -0.8 C 3.76 g/m*3 -0.8 C 0 km/h
2616 06-12-2010 19:23:02 -0.9 C 3.73 g/m*3 -0.9 C 0 km/h
2617 06-12-2010 19:35:02 -0.8 C 3.76 g/m*3 -0.8 C 0 km/h
2618 06-12-2010 19:47:01 -0.9 C 3.73 g/m*3 -0.9 C 0 km/h
2619 06-12-2010 19:59:01 -0.8 C 3.76 g/m*3 -0.8 C 0 km/h
2620 06-12-2010 20:11:02 -1 C 3.71 g/m*3 -1 C 0 km/h
2621 06-12-2010 20:23:01 -1.2 C 3.66 g/m*3 -1.2 C 0 km/h
2622 06-12-2010 20:35:02 -1.1 C 3.68 g/m*3 -1.1 C 0 km/h
2623 06-12-2010 20:47:02 -1.2 C 3.66 g/m*3 -1.2 C 0 km/h
2624 06-12-2010 20:59:02 -1.2 C 3.66 g/m*3 -1.2 C 0 km/h
2625 06-12-2010 21:11:02 -1.3 C 3.63 g/m*3 -1.3 C 0 km/h
Sensor: Nr:Datum:Temp:Abs-Feuchte:Windchill:Wind:
Aussen-T/F 2626 06-12-2010 21:23:02 -1.3 C 3.63 g/m*3 -1.3 C 0 km/h
2627 06-12-2010 21:36:02 -1.2 C 3.66 g/m*3 -1.2 C 0 km/h
2628 06-12-2010 21:48:02 -1.3 C 3.63 g/m*3 -1.3 C 0 km/h
2629 06-12-2010 22:00:02 -1.5 C 3.58 g/m*3 -1.5 C 0 km/h
2630 06-12-2010 22:12:02 -1.4 C 3.65 g/m*3 -1.4 C 0 km/h
2631 06-12-2010 22:24:02 -1.3 C 3.67 g/m*3 -1.3 C 0 km/h
2632 06-12-2010 22:36:02 -1.1 C 3.73 g/m*3 -1.1 C 0 km/h
2633 06-12-2010 22:48:02 -0.9 C 3.78 g/m*3 -0.9 C 0 km/h
2634 06-12-2010 23:00:02 -0.8 C 3.76 g/m*3 -0.8 C 0 km/h
2635 06-12-2010 23:12:02 -0.6 C 3.81 g/m*3 -0.6 C 0 km/h
2636 06-12-2010 23:24:02 -0.5 C 3.79 g/m*3 -0.5 C 0 km/h
2637 06-12-2010 23:36:03 -0.6 C 3.72 g/m*3 -0.6 C 0 km/h
2638 06-12-2010 23:48:03 -0.9 C 3.64 g/m*3 -0.9 C 0 km/h
2639 07-12-2010 00:00:03 -0.8 C 3.67 g/m*3 -0.8 C 0 km/h
2640 07-12-2010 00:12:03 -0.8 C 3.67 g/m*3 -0.8 C 0 km/h
2641 07-12-2010 00:24:03 -0.9 C 3.64 g/m*3 -0.9 C 0 km/h
2642 07-12-2010 00:36:03 -1.4 C 3.47 g/m*3 -1.4 C 0 km/h
2643 07-12-2010 00:48:03 -1.4 C 3.56 g/m*3 -1.4 C 0 km/h
2644 07-12-2010 01:00:03 -1.4 C 3.6 g/m*3 -1.4 C 0 km/h
2645 07-12-2010 01:12:03 -1.4 C 3.6 g/m*3 -1.4 C 0 km/h
2646 07-12-2010 01:24:03 -1.4 C 3.6 g/m*3 -1.4 C 0 km/h
2647 07-12-2010 01:36:03 -0.9 C 3.78 g/m*3 -0.9 C 0 km/h
2648 07-12-2010 01:48:03 -0.7 C 3.83 g/m*3 -0.7 C 0 km/h
2649 07-12-2010 02:00:03 -0.6 C 3.81 g/m*3 -0.6 C 0 km/h
2650 07-12-2010 02:12:03 -0.5 C 3.79 g/m*3 -0.5 C 0 km/h
Sensor: Nr:Datum:Temp:Abs-Feuchte:Windchill:Wind:
Aussen-T/F 2651 07-12-2010 02:24:03 -0.5 C 3.79 g/m*3 -0.5 C 0 km/h
2652 07-12-2010 02:36:03 -0.6 C 3.72 g/m*3 -0.6 C 0 km/h
2653 07-12-2010 02:48:03 -0.6 C 3.72 g/m*3 -0.6 C 0 km/h
2654 07-12-2010 03:00:03 -0.5 C 3.74 g/m*3 -0.5 C 0 km/h
2655 07-12-2010 03:12:03 -0.5 C 3.74 g/m*3 -0.5 C 0 km/h
2656 07-12-2010 03:24:03 -0.6 C 3.72 g/m*3 -0.6 C 0 km/h
2657 07-12-2010 03:36:03 -0.6 C 3.72 g/m*3 -0.6 C 0 km/h
2658 07-12-2010 03:48:03 -0.6 C 3.72 g/m*3 -0.6 C 0 km/h
2659 07-12-2010 04:00:04 -0.6 C 3.76 g/m*3 -0.6 C 0 km/h
2660 07-12-2010 04:12:04 -0.7 C 3.69 g/m*3 -0.7 C 0 km/h
2661 07-12-2010 04:24:04 -0.7 C 3.69 g/m*3 -0.7 C 0 km/h
2662 07-12-2010 04:36:04 -0.9 C 3.64 g/m*3 -0.9 C 0 km/h
2663 07-12-2010 04:48:04 -0.8 C 3.71 g/m*3 -0.8 C 0 km/h
2664 07-12-2010 05:00:04 -1 C 3.66 g/m*3 -1 C 0 km/h
2665 07-12-2010 05:12:04 -1 C 3.66 g/m*3 -1 C 0 km/h
2666 07-12-2010 05:24:04 -0.9 C 3.69 g/m*3 -0.9 C 0 km/h
2667 07-12-2010 05:36:04 -0.9 C 3.69 g/m*3 -0.9 C 0 km/h
2668 07-12-2010 05:48:04 -0.9 C 3.69 g/m*3 -0.9 C 0 km/h
2669 07-12-2010 06:00:04 -0.8 C 3.71 g/m*3 -0.8 C 0 km/h
2670 07-12-2010 06:12:04 -0.7 C 3.69 g/m*3 -0.7 C 0 km/h
2671 07-12-2010 06:24:04 -0.7 C 3.69 g/m*3 -0.7 C 0 km/h
2672 07-12-2010 06:36:04 -0.8 C 3.67 g/m*3 -0.8 C 0 km/h
2673 07-12-2010 06:48:04 -0.9 C 3.64 g/m*3 -0.9 C 0 km/h
2674 07-12-2010 07:00:04 -1 C 3.57 g/m*3 -1 C 0 km/h
2675 07-12-2010 07:12:04 -1 C 3.57 g/m*3 -1 C 0 km/h
Sensor: Nr:Datum:Temp:Abs-Feuchte:Windchill:Wind:
Aussen-T/F 2676 07-12-2010 07:24:01 -1 C 3.57 g/m*3 -1 C 0 km/h
2677 07-12-2010 07:36:02 -1 C 3.57 g/m*3 -1 C 0 km/h
2678 07-12-2010 07:48:02 -1 C 3.57 g/m*3 -1 C 0 km/h
2679 07-12-2010 08:00:02 -1 C 3.57 g/m*3 -1 C 0 km/h
2680 07-12-2010 08:12:02 -0.9 C 3.6 g/m*3 -0.9 C 0 km/h
2681 07-12-2010 08:24:02 -0.9 C 3.6 g/m*3 -0.9 C 0 km/h
2682 07-12-2010 08:36:02 -0.8 C 3.62 g/m*3 -0.8 C 0 km/h
2683 07-12-2010 08:48:02 -0.6 C 3.63 g/m*3 -0.6 C 0 km/h
2684 07-12-2010 09:00:02 -0.6 C 3.63 g/m*3 -0.6 C 0 km/h
2685 07-12-2010 09:12:02 -0.5 C 3.65 g/m*3 -0.5 C 0 km/h
2686 07-12-2010 09:24:02 -0.5 C 3.56 g/m*3 -0.5 C 0 km/h
2687 07-12-2010 09:36:02 -0.3 C 3.61 g/m*3 -0.3 C 0 km/h
2688 07-12-2010 09:48:02 -0.1 C 3.61 g/m*3 -0.1 C 0 km/h
2689 07-12-2010 10:00:02 0.2 C 3.64 g/m*3 0.2 C 0 km/h
2690 07-12-2010 10:12:01 0.1 C 3.56 g/m*3 0.1 C 0 km/h
2691 07-12-2010 10:24:02 0.1 C 3.61 g/m*3 0.1 C 0 km/h
2692 07-12-2010 10:36:02 0.3 C 3.61 g/m*3 0.3 C 0 km/h
2693 07-12-2010 10:48:01 0.2 C 3.59 g/m*3 0.2 C 0 km/h
2694 07-12-2010 11:00:02 0.2 C 3.59 g/m*3 0.2 C 0 km/h
2695 07-12-2010 11:12:01 0.5 C 3.61 g/m*3 0.5 C 0 km/h
2696 07-12-2010 11:24:01 0.3 C 3.51 g/m*3 0.3 C 0 km/h
2697 07-12-2010 11:36:02 0.8 C 3.69 g/m*3 0.8 C 0 km/h
2698 07-12-2010 11:48:02 1 C 3.63 g/m*3 1 C 0 km/h
2699 07-12-2010 12:00:02 1 C 3.63 g/m*3 1 C 0 km/h
2700 07-12-2010 12:12:02 0.7 C 3.56 g/m*3 0.7 C 0 km/h
Sensor: Nr:Datum:Temp:Abs-Feuchte:Windchill:Wind:
Aussen-T/F 2701 07-12-2010 12:24:02 1 C 3.63 g/m*3 1 C 0 km/h
2702 07-12-2010 12:36:02 1.3 C 3.66 g/m*3 1.3 C 0 km/h
2703 07-12-2010 12:48:02 1.6 C 3.68 g/m*3 1.6 C 0 km/h
2704 07-12-2010 13:00:02 2.1 C 3.58 g/m*3 2.1 C 0 km/h
2705 07-12-2010 13:12:02 1.2 C 3.58 g/m*3 1.2 C 0 km/h
2706 07-12-2010 13:24:02 1.5 C 3.71 g/m*3 1.5 C 0 km/h
2707 07-12-2010 13:36:02 1.2 C 3.58 g/m*3 1.2 C 0 km/h
2708 07-12-2010 13:48:02 1.2 C 3.58 g/m*3 1.2 C 0 km/h
2709 07-12-2010 14:00:02 1.2 C 3.58 g/m*3 1.2 C 0 km/h
2710 07-12-2010 14:12:02 1.2 C 3.63 g/m*3 1.2 C 0 km/h
2711 07-12-2010 14:24:02 1.3 C 3.71 g/m*3 1.3 C 0 km/h
2712 07-12-2010 14:36:02 0.9 C 3.71 g/m*3 0.9 C 0 km/h
2713 07-12-2010 14:48:02 0.7 C 3.71 g/m*3 0.7 C 0 km/h
2714 07-12-2010 15:00:02 0.7 C 3.76 g/m*3 0.7 C 0 km/h
2715 07-12-2010 15:12:02 0.6 C 3.74 g/m*3 0.6 C 0 km/h
2716 07-12-2010 15:24:02 0.4 C 3.79 g/m*3 0.4 C 0 km/h
2717 07-12-2010 15:36:02 0.2 C 3.83 g/m*3 0.2 C 0 km/h
2718 07-12-2010 15:48:02 0.1 C 3.9 g/m*3 0.1 C 0 km/h
2719 07-12-2010 16:00:02 0 C 3.97 g/m*3 0 C 0 km/h
2720 07-12-2010 16:12:01 -0.2 C 4.01 g/m*3 -0.2 C 0 km/h
2721 07-12-2010 16:24:02 -0.3 C 4.03 g/m*3 -0.3 C 0 km/h
2722 07-12-2010 16:36:02 -0.3 C 4.13 g/m*3 -0.3 C 0 km/h
2723 07-12-2010 16:48:02 -0.3 C 4.13 g/m*3 -0.3 C 0 km/h
2724 07-12-2010 17:00:02 -0.3 C 4.18 g/m*3 -0.3 C 0 km/h
2725 07-12-2010 17:12:03 -0.3 C 4.18 g/m*3 -0.3 C 0 km/h
Sensor: Nr:Datum:Temp:Abs-Feuchte:Windchill:Wind:
Aussen-T/F 2726 07-12-2010 17:24:02 -0.3 C 4.22 g/m*3 -0.3 C 0 km/h
2727 07-12-2010 17:36:02 -0.3 C 4.22 g/m*3 -0.3 C 0 km/h
2728 07-12-2010 17:48:01 -0.3 C 4.22 g/m*3 -0.3 C 0 km/h
2729 07-12-2010 18:00:01 -0.3 C 4.22 g/m*3 -0.3 C 0 km/h
2730 07-12-2010 18:12:02 -0.3 C 4.22 g/m*3 -0.3 C 0 km/h
2731 07-12-2010 18:24:01 -0.3 C 4.27 g/m*3 -0.3 C 0 km/h
2732 07-12-2010 18:36:02 -0.2 C 4.3 g/m*3 -0.2 C 0 km/h
2733 07-12-2010 18:48:01 -0.2 C 4.3 g/m*3 -0.2 C 0 km/h
2734 07-12-2010 19:00:01 -0.2 C 4.3 g/m*3 -0.2 C 0 km/h
2735 07-12-2010 19:12:02 -0.2 C 4.3 g/m*3 -0.2 C 0 km/h
2736 07-12-2010 19:24:02 -0.2 C 4.3 g/m*3 -0.2 C 0 km/h
2737 07-12-2010 19:36:01 -0.2 C 4.3 g/m*3 -0.2 C 0 km/h
2738 07-12-2010 19:48:02 -0.2 C 4.35 g/m*3 -0.2 C 0 km/h
2739 07-12-2010 20:00:02 -0.1 C 4.38 g/m*3 -0.1 C 0 km/h
2740 07-12-2010 20:12:01 -0.2 C 4.35 g/m*3 -0.2 C 0 km/h
2741 07-12-2010 20:24:02 -0.2 C 4.35 g/m*3 -0.2 C 0 km/h
2742 07-12-2010 20:36:01 -0.2 C 4.35 g/m*3 -0.2 C 0 km/h
2743 07-12-2010 20:48:02 -0.1 C 4.38 g/m*3 -0.1 C 0 km/h
2744 07-12-2010 21:00:02 -0.2 C 4.35 g/m*3 -0.2 C 0 km/h
2745 07-12-2010 21:12:01 -0.2 C 4.35 g/m*3 -0.2 C 0 km/h
2746 07-12-2010 21:24:01 -0.2 C 4.35 g/m*3 -0.2 C 0 km/h
2747 07-12-2010 21:36:01 -0.2 C 4.35 g/m*3 -0.2 C 0 km/h
2748 07-12-2010 21:48:02 -0.2 C 4.4 g/m*3 -0.2 C 0 km/h
2749 07-12-2010 22:00:03 -0.1 C 4.43 g/m*3 -0.1 C 0 km/h
2750 07-12-2010 22:12:02 -0.2 C 4.4 g/m*3 -0.2 C 0 km/h
Sensor: Nr:Datum:Temp:Abs-Feuchte:Windchill:Wind:
Aussen-T/F 2751 07-12-2010 22:25:02 -0.2 C 4.4 g/m*3 -0.2 C 0 km/h
2752 07-12-2010 22:37:02 -0.2 C 4.4 g/m*3 -0.2 C 0 km/h
2753 07-12-2010 22:49:02 -0.2 C 4.4 g/m*3 -0.2 C 0 km/h
2754 07-12-2010 23:01:02 -0.2 C 4.4 g/m*3 -0.2 C 0 km/h
2755 07-12-2010 23:13:02 -0.2 C 4.4 g/m*3 -0.2 C 0 km/h
2756 07-12-2010 23:25:02 -0.2 C 4.4 g/m*3 -0.2 C 0 km/h
2757 07-12-2010 23:37:02 -0.2 C 4.4 g/m*3 -0.2 C 0 km/h
2758 07-12-2010 23:49:02 -0.2 C 4.4 g/m*3 -0.2 C 0 km/h
2759 08-12-2010 00:01:02 -0.2 C 4.4 g/m*3 -0.2 C 0 km/h
2760 08-12-2010 00:13:02 -0.2 C 4.4 g/m*3 -0.2 C 0 km/h
2761 08-12-2010 00:25:02 -0.2 C 4.4 g/m*3 -0.2 C 0 km/h
2762 08-12-2010 00:37:02 -0.2 C 4.4 g/m*3 -0.2 C 0 km/h
2763 08-12-2010 00:49:02 -0.2 C 4.4 g/m*3 -0.2 C 0 km/h
2764 08-12-2010 01:01:02 -0.2 C 4.4 g/m*3 -0.2 C 0 km/h
2765 08-12-2010 01:13:02 -0.2 C 4.4 g/m*3 -0.2 C 0 km/h
2766 08-12-2010 01:25:02 -0.2 C 4.4 g/m*3 -0.2 C 0 km/h
2767 08-12-2010 01:37:03 -0.2 C 4.4 g/m*3 -0.2 C 0 km/h
2768 08-12-2010 01:49:03 -0.2 C 4.4 g/m*3 -0.2 C 0 km/h
2769 08-12-2010 02:01:03 -0.2 C 4.4 g/m*3 -0.2 C 0 km/h
2770 08-12-2010 02:13:03 -0.1 C 4.43 g/m*3 -0.1 C 0 km/h
2771 08-12-2010 02:25:03 -0.1 C 4.43 g/m*3 -0.1 C 0 km/h
2772 08-12-2010 02:37:03 -0.2 C 4.4 g/m*3 -0.2 C 0 km/h
2773 08-12-2010 02:49:03 -0.2 C 4.4 g/m*3 -0.2 C 0 km/h
2774 08-12-2010 03:01:03 -0.2 C 4.4 g/m*3 -0.2 C 0 km/h
2775 08-12-2010 03:13:03 -0.2 C 4.4 g/m*3 -0.2 C 0 km/h
Sensor: Nr:Datum:Temp:Abs-Feuchte:Windchill:Wind:
Aussen-T/F 2776 08-12-2010 03:25:03 -0.2 C 4.4 g/m*3 -0.2 C 0 km/h
2777 08-12-2010 03:37:03 -0.2 C 4.4 g/m*3 -0.2 C 0 km/h
2778 08-12-2010 03:49:03 -0.1 C 4.43 g/m*3 -0.1 C 0 km/h
2779 08-12-2010 04:01:03 -0.1 C 4.43 g/m*3 -0.1 C 0 km/h
2780 08-12-2010 04:13:03 -0.1 C 4.43 g/m*3 -0.1 C 0 km/h
2781 08-12-2010 04:25:03 -0.1 C 4.43 g/m*3 -0.1 C 0 km/h
2782 08-12-2010 04:37:03 -0.1 C 4.43 g/m*3 -0.1 C 0 km/h
2783 08-12-2010 04:49:03 0 C 4.46 g/m*3 0 C 0 km/h
2784 08-12-2010 05:01:03 -0.1 C 4.43 g/m*3 -0.1 C 0 km/h
2785 08-12-2010 05:13:03 0 C 4.46 g/m*3 0 C 0 km/h
2786 08-12-2010 05:25:03 -0.1 C 4.47 g/m*3 -0.1 C 0 km/h
2787 08-12-2010 05:37:03 -0.1 C 4.47 g/m*3 -0.1 C 0 km/h
2788 08-12-2010 05:49:03 -0.1 C 4.47 g/m*3 -0.1 C 0 km/h
2789 08-12-2010 06:01:04 -0.1 C 4.47 g/m*3 -0.1 C 0 km/h
2790 08-12-2010 06:13:04 0 C 4.51 g/m*3 0 C 0 km/h
2791 08-12-2010 06:25:04 -0.1 C 4.47 g/m*3 -0.1 C 0 km/h
2792 08-12-2010 06:37:04 0 C 4.51 g/m*3 0 C 0 km/h
2793 08-12-2010 06:49:04 -0.1 C 4.47 g/m*3 -0.1 C 0 km/h
2794 08-12-2010 07:01:04 0 C 4.51 g/m*3 0 C 0 km/h
2795 08-12-2010 07:13:04 -0.1 C 4.47 g/m*3 -0.1 C 0 km/h
2796 08-12-2010 07:25:04 0 C 4.51 g/m*3 0 C 0 km/h
2797 08-12-2010 07:37:04 0 C 4.51 g/m*3 0 C 0 km/h
2798 08-12-2010 07:49:04 0 C 4.51 g/m*3 0 C 0 km/h
2799 08-12-2010 08:01:04 0 C 4.51 g/m*3 0 C 0 km/h
2800 08-12-2010 08:13:04 0 C 4.51 g/m*3 0 C 0 km/h
Sensor: Nr:Datum:Temp:Abs-Feuchte:Windchill:Wind:
Aussen-T/F 2801 08-12-2010 08:25:04 0 C 4.51 g/m*3 0 C 0 km/h
2802 08-12-2010 08:37:04 0 C 4.51 g/m*3 0 C 0 km/h
2803 08-12-2010 08:49:04 0 C 4.51 g/m*3 0 C 0 km/h
2804 08-12-2010 09:01:01 0.1 C 4.54 g/m*3 0.1 C 0 km/h
2805 08-12-2010 09:13:01 0.1 C 4.54 g/m*3 0.1 C 0 km/h
2806 08-12-2010 09:25:02 0.1 C 4.54 g/m*3 0.1 C 0 km/h
2807 08-12-2010 09:37:01 0.1 C 4.54 g/m*3 0.1 C 0 km/h
2808 08-12-2010 09:49:02 0 C 4.51 g/m*3 0 C 0 km/h
2809 08-12-2010 10:01:02 0.1 C 4.54 g/m*3 0.1 C 0 km/h
2810 08-12-2010 10:13:02 0.1 C 4.54 g/m*3 0.1 C 0 km/h
2811 08-12-2010 10:25:02 0.2 C 4.57 g/m*3 0.2 C 0 km/h
2812 08-12-2010 10:37:02 0.2 C 4.57 g/m*3 0.2 C 0 km/h
2813 08-12-2010 10:49:02 0.3 C 4.6 g/m*3 0.3 C 0 km/h
2814 08-12-2010 11:01:02 0.3 C 4.65 g/m*3 0.3 C 0 km/h
2815 08-12-2010 11:13:02 0.3 C 4.65 g/m*3 0.3 C 0 km/h
2816 08-12-2010 11:25:01 0.4 C 4.63 g/m*3 0.4 C 0 km/h
2817 08-12-2010 11:37:02 0.3 C 4.6 g/m*3 0.3 C 0 km/h
2818 08-12-2010 11:49:02 0.4 C 4.63 g/m*3 0.4 C 0 km/h
2819 08-12-2010 12:01:02 0.5 C 4.66 g/m*3 0.5 C 0 km/h
2820 08-12-2010 12:13:02 0.6 C 4.7 g/m*3 0.6 C 0 km/h
2821 08-12-2010 12:25:02 0.5 C 4.66 g/m*3 0.5 C 0 km/h
2822 08-12-2010 12:37:02 0.6 C 4.7 g/m*3 0.6 C 0 km/h
2823 08-12-2010 12:49:02 0.6 C 4.65 g/m*3 0.6 C 0 km/h
2824 08-12-2010 13:01:02 0.5 C 4.61 g/m*3 0.5 C 0 km/h
2825 08-12-2010 13:13:02 0.6 C 4.6 g/m*3 0.6 C 0 km/h
Sensor: Nr:Datum:Temp:Abs-Feuchte:Windchill:Wind:
Aussen-T/F 2826 08-12-2010 13:25:02 0.7 C 4.63 g/m*3 0.7 C 0 km/h
2827 08-12-2010 13:37:02 0.7 C 4.58 g/m*3 0.7 C 0 km/h
2828 08-12-2010 13:49:01 0.6 C 4.49 g/m*3 0.6 C 0 km/h
2829 08-12-2010 14:01:01 0.6 C 4.49 g/m*3 0.6 C 0 km/h
2830 08-12-2010 14:13:01 0.4 C 4.43 g/m*3 0.4 C 0 km/h
2831 08-12-2010 14:25:01 0.4 C 4.43 g/m*3 0.4 C 0 km/h
2832 08-12-2010 14:37:01 0.4 C 4.43 g/m*3 0.4 C 0 km/h
2833 08-12-2010 14:49:01 0.3 C 4.4 g/m*3 0.3 C 0 km/h
2834 08-12-2010 15:01:01 0.2 C 4.37 g/m*3 0.2 C 0 km/h
2835 08-12-2010 15:13:01 0 C 4.31 g/m*3 0 C 0 km/h
2836 08-12-2010 15:25:02 -0.1 C 4.28 g/m*3 -0.1 C 0 km/h
2837 08-12-2010 15:37:01 -0.2 C 4.25 g/m*3 -0.2 C 0 km/h
2838 08-12-2010 15:49:03 -0.3 C 4.22 g/m*3 -0.3 C 0 km/h
2839 08-12-2010 16:01:02 -0.3 C 4.22 g/m*3 -0.3 C 0 km/h
2840 08-12-2010 16:13:02 -0.3 C 4.27 g/m*3 -0.3 C 0 km/h
2841 08-12-2010 16:25:03 -0.3 C 4.27 g/m*3 -0.3 C 0 km/h
2842 08-12-2010 16:37:02 -0.3 C 4.27 g/m*3 -0.3 C 0 km/h
2843 08-12-2010 16:49:02 -0.3 C 4.27 g/m*3 -0.3 C 0 km/h
2844 08-12-2010 17:01:02 -0.3 C 4.27 g/m*3 -0.3 C 0 km/h
2845 08-12-2010 17:13:02 -0.3 C 4.27 g/m*3 -0.3 C 0 km/h
2846 08-12-2010 17:25:02 -0.3 C 4.27 g/m*3 -0.3 C 0 km/h
2847 08-12-2010 17:37:02 -0.3 C 4.27 g/m*3 -0.3 C 0 km/h
2848 08-12-2010 17:49:02 -0.6 C 4.14 g/m*3 -0.6 C 0 km/h
2849 08-12-2010 18:01:01 -0.7 C 4.11 g/m*3 -0.7 C 0 km/h
2850 08-12-2010 18:13:01 -0.7 C 4.11 g/m*3 -0.7 C 0 km/h
Sensor: Nr:Datum:Temp:Abs-Feuchte:Windchill:Wind:
Aussen-T/F 2851 08-12-2010 18:25:01 -0.7 C 4.11 g/m*3 -0.7 C 0 km/h
2852 08-12-2010 18:37:02 -0.8 C 4.08 g/m*3 -0.8 C 0 km/h
2853 08-12-2010 18:49:02 -0.8 C 4.08 g/m*3 -0.8 C 0 km/h
2854 08-12-2010 19:01:02 -0.8 C 4.08 g/m*3 -0.8 C 0 km/h
2855 08-12-2010 19:13:02 -0.8 C 4.08 g/m*3 -0.8 C 0 km/h
2856 08-12-2010 19:25:02 -1 C 4.02 g/m*3 -1 C 0 km/h
2857 08-12-2010 19:37:02 -1 C 4.02 g/m*3 -1 C 0 km/h
2858 08-12-2010 19:49:01 -1 C 4.07 g/m*3 -1 C 0 km/h
2859 08-12-2010 20:01:01 -1 C 4.07 g/m*3 -1 C 0 km/h
2860 08-12-2010 20:13:01 -1 C 4.02 g/m*3 -1 C 0 km/h
2861 08-12-2010 20:25:01 -1.1 C 4 g/m*3 -1.1 C 0 km/h
2862 08-12-2010 20:37:02 -1.1 C 4 g/m*3 -1.1 C 0 km/h
2863 08-12-2010 20:49:02 -1.1 C 4 g/m*3 -1.1 C 0 km/h
2864 08-12-2010 21:01:02 -1.2 C 3.97 g/m*3 -1.2 C 0 km/h
2865 08-12-2010 21:13:02 -1.2 C 3.97 g/m*3 -1.2 C 0 km/h
2866 08-12-2010 21:25:02 -1.2 C 3.97 g/m*3 -1.2 C 0 km/h
2867 08-12-2010 21:37:02 -1.3 C 3.9 g/m*3 -1.3 C 0 km/h
2868 08-12-2010 21:49:02 -1.3 C 3.9 g/m*3 -1.3 C 0 km/h
2869 08-12-2010 22:01:02 -1.4 C 3.87 g/m*3 -1.4 C 0 km/h
2870 08-12-2010 22:13:02 -1.4 C 3.82 g/m*3 -1.4 C 0 km/h
2871 08-12-2010 22:25:02 -1.4 C 3.82 g/m*3 -1.4 C 0 km/h
2872 08-12-2010 22:38:04 -1.5 C 3.8 g/m*3 -1.5 C 0 km/h
2873 08-12-2010 22:50:04 -1.5 C 3.8 g/m*3 -1.5 C 0 km/h
2874 08-12-2010 23:02:04 -1.3 C 3.81 g/m*3 -1.3 C 0 km/h
2875 08-12-2010 23:14:04 -1.3 C 3.76 g/m*3 -1.3 C 0 km/h
Sensor: Nr:Datum:Temp:Abs-Feuchte:Windchill:Wind:
Aussen-T/F 2876 08-12-2010 23:26:04 -1.3 C 3.72 g/m*3 -1.3 C 0 km/h
2877 08-12-2010 23:38:04 -1.3 C 3.72 g/m*3 -1.3 C 0 km/h
2878 08-12-2010 23:50:04 -1.3 C 3.67 g/m*3 -1.3 C 0 km/h
2879 09-12-2010 00:02:04 -1.3 C 3.67 g/m*3 -1.3 C 0 km/h
2880 09-12-2010 00:14:04 -1.3 C 3.67 g/m*3 -1.3 C 0 km/h
2881 09-12-2010 00:26:04 -1.3 C 3.67 g/m*3 -1.3 C 0 km/h
2882 09-12-2010 00:38:04 -1.3 C 3.63 g/m*3 -1.3 C 0 km/h
2883 09-12-2010 00:50:05 -1.4 C 3.56 g/m*3 -1.4 C 0 km/h
2884 09-12-2010 01:02:05 -1.4 C 3.56 g/m*3 -1.4 C 0 km/h
2885 09-12-2010 01:14:05 -1.5 C 3.58 g/m*3 -1.5 C 0 km/h
2886 09-12-2010 01:26:05 -1.5 C 3.58 g/m*3 -1.5 C 0 km/h
2887 09-12-2010 01:38:05 -1.6 C 3.55 g/m*3 -1.6 C 0 km/h
2888 09-12-2010 01:50:05 -1.6 C 3.51 g/m*3 -1.6 C 0 km/h
2889 09-12-2010 02:02:05 -1.7 C 3.53 g/m*3 -1.7 C 0 km/h
2890 09-12-2010 02:14:05 -1.7 C 3.49 g/m*3 -1.7 C 0 km/h
2891 09-12-2010 02:26:05 -1.8 C 3.51 g/m*3 -1.8 C 0 km/h
2892 09-12-2010 02:38:05 -1.7 C 3.62 g/m*3 -1.7 C 0 km/h
2893 09-12-2010 02:50:05 -1.8 C 3.63 g/m*3 -1.8 C 0 km/h
2894 09-12-2010 03:02:05 -1.7 C 3.7 g/m*3 -1.7 C 0 km/h
2895 09-12-2010 03:14:05 -1.7 C 3.7 g/m*3 -1.7 C 0 km/h
2896 09-12-2010 03:26:05 -1.7 C 3.7 g/m*3 -1.7 C 0 km/h
2897 09-12-2010 03:38:05 -1.7 C 3.7 g/m*3 -1.7 C 0 km/h
2898 09-12-2010 03:50:05 -1.7 C 3.66 g/m*3 -1.7 C 0 km/h
2899 09-12-2010 04:02:05 -1.6 C 3.68 g/m*3 -1.6 C 0 km/h
2900 09-12-2010 04:14:05 -1.4 C 3.78 g/m*3 -1.4 C 0 km/h
Sensor: Nr:Datum:Temp:Abs-Feuchte:Windchill:Wind:
Aussen-T/F 2901 09-12-2010 04:26:05 -1.6 C 3.73 g/m*3 -1.6 C 0 km/h
2902 09-12-2010 04:38:05 -1.7 C 3.7 g/m*3 -1.7 C 0 km/h
2903 09-12-2010 04:50:05 -1.8 C 3.72 g/m*3 -1.8 C 0 km/h
2904 09-12-2010 05:02:05 -1.9 C 3.69 g/m*3 -1.9 C 0 km/h
2905 09-12-2010 05:14:05 -1.2 C 3.88 g/m*3 -1.2 C 0 km/h
2906 09-12-2010 05:26:06 -0.8 C 3.9 g/m*3 -0.8 C 0 km/h
2907 09-12-2010 05:38:06 -0.7 C 3.88 g/m*3 -0.7 C 0 km/h
2908 09-12-2010 05:50:06 -0.6 C 3.86 g/m*3 -0.6 C 0 km/h
2909 09-12-2010 06:02:06 -0.7 C 3.83 g/m*3 -0.7 C 0 km/h
2910 09-12-2010 06:14:06 -0.5 C 3.88 g/m*3 -0.5 C 0 km/h
2911 09-12-2010 06:26:06 -0.3 C 3.94 g/m*3 -0.3 C 0 km/h
2912 09-12-2010 06:38:06 -0.3 C 3.94 g/m*3 -0.3 C 0 km/h
2913 09-12-2010 06:50:06 -0.3 C 3.89 g/m*3 -0.3 C 0 km/h
2914 09-12-2010 07:02:06 -0.3 C 3.94 g/m*3 -0.3 C 0 km/h
2915 09-12-2010 07:14:06 -0.3 C 3.94 g/m*3 -0.3 C 0 km/h
2916 09-12-2010 07:26:06 -0.3 C 3.94 g/m*3 -0.3 C 0 km/h
2917 09-12-2010 07:38:03 -0.3 C 3.94 g/m*3 -0.3 C 0 km/h
2918 09-12-2010 07:50:02 -0.2 C 4.01 g/m*3 -0.2 C 0 km/h
2919 09-12-2010 08:02:02 -0.3 C 3.99 g/m*3 -0.3 C 0 km/h
2920 09-12-2010 08:14:02 -0.2 C 3.97 g/m*3 -0.2 C 0 km/h
2921 09-12-2010 08:26:01 -0.3 C 3.94 g/m*3 -0.3 C 0 km/h
2922 09-12-2010 08:38:02 -0.5 C 3.84 g/m*3 -0.5 C 0 km/h
2923 09-12-2010 08:50:02 -0.6 C 3.81 g/m*3 -0.6 C 0 km/h
2924 09-12-2010 09:02:02 -0.3 C 3.89 g/m*3 -0.3 C 0 km/h
2925 09-12-2010 09:14:02 -0.2 C 3.92 g/m*3 -0.2 C 0 km/h
Sensor: Nr:Datum:Temp:Abs-Feuchte:Windchill:Wind:
Aussen-T/F 2926 09-12-2010 09:26:02 0 C 3.92 g/m*3 0 C 0 km/h
2927 09-12-2010 09:38:02 0.2 C 3.98 g/m*3 0.2 C 0 km/h
2928 09-12-2010 09:50:02 -0.1 C 3.95 g/m*3 -0.1 C 0 km/h
2929 09-12-2010 10:02:02 0.1 C 4.05 g/m*3 0.1 C 0 km/h
2930 09-12-2010 10:14:02 0.2 C 4.03 g/m*3 0.2 C 0 km/h
2931 09-12-2010 10:26:02 0.3 C 4.01 g/m*3 0.3 C 0 km/h
2932 09-12-2010 10:38:02 0.6 C 3.99 g/m*3 0.6 C 0 km/h
2933 09-12-2010 10:50:02 0.4 C 3.93 g/m*3 0.4 C 0 km/h
2934 09-12-2010 11:02:02 0.7 C 4.02 g/m*3 0.7 C 0 km/h
2935 09-12-2010 11:14:02 0.7 C 4.02 g/m*3 0.7 C 0 km/h
2936 09-12-2010 11:26:02 0.7 C 4.07 g/m*3 0.7 C 0 km/h
2937 09-12-2010 11:38:02 1 C 4.1 g/m*3 1 C 0 km/h
2938 09-12-2010 11:50:02 0.9 C 4.12 g/m*3 0.9 C 0 km/h
2939 09-12-2010 12:02:02 1.4 C 4.21 g/m*3 1.4 C 0 km/h
2940 09-12-2010 12:14:02 2.2 C 4.22 g/m*3 2.2 C 0 km/h
2941 09-12-2010 12:26:02 2.4 C 4.11 g/m*3 2.4 C 0 km/h
2942 09-12-2010 12:38:01 2.7 C 3.96 g/m*3 2.7 C 0 km/h
2943 09-12-2010 12:50:02 2.2 C 3.83 g/m*3 2.2 C 0 km/h
2944 09-12-2010 13:02:01 1.7 C 4.03 g/m*3 1.7 C 0 km/h
2945 09-12-2010 13:14:01 1.5 C 4.19 g/m*3 1.5 C 0 km/h
2946 09-12-2010 13:26:01 1.6 C 4.22 g/m*3 1.6 C 0 km/h
2947 09-12-2010 13:38:02 2 C 4.17 g/m*3 2 C 0 km/h
2948 09-12-2010 13:50:02 1.9 C 3.92 g/m*3 1.9 C 0 km/h
2949 09-12-2010 14:02:02 2.3 C 3.91 g/m*3 2.3 C 0 km/h
2950 09-12-2010 14:14:02 2.2 C 3.89 g/m*3 2.2 C 0 km/h
Sensor: Nr:Datum:Temp:Abs-Feuchte:Windchill:Wind:
Aussen-T/F 2951 09-12-2010 14:26:02 2.1 C 3.86 g/m*3 2.1 C 0 km/h
2952 09-12-2010 14:38:02 2 C 4 g/m*3 2 C 0 km/h
2953 09-12-2010 14:50:02 2 C 3.95 g/m*3 2 C 0 km/h
2954 09-12-2010 15:02:02 1.6 C 3.95 g/m*3 1.6 C 0 km/h
2955 09-12-2010 15:14:02 1.4 C 3.89 g/m*3 1.4 C 0 km/h
2956 09-12-2010 15:26:02 2 C 3.72 g/m*3 2 C 0 km/h
2957 09-12-2010 15:38:02 2 C 3.61 g/m*3 2 C 0 km/h
2958 09-12-2010 15:50:02 2.2 C 3.55 g/m*3 2.2 C 0 km/h
2959 09-12-2010 16:02:02 1.9 C 3.53 g/m*3 1.9 C 0 km/h
2960 09-12-2010 16:14:02 1.7 C 3.59 g/m*3 1.7 C 0 km/h
2961 09-12-2010 16:26:03 0.9 C 3.61 g/m*3 0.9 C 0 km/h
2962 09-12-2010 16:38:02 1.6 C 3.79 g/m*3 1.6 C 0 km/h
2963 09-12-2010 16:50:02 1.5 C 3.76 g/m*3 1.5 C 0 km/h
2964 09-12-2010 17:02:02 1.6 C 3.79 g/m*3 1.6 C 0 km/h
2965 09-12-2010 17:14:02 1.5 C 3.81 g/m*3 1.5 C 0 km/h
2966 09-12-2010 17:26:02 1.5 C 3.92 g/m*3 1.5 C 0 km/h
2967 09-12-2010 17:38:02 1.5 C 3.97 g/m*3 1.5 C 0 km/h
2968 09-12-2010 17:50:02 1.4 C 3.95 g/m*3 1.4 C 0 km/h
2969 09-12-2010 18:02:01 1.7 C 4.03 g/m*3 1.7 C 0 km/h
2970 09-12-2010 18:14:01 1.5 C 3.97 g/m*3 1.5 C 0 km/h
2971 09-12-2010 18:26:02 1.7 C 4.08 g/m*3 1.7 C 0 km/h
2972 09-12-2010 18:38:02 1.5 C 4.03 g/m*3 1.5 C 0 km/h
2973 09-12-2010 18:50:02 2 C 4.06 g/m*3 2 C 0 km/h
2974 09-12-2010 19:02:03 2 C 3.89 g/m*3 2 C 0 km/h
2975 09-12-2010 19:14:03 2.3 C 3.91 g/m*3 2.3 C 0 km/h
Sensor: Nr:Datum:Temp:Abs-Feuchte:Windchill:Wind:
Aussen-T/F 2976 09-12-2010 19:26:02 2.2 C 3.89 g/m*3 2.2 C 0 km/h
2977 09-12-2010 19:38:02 2.2 C 3.89 g/m*3 2.2 C 0 km/h
2978 09-12-2010 19:50:01 2.1 C 3.92 g/m*3 2.1 C 0 km/h
2979 09-12-2010 20:02:02 2 C 3.95 g/m*3 2 C 0 km/h
2980 09-12-2010 20:14:02 2.5 C 4.02 g/m*3 2.5 C 0 km/h
2981 09-12-2010 20:26:01 2.6 C 3.99 g/m*3 2.6 C 0 km/h
2982 09-12-2010 20:39:03 2.7 C 4.02 g/m*3 2.7 C 0 km/h
2983 09-12-2010 20:51:03 2.4 C 4 g/m*3 2.4 C 0 km/h
2984 09-12-2010 21:03:03 2.6 C 4.11 g/m*3 2.6 C 0 km/h
2985 09-12-2010 21:15:03 2.6 C 4.05 g/m*3 2.6 C 0 km/h
2986 09-12-2010 21:27:03 2.6 C 4.05 g/m*3 2.6 C 0 km/h
2987 09-12-2010 21:39:03 2.6 C 3.99 g/m*3 2.6 C 0 km/h
2988 09-12-2010 21:51:03 2.5 C 4.08 g/m*3 2.5 C 0 km/h
2989 09-12-2010 22:03:03 2.8 C 4.11 g/m*3 2.8 C 0 km/h
2990 09-12-2010 22:15:03 2.7 C 4.08 g/m*3 2.7 C 0 km/h
2991 09-12-2010 22:27:03 2.4 C 4.11 g/m*3 2.4 C 0 km/h
2992 09-12-2010 22:39:04 2.4 C 4.17 g/m*3 2.4 C 0 km/h
2993 09-12-2010 22:51:04 1.9 C 4.3 g/m*3 1.9 C 0 km/h
2994 09-12-2010 23:03:04 1.6 C 4.33 g/m*3 1.6 C 0 km/h
2995 09-12-2010 23:15:04 1.4 C 4.37 g/m*3 1.4 C 0 km/h
2996 09-12-2010 23:27:04 1.4 C 4.43 g/m*3 1.4 C 0 km/h
2997 09-12-2010 23:39:04 1.6 C 4.54 g/m*3 1.6 C 0 km/h
2998 09-12-2010 23:51:04 1.5 C 4.46 g/m*3 1.5 C 0 km/h
2999 10-12-2010 00:03:04 1.6 C 4.49 g/m*3 1.6 C 0 km/h
3000 10-12-2010 00:15:04 1.6 C 4.43 g/m*3 1.6 C 0 km/h
Sensor: Nr:Datum:Temp:Abs-Feuchte:Windchill:Wind:
Aussen-T/F 3001 10-12-2010 00:27:04 2 C 4.45 g/m*3 2 C 0 km/h
3002 10-12-2010 00:39:04 2.1 C 4.36 g/m*3 2.1 C 0 km/h
3003 10-12-2010 00:51:04 2.2 C 4.34 g/m*3 2.2 C 0 km/h
3004 10-12-2010 01:03:04 2.1 C 4.36 g/m*3 2.1 C 0 km/h
3005 10-12-2010 01:15:04 1.9 C 4.36 g/m*3 1.9 C 0 km/h
3006 10-12-2010 01:27:04 2 C 4.39 g/m*3 2 C 0 km/h
3007 10-12-2010 01:39:04 2.1 C 4.36 g/m*3 2.1 C 0 km/h
3008 10-12-2010 01:51:04 2.1 C 4.31 g/m*3 2.1 C 0 km/h
3009 10-12-2010 02:03:04 2.3 C 4.2 g/m*3 2.3 C 0 km/h
3010 10-12-2010 02:15:04 1.8 C 4.17 g/m*3 1.8 C 0 km/h
3011 10-12-2010 02:27:04 1.4 C 4.16 g/m*3 1.4 C 0 km/h
3012 10-12-2010 02:39:04 1.6 C 4.38 g/m*3 1.6 C 0 km/h
3013 10-12-2010 02:51:04 1.4 C 4.37 g/m*3 1.4 C 0 km/h
3014 10-12-2010 03:03:05 1 C 4.31 g/m*3 1 C 0 km/h
3015 10-12-2010 03:15:05 1.3 C 4.5 g/m*3 1.3 C 0 km/h
3016 10-12-2010 03:27:05 1.2 C 4.53 g/m*3 1.2 C 0 km/h
3017 10-12-2010 03:39:05 1.3 C 4.61 g/m*3 1.3 C 0 km/h
3018 10-12-2010 03:51:05 1.4 C 4.64 g/m*3 1.4 C 0 km/h
3019 10-12-2010 04:03:05 1.4 C 4.69 g/m*3 1.4 C 0 km/h
3020 10-12-2010 04:15:05 1.2 C 4.63 g/m*3 1.2 C 0 km/h
3021 10-12-2010 04:27:05 1.4 C 4.69 g/m*3 1.4 C 0 km/h
3022 10-12-2010 04:39:05 2 C 4.89 g/m*3 2 C 0 km/h
3023 10-12-2010 04:51:05 2.5 C 5.06 g/m*3 2.5 C 0 km/h
3024 10-12-2010 05:03:05 2.8 C 5.04 g/m*3 2.8 C 0 km/h
3025 10-12-2010 05:15:05 2.6 C 4.86 g/m*3 2.6 C 0 km/h
Sensor: Nr:Datum:Temp:Abs-Feuchte:Windchill:Wind:
Aussen-T/F 3026 10-12-2010 05:27:05 2.4 C 4.8 g/m*3 2.4 C 0 km/h
3027 10-12-2010 05:39:05 2.4 C 4.85 g/m*3 2.4 C 0 km/h
3028 10-12-2010 05:51:05 2.4 C 4.8 g/m*3 2.4 C 0 km/h
3029 10-12-2010 06:03:05 2.2 C 4.79 g/m*3 2.2 C 0 km/h
3030 10-12-2010 06:15:05 2.1 C 4.76 g/m*3 2.1 C 0 km/h
3031 10-12-2010 06:27:05 2 C 4.72 g/m*3 2 C 0 km/h
3032 10-12-2010 06:39:05 1.5 C 4.67 g/m*3 1.5 C 0 km/h
3033 10-12-2010 06:51:05 1.4 C 4.69 g/m*3 1.4 C 0 km/h
3034 10-12-2010 07:03:05 1.2 C 4.63 g/m*3 1.2 C 0 km/h
3035 10-12-2010 07:15:02 1.1 C 4.65 g/m*3 1.1 C 0 km/h
3036 10-12-2010 07:27:03 1.1 C 4.65 g/m*3 1.1 C 0 km/h
3037 10-12-2010 07:39:02 0.5 C 4.46 g/m*3 0.5 C 0 km/h
3038 10-12-2010 07:51:03 -0.1 C 4.28 g/m*3 -0.1 C 0 km/h
3039 10-12-2010 08:03:02 -0.2 C 4.3 g/m*3 -0.2 C 0 km/h
3040 10-12-2010 08:15:02 -0.4 C 4.24 g/m*3 -0.4 C 0 km/h
3041 10-12-2010 08:27:02 -0.3 C 4.27 g/m*3 -0.3 C 0 km/h
3042 10-12-2010 08:39:02 -0.3 C 4.32 g/m*3 -0.3 C 0 km/h
3043 10-12-2010 08:51:02 -0.4 C 4.29 g/m*3 -0.4 C 0 km/h
3044 10-12-2010 09:03:02 -0.6 C 4.23 g/m*3 -0.6 C 0 km/h
3045 10-12-2010 09:15:02 -0.7 C 4.2 g/m*3 -0.7 C 0 km/h
3046 10-12-2010 09:27:02 -0.6 C 4.23 g/m*3 -0.6 C 0 km/h
3047 10-12-2010 09:39:02 0 C 4.41 g/m*3 0 C 0 km/h
3048 10-12-2010 09:51:02 -0.1 C 4.43 g/m*3 -0.1 C 0 km/h
3049 10-12-2010 10:03:01 -0.3 C 4.32 g/m*3 -0.3 C 0 km/h
3050 10-12-2010 10:15:01 0 C 4.41 g/m*3 0 C 0 km/h
Sensor: Nr:Datum:Temp:Abs-Feuchte:Windchill:Wind:
Aussen-T/F 3051 10-12-2010 10:27:02 0 C 4.41 g/m*3 0 C 0 km/h
3052 10-12-2010 10:39:01 0.2 C 4.52 g/m*3 0.2 C 0 km/h
3053 10-12-2010 10:51:03 0.4 C 4.58 g/m*3 0.4 C 0 km/h
3054 10-12-2010 11:03:02 0.2 C 4.47 g/m*3 0.2 C 0 km/h
3055 10-12-2010 11:15:02 1.1 C 4.76 g/m*3 1.1 C 0 km/h
3056 10-12-2010 11:27:02 1.6 C 4.92 g/m*3 1.6 C 0 km/h
3057 10-12-2010 11:39:02 2 C 5 g/m*3 2 C 0 km/h
3058 10-12-2010 11:51:02 2 C 4.95 g/m*3 2 C 0 km/h
3059 10-12-2010 12:03:01 2.3 C 5.05 g/m*3 2.3 C 0 km/h
3060 10-12-2010 12:15:02 2.2 C 4.96 g/m*3 2.2 C 0 km/h
3061 10-12-2010 12:27:02 2.4 C 5.02 g/m*3 2.4 C 0 km/h
3062 10-12-2010 12:39:02 2.3 C 4.93 g/m*3 2.3 C 0 km/h
3063 10-12-2010 12:51:02 2 C 4.78 g/m*3 2 C 0 km/h
3064 10-12-2010 13:03:03 2.6 C 4.98 g/m*3 2.6 C 0 km/h
3065 10-12-2010 13:15:02 2.7 C 4.95 g/m*3 2.7 C 0 km/h
3066 10-12-2010 13:27:02 3 C 4.88 g/m*3 3 C 0 km/h
3067 10-12-2010 13:39:02 3.4 C 4.95 g/m*3 3.4 C 0 km/h
3068 10-12-2010 13:51:01 3.1 C 4.73 g/m*3 3.1 C 0 km/h
3069 10-12-2010 14:03:02 3.1 C 4.67 g/m*3 3.1 C 0 km/h
3070 10-12-2010 14:15:01 3.1 C 4.67 g/m*3 3.1 C 0 km/h
3071 10-12-2010 14:27:01 2.9 C 4.67 g/m*3 2.9 C 0 km/h
3072 10-12-2010 14:39:01 2.7 C 4.66 g/m*3 2.7 C 0 km/h
3073 10-12-2010 14:51:01 2.3 C 4.59 g/m*3 2.3 C 0 km/h
3074 10-12-2010 15:03:01 2.2 C 4.62 g/m*3 2.2 C 0 km/h
3075 10-12-2010 15:15:02 1.8 C 4.6 g/m*3 1.8 C 0 km/h
Sensor: Nr:Datum:Temp:Abs-Feuchte:Windchill:Wind:
Aussen-T/F 3076 10-12-2010 15:27:02 1.8 C 4.66 g/m*3 1.8 C 0 km/h
3077 10-12-2010 15:39:01 1.6 C 4.65 g/m*3 1.6 C 0 km/h
3078 10-12-2010 15:51:02 1.5 C 4.67 g/m*3 1.5 C 0 km/h
3079 10-12-2010 16:03:01 1.5 C 4.73 g/m*3 1.5 C 0 km/h
3080 10-12-2010 16:15:01 1.5 C 4.78 g/m*3 1.5 C 0 km/h
3081 10-12-2010 16:27:02 1.4 C 4.75 g/m*3 1.4 C 0 km/h
3082 10-12-2010 16:39:01 1.6 C 4.87 g/m*3 1.6 C 0 km/h
3083 10-12-2010 16:51:02 1.7 C 4.9 g/m*3 1.7 C 0 km/h
3084 10-12-2010 17:03:01 1.9 C 4.97 g/m*3 1.9 C 0 km/h
3085 10-12-2010 17:15:02 1.6 C 4.87 g/m*3 1.6 C 0 km/h
3086 10-12-2010 17:27:02 1.6 C 4.87 g/m*3 1.6 C 0 km/h
3087 10-12-2010 17:39:02 2.3 C 5.1 g/m*3 2.3 C 0 km/h
3088 10-12-2010 17:51:01 1.8 C 4.93 g/m*3 1.8 C 0 km/h
3089 10-12-2010 18:03:02 1.7 C 4.9 g/m*3 1.7 C 0 km/h
3090 10-12-2010 18:15:01 2 C 5 g/m*3 2 C 0 km/h
3091 10-12-2010 18:27:01 2.2 C 5.01 g/m*3 2.2 C 0 km/h
3092 10-12-2010 18:39:02 1.8 C 4.88 g/m*3 1.8 C 0 km/h
3093 10-12-2010 18:51:02 1.6 C 4.87 g/m*3 1.6 C 0 km/h
3094 10-12-2010 19:03:02 2 C 4.95 g/m*3 2 C 0 km/h
3095 10-12-2010 19:15:01 2.2 C 5.01 g/m*3 2.2 C 0 km/h
3096 10-12-2010 19:27:01 2.5 C 5.06 g/m*3 2.5 C 0 km/h
3097 10-12-2010 19:39:02 2.3 C 4.93 g/m*3 2.3 C 0 km/h
3098 10-12-2010 19:51:02 2.4 C 4.91 g/m*3 2.4 C 0 km/h
3099 10-12-2010 20:03:02 2.4 C 4.91 g/m*3 2.4 C 0 km/h
3100 10-12-2010 20:15:01 2.7 C 5.01 g/m*3 2.7 C 0 km/h
Sensor: Nr:Datum:Temp:Abs-Feuchte:Windchill:Wind:
Aussen-T/F 3101 10-12-2010 20:27:01 2.8 C 4.99 g/m*3 2.8 C 0 km/h
3102 10-12-2010 20:39:02 2.5 C 4.83 g/m*3 2.5 C 0 km/h
3103 10-12-2010 20:51:01 2.6 C 4.92 g/m*3 2.6 C 0 km/h
3104 10-12-2010 21:03:02 2.5 C 4.89 g/m*3 2.5 C 0 km/h
3105 10-12-2010 21:15:02 2.5 C 4.83 g/m*3 2.5 C 0 km/h
3106 10-12-2010 21:27:02 2.4 C 4.8 g/m*3 2.4 C 0 km/h
3107 10-12-2010 21:39:02 2.6 C 4.86 g/m*3 2.6 C 0 km/h
3108 10-12-2010 21:51:02 2.5 C 4.89 g/m*3 2.5 C 0 km/h
3109 10-12-2010 22:03:02 2.5 C 4.89 g/m*3 2.5 C 0 km/h
3110 10-12-2010 22:15:01 2.6 C 4.86 g/m*3 2.6 C 0 km/h
3111 10-12-2010 22:27:01 2.4 C 4.85 g/m*3 2.4 C 0 km/h
3112 10-12-2010 22:39:02 2.5 C 4.89 g/m*3 2.5 C 0 km/h
3113 10-12-2010 22:51:01 2.6 C 4.86 g/m*3 2.6 C 0 km/h
3114 10-12-2010 23:03:02 2.4 C 4.8 g/m*3 2.4 C 0 km/h
3115 10-12-2010 23:15:02 2.3 C 4.82 g/m*3 2.3 C 0 km/h
3116 10-12-2010 23:27:02 2.1 C 4.87 g/m*3 2.1 C 0 km/h
3117 10-12-2010 23:39:02 2.2 C 4.9 g/m*3 2.2 C 0 km/h
3118 10-12-2010 23:51:01 2.2 C 4.9 g/m*3 2.2 C 0 km/h
3119 11-12-2010 00:03:02 2.2 C 4.96 g/m*3 2.2 C 0 km/h
3120 11-12-2010 00:15:02 2.3 C 4.99 g/m*3 2.3 C 0 km/h
3121 11-12-2010 00:27:02 2.1 C 4.92 g/m*3 2.1 C 0 km/h
3122 11-12-2010 00:39:01 2.2 C 5.01 g/m*3 2.2 C 0 km/h
3123 11-12-2010 00:51:02 2.1 C 4.98 g/m*3 2.1 C 0 km/h
3124 11-12-2010 01:03:01 2.3 C 5.05 g/m*3 2.3 C 0 km/h
3125 11-12-2010 01:15:02 2.4 C 5.08 g/m*3 2.4 C 0 km/h
Sensor: Nr:Datum:Temp:Abs-Feuchte:Windchill:Wind:
Aussen-T/F 3126 11-12-2010 01:27:03 2.5 C 5.12 g/m*3 2.5 C 0 km/h
3127 11-12-2010 01:39:01 2.5 C 5.06 g/m*3 2.5 C 0 km/h
3128 11-12-2010 01:51:02 2.6 C 5.09 g/m*3 2.6 C 0 km/h
3129 11-12-2010 02:03:02 2.7 C 5.13 g/m*3 2.7 C 0 km/h
3130 11-12-2010 02:15:02 2.8 C 5.16 g/m*3 2.8 C 0 km/h
3131 11-12-2010 02:27:02 2.8 C 5.16 g/m*3 2.8 C 0 km/h
3132 11-12-2010 02:39:03 2.6 C 5.09 g/m*3 2.6 C 0 km/h
3133 11-12-2010 02:51:01 2.7 C 5.13 g/m*3 2.7 C 0 km/h
3134 11-12-2010 03:03:01 2.6 C 5.09 g/m*3 2.6 C 0 km/h
3135 11-12-2010 03:15:02 2.7 C 5.13 g/m*3 2.7 C 0 km/h
3136 11-12-2010 03:27:02 2.3 C 4.99 g/m*3 2.3 C 0 km/h
3137 11-12-2010 03:39:02 2.3 C 5.05 g/m*3 2.3 C 0 km/h
3138 11-12-2010 03:51:02 2.8 C 5.22 g/m*3 2.8 C 0 km/h
3139 11-12-2010 04:03:01 3.3 C 5.34 g/m*3 3.3 C 0 km/h
3140 11-12-2010 04:15:01 3 C 5.17 g/m*3 3 C 0 km/h
3141 11-12-2010 04:27:01 3 C 5.17 g/m*3 3 C 0 km/h
3142 11-12-2010 04:39:02 3.5 C 5.29 g/m*3 3.5 C 0 km/h
3143 11-12-2010 04:51:01 3.5 C 5.23 g/m*3 3.5 C 0 km/h
3144 11-12-2010 05:03:02 4 C 5.28 g/m*3 4 C 0 km/h
3145 11-12-2010 05:15:01 4 C 5.21 g/m*3 4 C 0 km/h
3146 11-12-2010 05:27:01 3.8 C 5.14 g/m*3 3.8 C 0 km/h
3147 11-12-2010 05:39:02 3.8 C 5.14 g/m*3 3.8 C 0 km/h
3148 11-12-2010 05:51:01 3.7 C 5.17 g/m*3 3.7 C 0 km/h
3149 11-12-2010 06:03:02 3.6 C 5.2 g/m*3 3.6 C 0 km/h
3150 11-12-2010 06:15:01 3.1 C 5.03 g/m*3 3.1 C 0 km/h
Sensor: Nr:Datum:Temp:Abs-Feuchte:Windchill:Wind:
Aussen-T/F 3151 11-12-2010 06:27:01 3.4 C 5.19 g/m*3 3.4 C 0 km/h
3152 11-12-2010 06:39:01 3.4 C 5.19 g/m*3 3.4 C 0 km/h
3153 11-12-2010 06:51:01 3.3 C 5.16 g/m*3 3.3 C 0 km/h
3154 11-12-2010 07:03:01 3.6 C 5.32 g/m*3 3.6 C 0 km/h
3155 11-12-2010 07:15:01 3.9 C 5.31 g/m*3 3.9 C 0 km/h
3156 11-12-2010 07:27:01 4.5 C 5.26 g/m*3 4.5 C 0 km/h
3157 11-12-2010 07:39:01 4.5 C 5.13 g/m*3 4.5 C 0 km/h
3158 11-12-2010 07:51:01 4.2 C 5.03 g/m*3 4.2 C 0 km/h
3159 11-12-2010 08:03:01 4.6 C 5.16 g/m*3 4.6 C 0 km/h
3160 11-12-2010 08:15:02 4.7 C 5.06 g/m*3 4.7 C 0 km/h
3161 11-12-2010 08:27:02 5 C 4.96 g/m*3 5 C 0 km/h
3162 11-12-2010 08:39:01 5.1 C 4.92 g/m*3 5.1 C 0 km/h
3163 11-12-2010 08:51:02 4.9 C 4.93 g/m*3 4.9 C 0 km/h
3164 11-12-2010 09:03:01 4.5 C 4.86 g/m*3 4.5 C 0 km/h
3165 11-12-2010 09:15:02 4.3 C 4.99 g/m*3 4.3 C 0 km/h
3166 11-12-2010 09:27:02 4 C 4.9 g/m*3 4 C 0 km/h
3167 11-12-2010 09:39:01 4 C 5.15 g/m*3 4 C 0 km/h
3168 11-12-2010 09:51:02 4 C 5.28 g/m*3 4 C 0 km/h
3169 11-12-2010 10:03:01 3.9 C 5.37 g/m*3 3.9 C 0 km/h
3170 11-12-2010 10:15:01 4 C 5.4 g/m*3 4 C 0 km/h
3171 11-12-2010 10:27:01 4 C 5.4 g/m*3 4 C 0 km/h
3172 11-12-2010 10:39:02 3.8 C 5.33 g/m*3 3.8 C 0 km/h
3173 11-12-2010 10:51:01 3.8 C 5.4 g/m*3 3.8 C 0 km/h
3174 11-12-2010 11:03:02 4.1 C 5.38 g/m*3 4.1 C 0 km/h
3175 11-12-2010 11:15:01 4.2 C 5.35 g/m*3 4.2 C 0 km/h
Sensor: Nr:Datum:Temp:Abs-Feuchte:Windchill:Wind:
Aussen-T/F 3176 11-12-2010 11:27:01 4.5 C 5.39 g/m*3 4.5 C 0 km/h
3177 11-12-2010 11:39:02 4.4 C 5.35 g/m*3 4.4 C 0 km/h
3178 11-12-2010 11:51:01 4.3 C 5.38 g/m*3 4.3 C 0 km/h
3179 11-12-2010 12:03:02 4.3 C 5.45 g/m*3 4.3 C 0 km/h
3180 11-12-2010 12:15:01 4.4 C 5.55 g/m*3 4.4 C 0 km/h
3181 11-12-2010 12:27:01 4.6 C 5.62 g/m*3 4.6 C 0 km/h
3182 11-12-2010 12:39:01 4.6 C 5.62 g/m*3 4.6 C 0 km/h
3183 11-12-2010 12:51:01 4.8 C 5.57 g/m*3 4.8 C 0 km/h
3184 11-12-2010 13:03:01 4.8 C 5.5 g/m*3 4.8 C 0 km/h
3185 11-12-2010 13:15:01 4.8 C 5.43 g/m*3 4.8 C 0 km/h
3186 11-12-2010 13:27:01 4.8 C 5.36 g/m*3 4.8 C 0 km/h
3187 11-12-2010 13:39:01 4.9 C 5.33 g/m*3 4.9 C 0 km/h
3188 11-12-2010 13:51:01 5 C 5.3 g/m*3 5 C 0 km/h
3189 11-12-2010 14:03:01 4.8 C 5.3 g/m*3 4.8 C 0 km/h
3190 11-12-2010 14:15:02 4.9 C 5.33 g/m*3 4.9 C 0 km/h
3191 11-12-2010 14:27:02 4.8 C 5.3 g/m*3 4.8 C 0 km/h
3192 11-12-2010 14:39:01 4.9 C 5.33 g/m*3 4.9 C 0 km/h
3193 11-12-2010 14:51:02 5.1 C 5.27 g/m*3 5.1 C 0 km/h
3194 11-12-2010 15:03:01 5.1 C 5.27 g/m*3 5.1 C 0 km/h
3195 11-12-2010 15:15:02 5.1 C 5.2 g/m*3 5.1 C 0 km/h
3196 11-12-2010 15:27:02 5.2 C 5.16 g/m*3 5.2 C 0 km/h
3197 11-12-2010 15:39:01 5.1 C 5.13 g/m*3 5.1 C 0 km/h
3198 11-12-2010 15:51:02 4.8 C 5.16 g/m*3 4.8 C 0 km/h
3199 11-12-2010 16:03:01 4.7 C 5.2 g/m*3 4.7 C 0 km/h
3200 11-12-2010 16:15:01 4.6 C 5.23 g/m*3 4.6 C 0 km/h
Sensor: Nr:Datum:Temp:Abs-Feuchte:Windchill:Wind:
Aussen-T/F 3201 11-12-2010 16:27:01 5.1 C 5.27 g/m*3 5.1 C 0 km/h
3202 11-12-2010 16:39:02 5.1 C 5.27 g/m*3 5.1 C 0 km/h
3203 11-12-2010 16:51:01 5 C 5.23 g/m*3 5 C 0 km/h
3204 11-12-2010 17:03:02 5 C 5.16 g/m*3 5 C 0 km/h
3205 11-12-2010 17:15:01 5.4 C 5.23 g/m*3 5.4 C 0 km/h
3206 11-12-2010 17:27:01 5.5 C 5.2 g/m*3 5.5 C 0 km/h
3207 11-12-2010 17:39:02 5.1 C 5.2 g/m*3 5.1 C 0 km/h
3208 11-12-2010 17:51:01 4.8 C 5.3 g/m*3 4.8 C 0 km/h
3209 11-12-2010 18:03:02 4.7 C 5.26 g/m*3 4.7 C 0 km/h
3210 11-12-2010 18:15:01 4.4 C 5.16 g/m*3 4.4 C 0 km/h
3211 11-12-2010 18:27:01 4.2 C 5.15 g/m*3 4.2 C 0 km/h
3212 11-12-2010 18:39:01 3.9 C 5.24 g/m*3 3.9 C 0 km/h
3213 11-12-2010 18:51:01 3.9 C 5.24 g/m*3 3.9 C 0 km/h
3214 11-12-2010 19:03:01 4.1 C 5.25 g/m*3 4.1 C 0 km/h
3215 11-12-2010 19:15:02 4.2 C 5.22 g/m*3 4.2 C 0 km/h
3216 11-12-2010 19:27:02 4 C 5.15 g/m*3 4 C 0 km/h
3217 11-12-2010 19:39:01 4.4 C 5.22 g/m*3 4.4 C 0 km/h
3218 11-12-2010 19:51:01 4.6 C 5.16 g/m*3 4.6 C 0 km/h
3219 11-12-2010 20:03:01 4.5 C 5.06 g/m*3 4.5 C 0 km/h
3220 11-12-2010 20:15:02 4.4 C 5.03 g/m*3 4.4 C 0 km/h
3221 11-12-2010 20:27:02 5.4 C 5.02 g/m*3 5.4 C 0 km/h
3222 11-12-2010 20:39:01 5 C 4.89 g/m*3 5 C 0 km/h
3223 11-12-2010 20:51:02 4.8 C 5.03 g/m*3 4.8 C 0 km/h
3224 11-12-2010 21:03:01 4.9 C 5.06 g/m*3 4.9 C 0 km/h
3225 11-12-2010 21:15:01 4.8 C 5.03 g/m*3 4.8 C 0 km/h
Sensor: Nr:Datum:Temp:Abs-Feuchte:Windchill:Wind:
Aussen-T/F 3226 11-12-2010 21:27:02 4.1 C 4.99 g/m*3 4.1 C 0 km/h
3227 11-12-2010 21:39:01 4 C 5.02 g/m*3 4 C 0 km/h
3228 11-12-2010 21:51:02 4.2 C 5.09 g/m*3 4.2 C 0 km/h
3229 11-12-2010 22:03:01 4.5 C 5.13 g/m*3 4.5 C 0 km/h
3230 11-12-2010 22:15:01 4.2 C 5.03 g/m*3 4.2 C 0 km/h
3231 11-12-2010 22:27:01 4.5 C 5.13 g/m*3 4.5 C 0 km/h
3232 11-12-2010 22:40:19 4.4 C 4.96 g/m*3 4.4 C 0 km/h
3233 11-12-2010 22:52:19 3.9 C 4.93 g/m*3 3.9 C 0 km/h
3234 11-12-2010 23:04:19 4.6 C 5.03 g/m*3 4.6 C 0 km/h
3235 11-12-2010 23:16:20 4.8 C 4.9 g/m*3 4.8 C 0 km/h
3236 11-12-2010 23:28:20 4.8 C 4.9 g/m*3 4.8 C 0 km/h
3237 11-12-2010 23:40:20 4.5 C 4.8 g/m*3 4.5 C 0 km/h
3238 11-12-2010 23:52:20 4.6 C 4.83 g/m*3 4.6 C 0 km/h
3239